<?xml version='1.0' encoding='UTF-8'?><gpx version="1.1" creator="JPX - https://github.com/jenetics/jpx" xmlns="http://www.topografix.com/GPX/1/1"><trk><trkseg><trkpt lat="44.24497989997451" lon="8.360506007762323"><ele>515.0</ele><time>2026-04-15T15:38:12.999Z</time></trkpt><trkpt lat="44.24491632461428" lon="8.360530379773012"><ele>515.0</ele><time>2026-04-15T15:38:14.999Z</time></trkpt><trkpt lat="44.244849932471574" lon="8.360546455929873"><ele>515.0</ele><time>2026-04-15T15:38:16.999Z</time></trkpt><trkpt lat="44.244778818234884" lon="8.360590046013904"><ele>515.0</ele><time>2026-04-15T15:38:18.999Z</time></trkpt><trkpt lat="44.24470540444267" lon="8.360636739908516"><ele>515.0</ele><time>2026-04-15T15:38:20.999Z</time></trkpt><trkpt lat="44.24463461875566" lon="8.36067343552246"><ele>515.0</ele><time>2026-04-15T15:38:22.999Z</time></trkpt><trkpt lat="44.2445531783776" lon="8.360707350379446"><ele>516.1666666666666</ele><time>2026-04-15T15:38:24.999Z</time></trkpt><trkpt lat="44.244465007447936" lon="8.360713551967667"><ele>517.3333333333333</ele><time>2026-04-15T15:38:26.999Z</time></trkpt><trkpt lat="44.24439101653459" lon="8.360770243595121"><ele>518.5</ele><time>2026-04-15T15:38:28.999Z</time></trkpt><trkpt lat="44.24431257768261" lon="8.360831769134842"><ele>519.6666666666666</ele><time>2026-04-15T15:38:30.999Z</time></trkpt><trkpt lat="44.24425115379478" lon="8.360862792392862"><ele>520.8333333333334</ele><time>2026-04-15T15:38:33Z</time></trkpt><trkpt lat="44.24418793257143" lon="8.360884264808133"><ele>522.0</ele><time>2026-04-15T15:38:35Z</time></trkpt><trkpt lat="44.24411811003219" lon="8.360911408738072"><ele>522.0</ele><time>2026-04-15T15:38:38Z</time></trkpt><trkpt lat="44.24403213817415" lon="8.360927979949734"><ele>522.0</ele><time>2026-04-15T15:38:40Z</time></trkpt><trkpt lat="44.243954997782616" lon="8.360870654304529"><ele>522.0</ele><time>2026-04-15T15:38:43Z</time></trkpt><trkpt lat="44.2438901504877" lon="8.360862153761772"><ele>522.0</ele><time>2026-04-15T15:38:45Z</time></trkpt><trkpt lat="44.24381294583105" lon="8.360865719025435"><ele>522.0</ele><time>2026-04-15T15:38:48Z</time></trkpt><trkpt lat="44.24374788022879" lon="8.360927965509322"><ele>522.0</ele><time>2026-04-15T15:38:50Z</time></trkpt><trkpt lat="44.24368174401076" lon="8.36096223218073"><ele>522.5</ele><time>2026-04-15T15:38:52Z</time></trkpt><trkpt lat="44.24360088995368" lon="8.361031551240277"><ele>523.0</ele><time>2026-04-15T15:38:54Z</time></trkpt><trkpt lat="44.24354749740065" lon="8.361113171421412"><ele>523.5</ele><time>2026-04-15T15:38:56Z</time></trkpt><trkpt lat="44.24348506688742" lon="8.361153254011143"><ele>524.0</ele><time>2026-04-15T15:38:58Z</time></trkpt><trkpt lat="44.24341891134493" lon="8.36121008655454"><ele>524.5</ele><time>2026-04-15T15:39:00Z</time></trkpt><trkpt lat="44.24333933110865" lon="8.36124844945553"><ele>525.0</ele><time>2026-04-15T15:39:02Z</time></trkpt><trkpt lat="44.243272797473225" lon="8.361295047505365"><ele>525.0</ele><time>2026-04-15T15:39:04Z</time></trkpt><trkpt lat="44.24319033605834" lon="8.361338286277444"><ele>525.0</ele><time>2026-04-15T15:39:07Z</time></trkpt><trkpt lat="44.243125450879475" lon="8.361338024748283"><ele>525.0</ele><time>2026-04-15T15:39:09Z</time></trkpt><trkpt lat="44.243054469323255" lon="8.361355960898276"><ele>525.0</ele><time>2026-04-15T15:39:11Z</time></trkpt><trkpt lat="44.24298228453065" lon="8.361389159977406"><ele>525.0</ele><time>2026-04-15T15:39:13Z</time></trkpt><trkpt lat="44.2429108301815" lon="8.361425709632625"><ele>525.0</ele><time>2026-04-15T15:39:15Z</time></trkpt><trkpt lat="44.24284138763974" lon="8.361432354627592"><ele>525.0</ele><time>2026-04-15T15:39:17Z</time></trkpt><trkpt lat="44.242862720935996" lon="8.361336273971421"><ele>525.0</ele><time>2026-04-15T15:39:47Z</time></trkpt><trkpt lat="44.24279305578051" lon="8.361419871419866"><ele>525.0</ele><time>2026-04-15T15:39:49Z</time></trkpt><trkpt lat="44.24287529853424" lon="8.361437017536765"><ele>525.0</ele><time>2026-04-15T15:40:20Z</time></trkpt><trkpt lat="44.24294893958302" lon="8.361420674057648"><ele>525.0</ele><time>2026-04-15T15:40:22Z</time></trkpt><trkpt lat="44.24303649017036" lon="8.361368538780036"><ele>525.0</ele><time>2026-04-15T15:40:24Z</time></trkpt><trkpt lat="44.24313422786937" lon="8.361340869914553"><ele>525.0</ele><time>2026-04-15T15:40:26Z</time></trkpt><trkpt lat="44.24323047398121" lon="8.361343931991513"><ele>525.0</ele><time>2026-04-15T15:40:28Z</time></trkpt><trkpt lat="44.243306901086775" lon="8.361271058633221"><ele>525.0</ele><time>2026-04-15T15:40:30Z</time></trkpt><trkpt lat="44.24339063433042" lon="8.361218282944433"><ele>525.0</ele><time>2026-04-15T15:40:32Z</time></trkpt><trkpt lat="44.24346922326574" lon="8.36116570957293"><ele>525.0</ele><time>2026-04-15T15:40:34Z</time></trkpt><trkpt lat="44.24356628249469" lon="8.361080858143783"><ele>525.0</ele><time>2026-04-15T15:40:36Z</time></trkpt><trkpt lat="44.243636917243194" lon="8.360995279599837"><ele>525.0</ele><time>2026-04-15T15:40:37.999Z</time></trkpt><trkpt lat="44.24370923143387" lon="8.36094480146988"><ele>525.0</ele><time>2026-04-15T15:40:40Z</time></trkpt><trkpt lat="44.243797709320276" lon="8.36088611974407"><ele>525.0</ele><time>2026-04-15T15:40:44Z</time></trkpt><trkpt lat="44.24386833700115" lon="8.360880652156231"><ele>525.0</ele><time>2026-04-15T15:40:46Z</time></trkpt><trkpt lat="44.24394272342992" lon="8.36089448234575"><ele>525.0</ele><time>2026-04-15T15:40:48Z</time></trkpt><trkpt lat="44.24400790504318" lon="8.360923673802374"><ele>525.0</ele><time>2026-04-15T15:40:50Z</time></trkpt><trkpt lat="44.24408476480255" lon="8.36092844423272"><ele>524.4</ele><time>2026-04-15T15:40:52Z</time></trkpt><trkpt lat="44.244158365836135" lon="8.36088988820515"><ele>523.8</ele><time>2026-04-15T15:40:54Z</time></trkpt><trkpt lat="44.244241700576914" lon="8.360859018764168"><ele>523.2</ele><time>2026-04-15T15:40:56Z</time></trkpt><trkpt lat="44.244337324891745" lon="8.360802193165789"><ele>522.6</ele><time>2026-04-15T15:40:58Z</time></trkpt><trkpt lat="44.24442730100682" lon="8.360739226515397"><ele>522.0</ele><time>2026-04-15T15:41:00Z</time></trkpt><trkpt lat="44.244526752995476" lon="8.36071114064199"><ele>522.0</ele><time>2026-04-15T15:41:02Z</time></trkpt><trkpt lat="44.24458930263103" lon="8.360701018865115"><ele>522.0</ele><time>2026-04-15T15:41:03Z</time></trkpt><trkpt lat="44.24465336771305" lon="8.360673262255778"><ele>522.0</ele><time>2026-04-15T15:41:04Z</time></trkpt><trkpt lat="44.24472082402835" lon="8.360625222634882"><ele>522.0</ele><time>2026-04-15T15:41:05Z</time></trkpt><trkpt lat="44.244776000095435" lon="8.36058291009786"><ele>522.0</ele><time>2026-04-15T15:41:06Z</time></trkpt><trkpt lat="44.24488634044475" lon="8.36052027809128"><ele>522.0</ele><time>2026-04-15T15:41:08Z</time></trkpt><trkpt lat="44.24497347933706" lon="8.360476280461159"><ele>520.8333333333334</ele><time>2026-04-15T15:41:10Z</time></trkpt><trkpt lat="44.24504564520837" lon="8.360402888342715"><ele>519.6666666666666</ele><time>2026-04-15T15:41:13Z</time></trkpt><trkpt lat="44.24508823029526" lon="8.360315260920846"><ele>518.5</ele><time>2026-04-15T15:41:15Z</time></trkpt><trkpt lat="44.2451595281341" lon="8.360207903785504"><ele>517.3333333333333</ele><time>2026-04-15T15:41:17Z</time></trkpt><trkpt lat="44.24520242935057" lon="8.360143272648235"><ele>516.1666666666666</ele><time>2026-04-15T15:41:18Z</time></trkpt><trkpt lat="44.2452377063864" lon="8.360070255814515"><ele>515.0</ele><time>2026-04-15T15:41:19Z</time></trkpt><trkpt lat="44.245271854565345" lon="8.35999075259991"><ele>515.0</ele><time>2026-04-15T15:41:20Z</time></trkpt><trkpt lat="44.245310888251254" lon="8.359905809718882"><ele>515.0</ele><time>2026-04-15T15:41:21Z</time></trkpt><trkpt lat="44.24534993755461" lon="8.35982053713232"><ele>515.0</ele><time>2026-04-15T15:41:22Z</time></trkpt><trkpt lat="44.24539167966654" lon="8.359740088730186"><ele>515.0</ele><time>2026-04-15T15:41:23Z</time></trkpt><trkpt lat="44.24543306103461" lon="8.359656296559649"><ele>515.0</ele><time>2026-04-15T15:41:24Z</time></trkpt><trkpt lat="44.24547888729876" lon="8.3595834793428"><ele>515.0</ele><time>2026-04-15T15:41:25Z</time></trkpt><trkpt lat="44.245533933168566" lon="8.359499229574961"><ele>515.0</ele><time>2026-04-15T15:41:26Z</time></trkpt><trkpt lat="44.24558208636091" lon="8.359421238949237"><ele>516.8333333333333</ele><time>2026-04-15T15:41:27Z</time></trkpt><trkpt lat="44.24562886340632" lon="8.359339879539545"><ele>518.6666666666666</ele><time>2026-04-15T15:41:28Z</time></trkpt><trkpt lat="44.245677246887404" lon="8.359259406470864"><ele>520.5</ele><time>2026-04-15T15:41:29Z</time></trkpt><trkpt lat="44.24572964452547" lon="8.359181699044353"><ele>522.3333333333334</ele><time>2026-04-15T15:41:30Z</time></trkpt><trkpt lat="44.245790318165604" lon="8.35911352127908"><ele>524.1666666666667</ele><time>2026-04-15T15:41:31Z</time></trkpt><trkpt lat="44.24585709837794" lon="8.359051873809866"><ele>526.0</ele><time>2026-04-15T15:41:32Z</time></trkpt><trkpt lat="44.24592772984179" lon="8.3590067194368"><ele>526.0</ele><time>2026-04-15T15:41:33Z</time></trkpt><trkpt lat="44.24600985762968" lon="8.358961863381312"><ele>526.0</ele><time>2026-04-15T15:41:34Z</time></trkpt><trkpt lat="44.2460613639532" lon="8.358893082599183"><ele>526.0</ele><time>2026-04-15T15:41:35Z</time></trkpt><trkpt lat="44.246104321980496" lon="8.358815898291615"><ele>526.0</ele><time>2026-04-15T15:41:36Z</time></trkpt><trkpt lat="44.246137696278495" lon="8.358719558015279"><ele>526.0</ele><time>2026-04-15T15:41:37Z</time></trkpt><trkpt lat="44.24615760301823" lon="8.358619535778518"><ele>526.0</ele><time>2026-04-15T15:41:38Z</time></trkpt><trkpt lat="44.24617105505632" lon="8.358511427970084"><ele>524.2</ele><time>2026-04-15T15:41:39Z</time></trkpt><trkpt lat="44.24618428357977" lon="8.35841084293913"><ele>522.4000000000001</ele><time>2026-04-15T15:41:40Z</time></trkpt><trkpt lat="44.24620256351886" lon="8.35832358890543"><ele>520.6</ele><time>2026-04-15T15:41:41Z</time></trkpt><trkpt lat="44.24623687848459" lon="8.358212385540053"><ele>518.8000000000001</ele><time>2026-04-15T15:41:43Z</time></trkpt><trkpt lat="44.246104816633775" lon="8.35821798147739"><ele>517.0</ele><time>2026-04-15T15:41:46Z</time></trkpt><trkpt lat="44.246081060778735" lon="8.358361124951283"><ele>517.0</ele><time>2026-04-15T15:41:48Z</time></trkpt><trkpt lat="44.24606917396236" lon="8.358450937669687"><ele>517.0</ele><time>2026-04-15T15:41:49Z</time></trkpt><trkpt lat="44.24602884137179" lon="8.358534844043628"><ele>517.0</ele><time>2026-04-15T15:41:50Z</time></trkpt><trkpt lat="44.24599885239559" lon="8.358613375796121"><ele>517.0</ele><time>2026-04-15T15:41:51Z</time></trkpt><trkpt lat="44.24596191002357" lon="8.358694347076847"><ele>517.0</ele><time>2026-04-15T15:41:52Z</time></trkpt><trkpt lat="44.24591801416966" lon="8.358763507680031"><ele>517.0</ele><time>2026-04-15T15:41:53Z</time></trkpt><trkpt lat="44.245860509626574" lon="8.358814146448633"><ele>517.0</ele><time>2026-04-15T15:41:54Z</time></trkpt><trkpt lat="44.24580658694609" lon="8.35887157588008"><ele>515.4</ele><time>2026-04-15T15:41:55Z</time></trkpt><trkpt lat="44.245749280887146" lon="8.358928050775416"><ele>513.8000000000001</ele><time>2026-04-15T15:41:56Z</time></trkpt><trkpt lat="44.2456478083832" lon="8.359012488389657"><ele>512.2</ele><time>2026-04-15T15:41:58Z</time></trkpt><trkpt lat="44.24558514917781" lon="8.359047843537153"><ele>510.6</ele><time>2026-04-15T15:41:59Z</time></trkpt><trkpt lat="44.245469425306055" lon="8.359104902874606"><ele>509.0</ele><time>2026-04-15T15:42:01Z</time></trkpt><trkpt lat="44.24535006541785" lon="8.35917400354664"><ele>508.99999999999994</ele><time>2026-04-15T15:42:03Z</time></trkpt><trkpt lat="44.24530408892048" lon="8.359261554333019"><ele>509.0</ele><time>2026-04-15T15:42:04Z</time></trkpt><trkpt lat="44.24525108901331" lon="8.359331314673671"><ele>508.99999999999994</ele><time>2026-04-15T15:42:05Z</time></trkpt><trkpt lat="44.245201263985216" lon="8.359406934566097"><ele>508.99999999999994</ele><time>2026-04-15T15:42:06Z</time></trkpt><trkpt lat="44.24515564155774" lon="8.359487462054293"><ele>509.0</ele><time>2026-04-15T15:42:07Z</time></trkpt><trkpt lat="44.24510064647977" lon="8.359535280505384"><ele>508.99999999999994</ele><time>2026-04-15T15:42:08Z</time></trkpt><trkpt lat="44.245054153578536" lon="8.35959910470167"><ele>508.99999999999994</ele><time>2026-04-15T15:42:09Z</time></trkpt><trkpt lat="44.24496696959944" lon="8.359688098175592"><ele>508.99999999999994</ele><time>2026-04-15T15:42:11Z</time></trkpt><trkpt lat="44.244902906961215" lon="8.359721923517691"><ele>509.0</ele><time>2026-04-15T15:42:12Z</time></trkpt><trkpt lat="44.244830165028226" lon="8.35973636427814"><ele>508.99999999999994</ele><time>2026-04-15T15:42:13Z</time></trkpt><trkpt lat="44.24476139833585" lon="8.359747568752292"><ele>508.99999999999994</ele><time>2026-04-15T15:42:14Z</time></trkpt><trkpt lat="44.244697237382525" lon="8.359762514118474"><ele>509.0</ele><time>2026-04-15T15:42:15Z</time></trkpt><trkpt lat="44.24462981437176" lon="8.35978284250001"><ele>508.99999999999994</ele><time>2026-04-15T15:42:16Z</time></trkpt><trkpt lat="44.24455713372055" lon="8.359807887855073"><ele>508.99999999999994</ele><time>2026-04-15T15:42:17Z</time></trkpt><trkpt lat="44.244494213390986" lon="8.359828421691214"><ele>508.99999999999994</ele><time>2026-04-15T15:42:18Z</time></trkpt><trkpt lat="44.24442862669304" lon="8.359842901000283"><ele>509.0</ele><time>2026-04-15T15:42:19Z</time></trkpt><trkpt lat="44.244313803904774" lon="8.359842453903434"><ele>509.0</ele><time>2026-04-15T15:42:21Z</time></trkpt><trkpt lat="44.24425490344094" lon="8.359796132790317"><ele>509.0</ele><time>2026-04-15T15:42:22Z</time></trkpt><trkpt lat="44.244221017736336" lon="8.359721613839149"><ele>508.99999999999994</ele><time>2026-04-15T15:42:23Z</time></trkpt><trkpt lat="44.24416257551205" lon="8.359687968910293"><ele>509.0</ele><time>2026-04-15T15:42:24Z</time></trkpt><trkpt lat="44.24408335057904" lon="8.359568968943606"><ele>505.16666666666663</ele><time>2026-04-15T15:42:26Z</time></trkpt><trkpt lat="44.24396260199878" lon="8.359516290328813"><ele>501.3333333333333</ele><time>2026-04-15T15:42:28Z</time></trkpt><trkpt lat="44.243895876309544" lon="8.359515843481068"><ele>497.5</ele><time>2026-04-15T15:42:29Z</time></trkpt><trkpt lat="44.24381768861511" lon="8.359526602837441"><ele>493.66666666666663</ele><time>2026-04-15T15:42:30Z</time></trkpt><trkpt lat="44.24374329207478" lon="8.359546821350381"><ele>489.8333333333333</ele><time>2026-04-15T15:42:31Z</time></trkpt><trkpt lat="44.24367098863748" lon="8.359574890835006"><ele>486.0</ele><time>2026-04-15T15:42:32Z</time></trkpt><trkpt lat="44.243589030362934" lon="8.359565013105597"><ele>486.0</ele><time>2026-04-15T15:42:33Z</time></trkpt><trkpt lat="44.243521132488986" lon="8.359566607968587"><ele>486.0</ele><time>2026-04-15T15:42:34Z</time></trkpt><trkpt lat="44.24344255335091" lon="8.359565500088035"><ele>486.0</ele><time>2026-04-15T15:42:35Z</time></trkpt><trkpt lat="44.243365722512735" lon="8.359564375732301"><ele>486.0</ele><time>2026-04-15T15:42:36Z</time></trkpt><trkpt lat="44.243285100917895" lon="8.359573651811335"><ele>486.0</ele><time>2026-04-15T15:42:37Z</time></trkpt><trkpt lat="44.243195928587355" lon="8.359596512341959"><ele>486.0</ele><time>2026-04-15T15:42:38Z</time></trkpt><trkpt lat="44.243106344631975" lon="8.359614266343302"><ele>487.0</ele><time>2026-04-15T15:42:39Z</time></trkpt><trkpt lat="44.243034121754015" lon="8.359629663771408"><ele>488.0</ele><time>2026-04-15T15:42:39.999Z</time></trkpt><trkpt lat="44.242961506193346" lon="8.359659209959245"><ele>489.0</ele><time>2026-04-15T15:42:40.999Z</time></trkpt><trkpt lat="44.24289047376029" lon="8.359687938939679"><ele>490.0</ele><time>2026-04-15T15:42:41.999Z</time></trkpt><trkpt lat="44.24281718900476" lon="8.35971307969454"><ele>491.0</ele><time>2026-04-15T15:42:42.999Z</time></trkpt><trkpt lat="44.24275109266514" lon="8.359752963168859"><ele>492.0</ele><time>2026-04-15T15:42:43.999Z</time></trkpt><trkpt lat="44.24267947693585" lon="8.359786253563465"><ele>493.0</ele><time>2026-04-15T15:42:44.999Z</time></trkpt><trkpt lat="44.242567841747636" lon="8.35983290476781"><ele>493.00000000000006</ele><time>2026-04-15T15:42:46.999Z</time></trkpt><trkpt lat="44.242471140058086" lon="8.35992199326895"><ele>493.0</ele><time>2026-04-15T15:42:48.999Z</time></trkpt><trkpt lat="44.24241220995149" lon="8.359959908147168"><ele>493.0</ele><time>2026-04-15T15:42:49.999Z</time></trkpt><trkpt lat="44.24235444240156" lon="8.360008818483324"><ele>493.0</ele><time>2026-04-15T15:42:50.999Z</time></trkpt><trkpt lat="44.24230249351867" lon="8.360065187135472"><ele>493.00000000000006</ele><time>2026-04-15T15:42:51.999Z</time></trkpt><trkpt lat="44.2422413084182" lon="8.36010247157049"><ele>493.0</ele><time>2026-04-15T15:42:52.999Z</time></trkpt><trkpt lat="44.242188220062516" lon="8.360173112584068"><ele>491.0</ele><time>2026-04-15T15:42:53.999Z</time></trkpt><trkpt lat="44.24212066904326" lon="8.360212898080572"><ele>489.0</ele><time>2026-04-15T15:42:54.999Z</time></trkpt><trkpt lat="44.242054809093375" lon="8.360266500287889"><ele>487.0</ele><time>2026-04-15T15:42:55.999Z</time></trkpt><trkpt lat="44.241990378677244" lon="8.360323282006496"><ele>485.0</ele><time>2026-04-15T15:42:56.999Z</time></trkpt><trkpt lat="44.24192481451587" lon="8.36037097363934"><ele>483.0</ele><time>2026-04-15T15:42:57.999Z</time></trkpt><trkpt lat="44.24185870407275" lon="8.360408997847594"><ele>481.0</ele><time>2026-04-15T15:42:58.999Z</time></trkpt><trkpt lat="44.24179423815801" lon="8.360453690334072"><ele>479.0</ele><time>2026-04-15T15:42:59.999Z</time></trkpt><trkpt lat="44.2417264496803" lon="8.360510526411256"><ele>478.8333333333333</ele><time>2026-04-15T15:43:00.999Z</time></trkpt><trkpt lat="44.241671622376465" lon="8.360566358710617"><ele>478.66666666666663</ele><time>2026-04-15T15:43:01.999Z</time></trkpt><trkpt lat="44.24160464206146" lon="8.360621230097282"><ele>478.5</ele><time>2026-04-15T15:43:02.999Z</time></trkpt><trkpt lat="44.24154085410223" lon="8.360671627056075"><ele>478.33333333333337</ele><time>2026-04-15T15:43:03.999Z</time></trkpt><trkpt lat="44.24148011067264" lon="8.360717489616448"><ele>478.1666666666667</ele><time>2026-04-15T15:43:04.999Z</time></trkpt><trkpt lat="44.2414167003206" lon="8.360761815296948"><ele>478.0</ele><time>2026-04-15T15:43:05.999Z</time></trkpt><trkpt lat="44.24130881429563" lon="8.360862308204796"><ele>478.00000000000006</ele><time>2026-04-15T15:43:07.999Z</time></trkpt><trkpt lat="44.24125913495068" lon="8.360921307018618"><ele>478.0</ele><time>2026-04-15T15:43:08.999Z</time></trkpt><trkpt lat="44.24120627507625" lon="8.360982522568522"><ele>478.0</ele><time>2026-04-15T15:43:09.999Z</time></trkpt><trkpt lat="44.24115769950412" lon="8.36104827160395"><ele>478.0</ele><time>2026-04-15T15:43:10.999Z</time></trkpt><trkpt lat="44.2410818954419" lon="8.361173208725452"><ele>478.00000000000006</ele><time>2026-04-15T15:43:12.999Z</time></trkpt><trkpt lat="44.241041473917605" lon="8.361240838072456"><ele>478.0</ele><time>2026-04-15T15:43:13.999Z</time></trkpt><trkpt lat="44.24100057272105" lon="8.361319380104911"><ele>479.4</ele><time>2026-04-15T15:43:14.999Z</time></trkpt><trkpt lat="44.240961762880175" lon="8.361391717175755"><ele>480.79999999999995</ele><time>2026-04-15T15:43:15.999Z</time></trkpt><trkpt lat="44.24091147719672" lon="8.361527956890493"><ele>482.2</ele><time>2026-04-15T15:43:17.999Z</time></trkpt><trkpt lat="44.24084557847709" lon="8.361630040471935"><ele>483.6</ele><time>2026-04-15T15:43:19.999Z</time></trkpt><trkpt lat="44.24076150602519" lon="8.361722689237205"><ele>485.0</ele><time>2026-04-15T15:43:21.999Z</time></trkpt><trkpt lat="44.24069155217781" lon="8.361732906991657"><ele>483.0</ele><time>2026-04-15T15:43:23.999Z</time></trkpt><trkpt lat="44.240603161812956" lon="8.361760398962579"><ele>481.0</ele><time>2026-04-15T15:43:25.999Z</time></trkpt><trkpt lat="44.240492655503154" lon="8.361793809604318"><ele>479.0</ele><time>2026-04-15T15:43:27.999Z</time></trkpt><trkpt lat="44.2403856464934" lon="8.361827399178166"><ele>477.0</ele><time>2026-04-15T15:43:29.999Z</time></trkpt><trkpt lat="44.240297426697616" lon="8.361856782236599"><ele>475.0</ele><time>2026-04-15T15:43:31.999Z</time></trkpt><trkpt lat="44.240221020828734" lon="8.361936699574294"><ele>480.0</ele><time>2026-04-15T15:43:34.999Z</time></trkpt><trkpt lat="44.240271421833604" lon="8.362469554592348"><ele>485.0</ele><time>2026-04-15T15:43:35.999Z</time></trkpt><trkpt lat="44.24020522367546" lon="8.362593980319108"><ele>484.99999999999994</ele><time>2026-04-15T15:43:37.999Z</time></trkpt><trkpt lat="44.24012328022803" lon="8.362715010355611"><ele>485.0</ele><time>2026-04-15T15:43:39.999Z</time></trkpt><trkpt lat="44.240080466150985" lon="8.362781182874818"><ele>485.0</ele><time>2026-04-15T15:43:40.999Z</time></trkpt><trkpt lat="44.240038883765735" lon="8.362859937086212"><ele>485.0</ele><time>2026-04-15T15:43:41.999Z</time></trkpt><trkpt lat="44.24000304585793" lon="8.362936415513682"><ele>484.99999999999994</ele><time>2026-04-15T15:43:42.999Z</time></trkpt><trkpt lat="44.239947634541615" lon="8.363088848375238"><ele>485.0</ele><time>2026-04-15T15:43:44.999Z</time></trkpt><trkpt lat="44.2399196074341" lon="8.36317029471842"><ele>485.3333333333333</ele><time>2026-04-15T15:43:45.999Z</time></trkpt><trkpt lat="44.23988722712451" lon="8.363252130408936"><ele>485.66666666666663</ele><time>2026-04-15T15:43:46.999Z</time></trkpt><trkpt lat="44.23985427190378" lon="8.363327267435219"><ele>486.0</ele><time>2026-04-15T15:43:47.999Z</time></trkpt><trkpt lat="44.239770626330724" lon="8.363460507480552"><ele>486.33333333333337</ele><time>2026-04-15T15:43:49.999Z</time></trkpt><trkpt lat="44.23972002341911" lon="8.363526700842742"><ele>486.6666666666667</ele><time>2026-04-15T15:43:50.999Z</time></trkpt><trkpt lat="44.23962196202951" lon="8.363628281026138"><ele>487.0</ele><time>2026-04-15T15:43:52.999Z</time></trkpt><trkpt lat="44.23951899813961" lon="8.36370593739544"><ele>487.0</ele><time>2026-04-15T15:43:54.999Z</time></trkpt><trkpt lat="44.239441987537035" lon="8.363806400208503"><ele>487.00000000000006</ele><time>2026-04-15T15:43:56.999Z</time></trkpt><trkpt lat="44.239391291193996" lon="8.363948263285335"><ele>487.00000000000006</ele><time>2026-04-15T15:43:58.999Z</time></trkpt><trkpt lat="44.23932890882194" lon="8.364087148392215"><ele>487.0</ele><time>2026-04-15T15:44:00.999Z</time></trkpt><trkpt lat="44.239286053734865" lon="8.364154171175604"><ele>487.0</ele><time>2026-04-15T15:44:01.999Z</time></trkpt><trkpt lat="44.239195995668645" lon="8.364258709147377"><ele>487.0</ele><time>2026-04-15T15:44:03.999Z</time></trkpt><trkpt lat="44.23916072648799" lon="8.364412192984354"><ele>487.00000000000006</ele><time>2026-04-15T15:44:05.999Z</time></trkpt><trkpt lat="44.2391509466193" lon="8.364512410122439"><ele>487.00000000000006</ele><time>2026-04-15T15:44:06.999Z</time></trkpt><trkpt lat="44.239133630447526" lon="8.364659650208042"><ele>487.0</ele><time>2026-04-15T15:44:08.999Z</time></trkpt><trkpt lat="44.2391110115012" lon="8.364809829386358"><ele>487.0</ele><time>2026-04-15T15:44:10.999Z</time></trkpt><trkpt lat="44.23911177536741" lon="8.364964334185043"><ele>484.20000000000005</ele><time>2026-04-15T15:44:12.999Z</time></trkpt><trkpt lat="44.239112603656444" lon="8.365113546501293"><ele>481.40000000000003</ele><time>2026-04-15T15:44:14.999Z</time></trkpt><trkpt lat="44.23910586426688" lon="8.365260141286713"><ele>478.59999999999997</ele><time>2026-04-15T15:44:16.999Z</time></trkpt><trkpt lat="44.23907660421793" lon="8.365422174096928"><ele>475.79999999999995</ele><time>2026-04-15T15:44:18.999Z</time></trkpt><trkpt lat="44.239033715386114" lon="8.36557492024297"><ele>473.0</ele><time>2026-04-15T15:44:20.999Z</time></trkpt><trkpt lat="44.23900055788894" lon="8.365733505723405"><ele>470.59999999999997</ele><time>2026-04-15T15:44:22.999Z</time></trkpt><trkpt lat="44.238963010613304" lon="8.365873299559945"><ele>468.19999999999993</ele><time>2026-04-15T15:44:24.999Z</time></trkpt><trkpt lat="44.23896281195589" lon="8.366024247875286"><ele>465.8</ele><time>2026-04-15T15:44:26.999Z</time></trkpt><trkpt lat="44.23898283874145" lon="8.366160015993126"><ele>463.4</ele><time>2026-04-15T15:44:28.999Z</time></trkpt><trkpt lat="44.23898693336404" lon="8.366252873182885"><ele>461.0</ele><time>2026-04-15T15:44:29.999Z</time></trkpt><trkpt lat="44.2389771961236" lon="8.366383738799119"><ele>459.4</ele><time>2026-04-15T15:44:31.999Z</time></trkpt><trkpt lat="44.23896824987408" lon="8.366536198392662"><ele>457.8</ele><time>2026-04-15T15:44:33.999Z</time></trkpt><trkpt lat="44.23898030689105" lon="8.366707892183522"><ele>456.19999999999993</ele><time>2026-04-15T15:44:35.999Z</time></trkpt><trkpt lat="44.23895630848024" lon="8.36683793123115"><ele>454.59999999999997</ele><time>2026-04-15T15:44:37.999Z</time></trkpt><trkpt lat="44.23893752116893" lon="8.366974182099856"><ele>453.0</ele><time>2026-04-15T15:44:39.999Z</time></trkpt><trkpt lat="44.23896412437789" lon="8.36712341822298"><ele>452.1666666666667</ele><time>2026-04-15T15:44:41.999Z</time></trkpt><trkpt lat="44.23899013453328" lon="8.36720443927626"><ele>451.33333333333337</ele><time>2026-04-15T15:44:42.999Z</time></trkpt><trkpt lat="44.23902449115772" lon="8.367358679393032"><ele>450.5</ele><time>2026-04-15T15:44:44.999Z</time></trkpt><trkpt lat="44.239068982850206" lon="8.367488885512357"><ele>449.6666666666667</ele><time>2026-04-15T15:44:46.999Z</time></trkpt><trkpt lat="44.23910090502693" lon="8.367574464050458"><ele>448.83333333333337</ele><time>2026-04-15T15:44:48.999Z</time></trkpt><trkpt lat="44.23910126896419" lon="8.36767723736431"><ele>448.0</ele><time>2026-04-15T15:44:51Z</time></trkpt><trkpt lat="44.239068798716765" lon="8.367801337420449"><ele>448.0</ele><time>2026-04-15T15:44:53Z</time></trkpt><trkpt lat="44.23905388781358" lon="8.367930035902813"><ele>447.99999999999994</ele><time>2026-04-15T15:44:55Z</time></trkpt><trkpt lat="44.2390819485275" lon="8.368054619854345"><ele>447.99999999999994</ele><time>2026-04-15T15:44:57Z</time></trkpt><trkpt lat="44.23913098999041" lon="8.368203129617527"><ele>448.0</ele><time>2026-04-15T15:44:59Z</time></trkpt><trkpt lat="44.23915465717937" lon="8.368285331767483"><ele>448.0</ele><time>2026-04-15T15:45:00Z</time></trkpt><trkpt lat="44.239189342211006" lon="8.368447981782493"><ele>448.59999999999997</ele><time>2026-04-15T15:45:02Z</time></trkpt><trkpt lat="44.23920981421904" lon="8.368610433293448"><ele>449.19999999999993</ele><time>2026-04-15T15:45:04Z</time></trkpt><trkpt lat="44.23921956776815" lon="8.368764616234392"><ele>449.8</ele><time>2026-04-15T15:45:06Z</time></trkpt><trkpt lat="44.239212816731154" lon="8.368948327761569"><ele>450.4</ele><time>2026-04-15T15:45:08Z</time></trkpt><trkpt lat="44.23920144364559" lon="8.36904841577934"><ele>451.0</ele><time>2026-04-15T15:45:09Z</time></trkpt><trkpt lat="44.23920943273841" lon="8.369217965840308"><ele>451.33333333333337</ele><time>2026-04-15T15:45:11Z</time></trkpt><trkpt lat="44.23923576244856" lon="8.369307312730237"><ele>451.6666666666667</ele><time>2026-04-15T15:45:12Z</time></trkpt><trkpt lat="44.2392620933169" lon="8.369408480278397"><ele>452.0</ele><time>2026-04-15T15:45:13Z</time></trkpt><trkpt lat="44.239275324547236" lon="8.369498933219749"><ele>452.33333333333337</ele><time>2026-04-15T15:45:14Z</time></trkpt><trkpt lat="44.23927103918297" lon="8.369591082279817"><ele>452.6666666666667</ele><time>2026-04-15T15:45:15Z</time></trkpt><trkpt lat="44.23925721522284" lon="8.369680822474425"><ele>453.0</ele><time>2026-04-15T15:45:16Z</time></trkpt><trkpt lat="44.23920771874171" lon="8.3698151907184"><ele>451.3333333333333</ele><time>2026-04-15T15:45:18Z</time></trkpt><trkpt lat="44.23911093209755" lon="8.369913308826586"><ele>449.66666666666663</ele><time>2026-04-15T15:45:20Z</time></trkpt><trkpt lat="44.239057841441976" lon="8.369973258027395"><ele>448.0</ele><time>2026-04-15T15:45:21Z</time></trkpt><trkpt lat="44.23900286411297" lon="8.37003868097547"><ele>446.3333333333333</ele><time>2026-04-15T15:45:22Z</time></trkpt><trkpt lat="44.23894414503149" lon="8.370104438210065"><ele>444.66666666666663</ele><time>2026-04-15T15:45:23Z</time></trkpt><trkpt lat="44.23888629626913" lon="8.370164082006278"><ele>443.0</ele><time>2026-04-15T15:45:24Z</time></trkpt><trkpt lat="44.23884304920409" lon="8.370241136944781"><ele>446.57142857142856</ele><time>2026-04-15T15:45:25Z</time></trkpt><trkpt lat="44.23880898338441" lon="8.370315438245122"><ele>450.14285714285717</ele><time>2026-04-15T15:45:26Z</time></trkpt><trkpt lat="44.238796545718166" lon="8.37041566117431"><ele>453.7142857142857</ele><time>2026-04-15T15:45:27Z</time></trkpt><trkpt lat="44.238794802434015" lon="8.37051993766226"><ele>457.28571428571433</ele><time>2026-04-15T15:45:28Z</time></trkpt><trkpt lat="44.23879533957978" lon="8.370628040866897"><ele>460.8571428571429</ele><time>2026-04-15T15:45:29Z</time></trkpt><trkpt lat="44.23879041478779" lon="8.370736491031742"><ele>464.42857142857144</ele><time>2026-04-15T15:45:30Z</time></trkpt><trkpt lat="44.238792479820184" lon="8.37083878545807"><ele>468.0</ele><time>2026-04-15T15:45:31Z</time></trkpt><trkpt lat="44.238793606809175" lon="8.370928780404553"><ele>468.0</ele><time>2026-04-15T15:45:31.999Z</time></trkpt><trkpt lat="44.238791323479056" lon="8.371046118796157"><ele>467.99999999999994</ele><time>2026-04-15T15:45:33.999Z</time></trkpt><trkpt lat="44.23878802337943" lon="8.371163431757038"><ele>467.99999999999994</ele><time>2026-04-15T15:45:35.999Z</time></trkpt><trkpt lat="44.238762960159654" lon="8.371286636348977"><ele>468.0</ele><time>2026-04-15T15:45:37.999Z</time></trkpt><trkpt lat="44.23870653684793" lon="8.371373352199534"><ele>468.0</ele><time>2026-04-15T15:45:39.999Z</time></trkpt><trkpt lat="44.2386224321192" lon="8.37149528454507"><ele>461.4</ele><time>2026-04-15T15:45:41.999Z</time></trkpt><trkpt lat="44.238542044558116" lon="8.371621893629168"><ele>454.79999999999995</ele><time>2026-04-15T15:45:43.999Z</time></trkpt><trkpt lat="44.23848978297991" lon="8.371689380920298"><ele>448.2</ele><time>2026-04-15T15:45:44.999Z</time></trkpt><trkpt lat="44.238443876041366" lon="8.371753486338724"><ele>441.6</ele><time>2026-04-15T15:45:45.999Z</time></trkpt><trkpt lat="44.23836092942759" lon="8.371830240373704"><ele>435.0</ele><time>2026-04-15T15:45:47.999Z</time></trkpt><trkpt lat="44.23827033546505" lon="8.371884569988369"><ele>435.0</ele><time>2026-04-15T15:45:49.999Z</time></trkpt><trkpt lat="44.238184925587305" lon="8.371946171061166"><ele>435.0</ele><time>2026-04-15T15:45:51.999Z</time></trkpt><trkpt lat="44.23811141280334" lon="8.372029924672376"><ele>435.0</ele><time>2026-04-15T15:45:53.999Z</time></trkpt><trkpt lat="44.23804634379315" lon="8.372169020984053"><ele>435.0</ele><time>2026-04-15T15:45:55.999Z</time></trkpt><trkpt lat="44.237965252077096" lon="8.37226424033824"><ele>435.0</ele><time>2026-04-15T15:45:57.999Z</time></trkpt><trkpt lat="44.23790558321198" lon="8.372347818741384"><ele>435.4</ele><time>2026-04-15T15:45:59.999Z</time></trkpt><trkpt lat="44.23788370101249" lon="8.372470652792499"><ele>435.8</ele><time>2026-04-15T15:46:01.999Z</time></trkpt><trkpt lat="44.237886575084694" lon="8.372621195477079"><ele>436.20000000000005</ele><time>2026-04-15T15:46:03.999Z</time></trkpt><trkpt lat="44.23788546417626" lon="8.372791281718362"><ele>436.6</ele><time>2026-04-15T15:46:05.999Z</time></trkpt><trkpt lat="44.23786500801322" lon="8.37288571233047"><ele>437.0</ele><time>2026-04-15T15:46:06.999Z</time></trkpt><trkpt lat="44.2378367324747" lon="8.372968825531288"><ele>433.99999999999994</ele><time>2026-04-15T15:46:07.999Z</time></trkpt><trkpt lat="44.23778415576945" lon="8.373051595203817"><ele>431.0</ele><time>2026-04-15T15:46:08.999Z</time></trkpt><trkpt lat="44.237729983869514" lon="8.373113145073276"><ele>428.0</ele><time>2026-04-15T15:46:09.999Z</time></trkpt><trkpt lat="44.23768661479088" lon="8.373288722220678"><ele>425.0</ele><time>2026-04-15T15:46:11.999Z</time></trkpt><trkpt lat="44.23768818082888" lon="8.3733895122585"><ele>421.99999999999994</ele><time>2026-04-15T15:46:12.999Z</time></trkpt><trkpt lat="44.237699042035736" lon="8.373480297262434"><ele>419.0</ele><time>2026-04-15T15:46:13.999Z</time></trkpt><trkpt lat="44.23768640695574" lon="8.373615010598723"><ele>418.99999999999994</ele><time>2026-04-15T15:46:15.999Z</time></trkpt><trkpt lat="44.237622647498036" lon="8.373734350575905"><ele>419.0</ele><time>2026-04-15T15:46:17.999Z</time></trkpt><trkpt lat="44.23757667921668" lon="8.373803445623867"><ele>419.0</ele><time>2026-04-15T15:46:18.999Z</time></trkpt><trkpt lat="44.2375228521274" lon="8.3738635599832"><ele>419.0</ele><time>2026-04-15T15:46:19.999Z</time></trkpt><trkpt lat="44.237413842622445" lon="8.373893131033434"><ele>418.99999999999994</ele><time>2026-04-15T15:46:21.999Z</time></trkpt><trkpt lat="44.23736199751503" lon="8.373960702552875"><ele>419.0</ele><time>2026-04-15T15:46:23.999Z</time></trkpt><trkpt lat="44.237370187301075" lon="8.374082026129647"><ele>417.1428571428571</ele><time>2026-04-15T15:46:26.999Z</time></trkpt><trkpt lat="44.23738860167161" lon="8.374188721384835"><ele>415.2857142857143</ele><time>2026-04-15T15:46:29.999Z</time></trkpt><trkpt lat="44.23742447271373" lon="8.374269208825796"><ele>413.42857142857144</ele><time>2026-04-15T15:46:32.999Z</time></trkpt><trkpt lat="44.23747445151001" lon="8.37432631578573"><ele>411.57142857142856</ele><time>2026-04-15T15:46:35.999Z</time></trkpt><trkpt lat="44.23751643226483" lon="8.374392735258978"><ele>409.7142857142857</ele><time>2026-04-15T15:46:43.999Z</time></trkpt><trkpt lat="44.23759176126338" lon="8.374439330307837"><ele>407.85714285714283</ele><time>2026-04-15T15:46:45.999Z</time></trkpt><trkpt lat="44.237658705768" lon="8.374487272019891"><ele>406.0</ele><time>2026-04-15T15:46:47.999Z</time></trkpt><trkpt lat="44.237744263610004" lon="8.374527123839027"><ele>406.00000000000006</ele><time>2026-04-15T15:46:50.999Z</time></trkpt><trkpt lat="44.23781473905083" lon="8.37454876665792"><ele>406.0</ele><time>2026-04-15T15:46:52.999Z</time></trkpt><trkpt lat="44.23787948873623" lon="8.374546955631086"><ele>406.0</ele><time>2026-04-15T15:46:54.999Z</time></trkpt><trkpt lat="44.23796108266665" lon="8.374532705119297"><ele>406.0</ele><time>2026-04-15T15:46:57Z</time></trkpt><trkpt lat="44.2380398137227" lon="8.37449942736329"><ele>406.00000000000006</ele><time>2026-04-15T15:46:59Z</time></trkpt><trkpt lat="44.23810937276582" lon="8.37446621774334"><ele>406.0</ele><time>2026-04-15T15:47:01Z</time></trkpt><trkpt lat="44.23821415900863" lon="8.374451657985217"><ele>404.0</ele><time>2026-04-15T15:47:03Z</time></trkpt><trkpt lat="44.23831697221432" lon="8.374418557341121"><ele>402.0</ele><time>2026-04-15T15:47:05Z</time></trkpt><trkpt lat="44.23840432049595" lon="8.374379505262034"><ele>400.0</ele><time>2026-04-15T15:47:07Z</time></trkpt><trkpt lat="44.238506148900825" lon="8.374369789460337"><ele>398.0</ele><time>2026-04-15T15:47:09Z</time></trkpt><trkpt lat="44.238613010674634" lon="8.374424275344273"><ele>396.0</ele><time>2026-04-15T15:47:11Z</time></trkpt><trkpt lat="44.23867011312415" lon="8.374462095224796"><ele>396.0</ele><time>2026-04-15T15:47:12Z</time></trkpt><trkpt lat="44.23872997513282" lon="8.374510029223732"><ele>396.0</ele><time>2026-04-15T15:47:13Z</time></trkpt><trkpt lat="44.23878990262712" lon="8.374551930966218"><ele>396.0</ele><time>2026-04-15T15:47:14Z</time></trkpt><trkpt lat="44.23888285715703" lon="8.374637891499084"><ele>396.0</ele><time>2026-04-15T15:47:16Z</time></trkpt><trkpt lat="44.23896436475899" lon="8.374698354817236"><ele>396.0</ele><time>2026-04-15T15:47:18Z</time></trkpt><trkpt lat="44.23907385406547" lon="8.37470101390488"><ele>396.0</ele><time>2026-04-15T15:47:20Z</time></trkpt><trkpt lat="44.239136693107085" lon="8.374719304611475"><ele>398.3333333333333</ele><time>2026-04-15T15:47:21Z</time></trkpt><trkpt lat="44.2391979747063" lon="8.37476274575445"><ele>400.66666666666663</ele><time>2026-04-15T15:47:22Z</time></trkpt><trkpt lat="44.239269178570076" lon="8.374796181935377"><ele>403.0</ele><time>2026-04-15T15:47:23Z</time></trkpt><trkpt lat="44.239400921369665" lon="8.374829765172844"><ele>405.3333333333333</ele><time>2026-04-15T15:47:25Z</time></trkpt><trkpt lat="44.23947146388019" lon="8.374846382536793"><ele>407.66666666666663</ele><time>2026-04-15T15:47:26Z</time></trkpt><trkpt lat="44.23953691232371" lon="8.3748752401239"><ele>410.0</ele><time>2026-04-15T15:47:27Z</time></trkpt><trkpt lat="44.239636014932444" lon="8.374926869400685"><ele>410.0</ele><time>2026-04-15T15:47:29Z</time></trkpt><trkpt lat="44.23973502592767" lon="8.37498031911643"><ele>410.0</ele><time>2026-04-15T15:47:31Z</time></trkpt><trkpt lat="44.23983954028037" lon="8.37496488848448"><ele>410.0</ele><time>2026-04-15T15:47:33Z</time></trkpt><trkpt lat="44.239962804690066" lon="8.374969834232335"><ele>410.0</ele><time>2026-04-15T15:47:35Z</time></trkpt><trkpt lat="44.24008233731916" lon="8.374995734746898"><ele>409.66666666666663</ele><time>2026-04-15T15:47:37Z</time></trkpt><trkpt lat="44.24015052881586" lon="8.375010477069688"><ele>409.3333333333333</ele><time>2026-04-15T15:47:38Z</time></trkpt><trkpt lat="44.240258458433914" lon="8.374968295124184"><ele>409.0</ele><time>2026-04-15T15:47:40Z</time></trkpt><trkpt lat="44.2403199324819" lon="8.374919536544528"><ele>408.66666666666663</ele><time>2026-04-15T15:47:41Z</time></trkpt><trkpt lat="44.24038192780136" lon="8.374873477283462"><ele>408.3333333333333</ele><time>2026-04-15T15:47:42Z</time></trkpt><trkpt lat="44.240453981428765" lon="8.374846301793882"><ele>408.0</ele><time>2026-04-15T15:47:44Z</time></trkpt><trkpt lat="44.240529494442356" lon="8.374892775899209"><ele>408.0</ele><time>2026-04-15T15:47:46Z</time></trkpt><trkpt lat="44.24058482665323" lon="8.37501274101274"><ele>408.0</ele><time>2026-04-15T15:47:48Z</time></trkpt><trkpt lat="44.240612411841155" lon="8.375094096425665"><ele>408.0</ele><time>2026-04-15T15:47:49Z</time></trkpt><trkpt lat="44.2406533558983" lon="8.375243577115324"><ele>408.0</ele><time>2026-04-15T15:47:51Z</time></trkpt><trkpt lat="44.24066895862087" lon="8.375402316748335"><ele>408.0</ele><time>2026-04-15T15:47:53Z</time></trkpt><trkpt lat="44.240674625916256" lon="8.375492889596185"><ele>408.5</ele><time>2026-04-15T15:47:54Z</time></trkpt><trkpt lat="44.240684757189705" lon="8.37559428057022"><ele>409.0</ele><time>2026-04-15T15:47:55Z</time></trkpt><trkpt lat="44.24068828771162" lon="8.375683750281526"><ele>409.5</ele><time>2026-04-15T15:47:56Z</time></trkpt><trkpt lat="44.24067117689672" lon="8.375820021805952"><ele>410.0</ele><time>2026-04-15T15:47:58Z</time></trkpt><trkpt lat="44.240714767230976" lon="8.375954506775281"><ele>410.5</ele><time>2026-04-15T15:48:00Z</time></trkpt><trkpt lat="44.240770056297755" lon="8.376002531580715"><ele>411.0</ele><time>2026-04-15T15:48:01Z</time></trkpt><trkpt lat="44.240848061840836" lon="8.3761007099001"><ele>411.0</ele><time>2026-04-15T15:48:03Z</time></trkpt><trkpt lat="44.240915025461035" lon="8.376237430836538"><ele>411.0</ele><time>2026-04-15T15:48:04.999Z</time></trkpt><trkpt lat="44.24094491376491" lon="8.37639725847112"><ele>411.0</ele><time>2026-04-15T15:48:06.999Z</time></trkpt><trkpt lat="44.24095968861957" lon="8.376487652109368"><ele>411.0</ele><time>2026-04-15T15:48:07.999Z</time></trkpt><trkpt lat="44.240982343309696" lon="8.376586227802306"><ele>411.0</ele><time>2026-04-15T15:48:08.999Z</time></trkpt><trkpt lat="44.24101129391895" lon="8.376671733251696"><ele>411.0</ele><time>2026-04-15T15:48:09.999Z</time></trkpt><trkpt lat="44.241071707971905" lon="8.376798128400656"><ele>413.20000000000005</ele><time>2026-04-15T15:48:11.999Z</time></trkpt><trkpt lat="44.241118357273976" lon="8.376968775683208"><ele>415.40000000000003</ele><time>2026-04-15T15:48:13.999Z</time></trkpt><trkpt lat="44.241154115800384" lon="8.37704781757354"><ele>417.6</ele><time>2026-04-15T15:48:14.999Z</time></trkpt><trkpt lat="44.241234675029254" lon="8.377177204564914"><ele>419.8</ele><time>2026-04-15T15:48:16.999Z</time></trkpt><trkpt lat="44.24126842827232" lon="8.377263274434023"><ele>422.0</ele><time>2026-04-15T15:48:17.999Z</time></trkpt><trkpt lat="44.241272627507115" lon="8.377404335079365"><ele>422.99999999999994</ele><time>2026-04-15T15:48:19.999Z</time></trkpt><trkpt lat="44.24120984682555" lon="8.37750536578113"><ele>424.0</ele><time>2026-04-15T15:48:21.999Z</time></trkpt><trkpt lat="44.24110712153367" lon="8.377530175425507"><ele>425.0</ele><time>2026-04-15T15:48:23.999Z</time></trkpt><trkpt lat="44.241046959491904" lon="8.377561882521821"><ele>426.0</ele><time>2026-04-15T15:48:24.999Z</time></trkpt><trkpt lat="44.240991940242466" lon="8.377668135690701"><ele>426.99999999999994</ele><time>2026-04-15T15:48:26.999Z</time></trkpt><trkpt lat="44.24101914539358" lon="8.377769018241505"><ele>428.0</ele><time>2026-04-15T15:48:28.999Z</time></trkpt><trkpt lat="44.24108751646229" lon="8.377878002473135"><ele>428.79999999999995</ele><time>2026-04-15T15:48:30.999Z</time></trkpt><trkpt lat="44.2411270785802" lon="8.378028582968778"><ele>429.59999999999997</ele><time>2026-04-15T15:48:32.999Z</time></trkpt><trkpt lat="44.24113094785993" lon="8.378170839479514"><ele>430.40000000000003</ele><time>2026-04-15T15:48:34.999Z</time></trkpt><trkpt lat="44.24119269466791" lon="8.378279379590621"><ele>431.20000000000005</ele><time>2026-04-15T15:48:36.999Z</time></trkpt><trkpt lat="44.24127478664807" lon="8.378366288695029"><ele>432.0</ele><time>2026-04-15T15:48:38.999Z</time></trkpt><trkpt lat="44.24130849252328" lon="8.378482855779502"><ele>432.0</ele><time>2026-04-15T15:48:40.999Z</time></trkpt><trkpt lat="44.241298802594464" lon="8.378619112991256"><ele>432.00000000000006</ele><time>2026-04-15T15:48:42.999Z</time></trkpt><trkpt lat="44.24123204112039" lon="8.378728769640645"><ele>432.00000000000006</ele><time>2026-04-15T15:48:44.999Z</time></trkpt><trkpt lat="44.2411639886673" lon="8.378809028166392"><ele>432.0</ele><time>2026-04-15T15:48:46.999Z</time></trkpt><trkpt lat="44.24111962110581" lon="8.378901914230264"><ele>432.0</ele><time>2026-04-15T15:48:48.999Z</time></trkpt><trkpt lat="44.24107524520437" lon="8.379000972847765"><ele>432.0</ele><time>2026-04-15T15:48:50.999Z</time></trkpt><trkpt lat="44.24110868705307" lon="8.37911699976009"><ele>432.00000000000006</ele><time>2026-04-15T15:48:52.999Z</time></trkpt><trkpt lat="44.241146134322975" lon="8.379208812953847"><ele>432.00000000000006</ele><time>2026-04-15T15:48:54.999Z</time></trkpt><trkpt lat="44.24116274389736" lon="8.379325802449232"><ele>432.0</ele><time>2026-04-15T15:48:56.999Z</time></trkpt><trkpt lat="44.24115396667099" lon="8.379487744936442"><ele>432.0</ele><time>2026-04-15T15:48:58.999Z</time></trkpt><trkpt lat="44.24117529096312" lon="8.379649409014368"><ele>432.6</ele><time>2026-04-15T15:49:00.999Z</time></trkpt><trkpt lat="44.24122426711597" lon="8.37977532630436"><ele>433.20000000000005</ele><time>2026-04-15T15:49:03Z</time></trkpt><trkpt lat="44.24121369363125" lon="8.379902177598384"><ele>433.8</ele><time>2026-04-15T15:49:05Z</time></trkpt><trkpt lat="44.24114367170736" lon="8.380004940427177"><ele>434.4</ele><time>2026-04-15T15:49:07Z</time></trkpt><trkpt lat="44.241110635146235" lon="8.380092567460236"><ele>435.0</ele><time>2026-04-15T15:49:09Z</time></trkpt><trkpt lat="44.24116869978772" lon="8.380187084011757"><ele>435.0</ele><time>2026-04-15T15:49:11Z</time></trkpt><trkpt lat="44.24121888670823" lon="8.380250843476297"><ele>435.0</ele><time>2026-04-15T15:49:12Z</time></trkpt><trkpt lat="44.24127845759778" lon="8.38030532796267"><ele>435.0</ele><time>2026-04-15T15:49:13Z</time></trkpt><trkpt lat="44.241352875585164" lon="8.38033596093627"><ele>435.0</ele><time>2026-04-15T15:49:14Z</time></trkpt><trkpt lat="44.24142735299217" lon="8.38036946647347"><ele>435.0</ele><time>2026-04-15T15:49:15Z</time></trkpt><trkpt lat="44.241486005854604" lon="8.380406249440178"><ele>435.0</ele><time>2026-04-15T15:49:16Z</time></trkpt><trkpt lat="44.24155864919205" lon="8.380494802212722"><ele>435.5</ele><time>2026-04-15T15:49:18Z</time></trkpt><trkpt lat="44.241546711501215" lon="8.380600778141506"><ele>436.0</ele><time>2026-04-15T15:49:20Z</time></trkpt><trkpt lat="44.24147331136343" lon="8.380675820468472"><ele>436.5</ele><time>2026-04-15T15:49:22Z</time></trkpt><trkpt lat="44.24138027830986" lon="8.380735479130161"><ele>437.0</ele><time>2026-04-15T15:49:24Z</time></trkpt><trkpt lat="44.24133328199676" lon="8.380794009678288"><ele>437.5</ele><time>2026-04-15T15:49:26Z</time></trkpt><trkpt lat="44.241366294836595" lon="8.38092024122629"><ele>438.0</ele><time>2026-04-15T15:49:28Z</time></trkpt><trkpt lat="44.241451709704606" lon="8.380960082286645"><ele>432.59999999999997</ele><time>2026-04-15T15:49:30Z</time></trkpt><trkpt lat="44.24151212506636" lon="8.380986483295821"><ele>427.19999999999993</ele><time>2026-04-15T15:49:31Z</time></trkpt><trkpt lat="44.241609075967055" lon="8.381078053292256"><ele>421.8</ele><time>2026-04-15T15:49:33Z</time></trkpt><trkpt lat="44.2416792953041" lon="8.381163340136329"><ele>416.4</ele><time>2026-04-15T15:49:35Z</time></trkpt><trkpt lat="44.24169524616997" lon="8.381266600235456"><ele>411.0</ele><time>2026-04-15T15:49:37Z</time></trkpt><trkpt lat="44.24168818079611" lon="8.381423784864822"><ele>411.0</ele><time>2026-04-15T15:49:39Z</time></trkpt><trkpt lat="44.241682412567194" lon="8.381568900262414"><ele>411.0</ele><time>2026-04-15T15:49:41Z</time></trkpt><trkpt lat="44.24174395534496" lon="8.38170831478946"><ele>411.0</ele><time>2026-04-15T15:49:43Z</time></trkpt><trkpt lat="44.24180283852056" lon="8.381827217165498"><ele>411.0</ele><time>2026-04-15T15:49:45Z</time></trkpt><trkpt lat="44.241833243093716" lon="8.381963913338248"><ele>411.0</ele><time>2026-04-15T15:49:47Z</time></trkpt><trkpt lat="44.24185693060147" lon="8.382124199002112"><ele>411.85714285714283</ele><time>2026-04-15T15:49:49Z</time></trkpt><trkpt lat="44.2418744467234" lon="8.382212699250564"><ele>412.71428571428567</ele><time>2026-04-15T15:49:50Z</time></trkpt><trkpt lat="44.24190631550886" lon="8.38228888167487"><ele>413.57142857142856</ele><time>2026-04-15T15:49:51Z</time></trkpt><trkpt lat="44.241945246944816" lon="8.382360570412468"><ele>414.42857142857144</ele><time>2026-04-15T15:49:52Z</time></trkpt><trkpt lat="44.24199600105492" lon="8.382425362673581"><ele>415.2857142857143</ele><time>2026-04-15T15:49:53Z</time></trkpt><trkpt lat="44.242045916330646" lon="8.382494811225845"><ele>416.14285714285717</ele><time>2026-04-15T15:49:54Z</time></trkpt><trkpt lat="44.24208490241103" lon="8.382568606007213"><ele>417.0</ele><time>2026-04-15T15:49:55Z</time></trkpt><trkpt lat="44.242132331714075" lon="8.382725905901019"><ele>417.0</ele><time>2026-04-15T15:49:57Z</time></trkpt><trkpt lat="44.242173067078525" lon="8.382900129300824"><ele>417.0</ele><time>2026-04-15T15:49:59Z</time></trkpt><trkpt lat="44.24218897029314" lon="8.38299834551167"><ele>417.0</ele><time>2026-04-15T15:50:00Z</time></trkpt><trkpt lat="44.24219953781061" lon="8.383090296564921"><ele>417.0</ele><time>2026-04-15T15:50:01Z</time></trkpt><trkpt lat="44.24221994782335" lon="8.383175344156923"><ele>417.0</ele><time>2026-04-15T15:50:02Z</time></trkpt><trkpt lat="44.2422613074359" lon="8.383252172761313"><ele>417.0</ele><time>2026-04-15T15:50:03Z</time></trkpt><trkpt lat="44.24233557386919" lon="8.383368563248794"><ele>412.8</ele><time>2026-04-15T15:50:05Z</time></trkpt><trkpt lat="44.242395204927256" lon="8.383497170557956"><ele>408.6</ele><time>2026-04-15T15:50:07Z</time></trkpt><trkpt lat="44.242443176270655" lon="8.383596481890809"><ele>404.40000000000003</ele><time>2026-04-15T15:50:09Z</time></trkpt><trkpt lat="44.2424542705551" lon="8.38371548065381"><ele>400.20000000000005</ele><time>2026-04-15T15:50:11Z</time></trkpt><trkpt lat="44.24245039081397" lon="8.383864048080316"><ele>396.0</ele><time>2026-04-15T15:50:13Z</time></trkpt><trkpt lat="44.242431470723425" lon="8.383998978748602"><ele>395.6</ele><time>2026-04-15T15:50:15Z</time></trkpt><trkpt lat="44.24239955825897" lon="8.384077841948306"><ele>395.20000000000005</ele><time>2026-04-15T15:50:16Z</time></trkpt><trkpt lat="44.2423482503885" lon="8.38418138351669"><ele>394.79999999999995</ele><time>2026-04-15T15:50:18Z</time></trkpt><trkpt lat="44.24228884400163" lon="8.38432886957936"><ele>394.4</ele><time>2026-04-15T15:50:20Z</time></trkpt><trkpt lat="44.242174404877886" lon="8.384380893488181"><ele>394.0</ele><time>2026-04-15T15:50:21.999Z</time></trkpt><trkpt lat="44.24211738013371" lon="8.3844329918534"><ele>399.2</ele><time>2026-04-15T15:50:22.999Z</time></trkpt><trkpt lat="44.242061422308346" lon="8.384545514232844"><ele>404.4</ele><time>2026-04-15T15:50:24.999Z</time></trkpt><trkpt lat="44.24208934584079" lon="8.384686334172805"><ele>409.6</ele><time>2026-04-15T15:50:26.999Z</time></trkpt><trkpt lat="44.242113965651264" lon="8.38480208626006"><ele>414.8</ele><time>2026-04-15T15:50:28.999Z</time></trkpt><trkpt lat="44.24213996962651" lon="8.384962301783082"><ele>420.0</ele><time>2026-04-15T15:50:30.999Z</time></trkpt><trkpt lat="44.24216528458021" lon="8.385076642837028"><ele>420.2</ele><time>2026-04-15T15:50:32.999Z</time></trkpt><trkpt lat="44.24216833443857" lon="8.385216757083876"><ele>420.4</ele><time>2026-04-15T15:50:34.999Z</time></trkpt><trkpt lat="44.24209184660283" lon="8.385320638486535"><ele>420.6</ele><time>2026-04-15T15:50:36.999Z</time></trkpt><trkpt lat="44.24201835736495" lon="8.385455206984076"><ele>420.8</ele><time>2026-04-15T15:50:38.999Z</time></trkpt><trkpt lat="44.24205706345559" lon="8.385595058292761"><ele>421.0</ele><time>2026-04-15T15:50:40.999Z</time></trkpt><trkpt lat="44.24209220770205" lon="8.385739355880146"><ele>421.0</ele><time>2026-04-15T15:50:42.999Z</time></trkpt><trkpt lat="44.242124820227296" lon="8.385863458724312"><ele>421.0</ele><time>2026-04-15T15:50:44.999Z</time></trkpt><trkpt lat="44.242144579588825" lon="8.386015850423304"><ele>421.0</ele><time>2026-04-15T15:50:46.999Z</time></trkpt><trkpt lat="44.24213486344785" lon="8.386109026936326"><ele>421.0</ele><time>2026-04-15T15:50:47.999Z</time></trkpt><trkpt lat="44.24210979103617" lon="8.38623881956711"><ele>421.0</ele><time>2026-04-15T15:50:49.999Z</time></trkpt><trkpt lat="44.24214160526582" lon="8.386354498221102"><ele>421.1666666666667</ele><time>2026-04-15T15:50:51.999Z</time></trkpt><trkpt lat="44.2421741641995" lon="8.386443519567091"><ele>421.33333333333337</ele><time>2026-04-15T15:50:53.999Z</time></trkpt><trkpt lat="44.24213681081384" lon="8.386534136263057"><ele>421.5</ele><time>2026-04-15T15:50:55.999Z</time></trkpt><trkpt lat="44.242094781628914" lon="8.386668428628575"><ele>421.66666666666663</ele><time>2026-04-15T15:50:57.999Z</time></trkpt><trkpt lat="44.24206799680742" lon="8.386751760178077"><ele>421.8333333333333</ele><time>2026-04-15T15:50:58.999Z</time></trkpt><trkpt lat="44.24206918313739" lon="8.386892731143224"><ele>422.0</ele><time>2026-04-15T15:51:00.999Z</time></trkpt><trkpt lat="44.24213983710041" lon="8.387030848906077"><ele>421.99999999999994</ele><time>2026-04-15T15:51:02.999Z</time></trkpt><trkpt lat="44.242205810772866" lon="8.387165517619252"><ele>422.0</ele><time>2026-04-15T15:51:04.999Z</time></trkpt><trkpt lat="44.24224257547757" lon="8.3872370046034"><ele>422.0</ele><time>2026-04-15T15:51:05.999Z</time></trkpt><trkpt lat="44.242293398431684" lon="8.387307796607827"><ele>422.0</ele><time>2026-04-15T15:51:06.999Z</time></trkpt><trkpt lat="44.242340191103615" lon="8.387377226112777"><ele>421.99999999999994</ele><time>2026-04-15T15:51:07.999Z</time></trkpt><trkpt lat="44.242385969693764" lon="8.387503880922024"><ele>422.0</ele><time>2026-04-15T15:51:10Z</time></trkpt><trkpt lat="44.24236245925437" lon="8.387627364332419"><ele>419.66666666666663</ele><time>2026-04-15T15:51:12Z</time></trkpt><trkpt lat="44.24235513418677" lon="8.387732270136523"><ele>417.3333333333333</ele><time>2026-04-15T15:51:14Z</time></trkpt><trkpt lat="44.242459349585516" lon="8.387808035102319"><ele>415.0</ele><time>2026-04-15T15:51:16Z</time></trkpt><trkpt lat="44.24250415159138" lon="8.387916857810508"><ele>412.66666666666663</ele><time>2026-04-15T15:51:18Z</time></trkpt><trkpt lat="44.24249957039885" lon="8.38800647598662"><ele>410.3333333333333</ele><time>2026-04-15T15:51:19Z</time></trkpt><trkpt lat="44.24253285365971" lon="8.388103675857653"><ele>408.0</ele><time>2026-04-15T15:51:21Z</time></trkpt><trkpt lat="44.24259876484089" lon="8.388147713282647"><ele>408.0</ele><time>2026-04-15T15:51:22Z</time></trkpt><trkpt lat="44.24265987406061" lon="8.388174717183325"><ele>408.0</ele><time>2026-04-15T15:51:23Z</time></trkpt><trkpt lat="44.242743500963336" lon="8.388293852497556"><ele>408.0</ele><time>2026-04-15T15:51:25Z</time></trkpt><trkpt lat="44.24283130194299" lon="8.388367662483482"><ele>408.0</ele><time>2026-04-15T15:51:27Z</time></trkpt><trkpt lat="44.24290819723651" lon="8.388456234663256"><ele>408.0</ele><time>2026-04-15T15:51:29Z</time></trkpt><trkpt lat="44.24296483972466" lon="8.388581051147867"><ele>408.0</ele><time>2026-04-15T15:51:31Z</time></trkpt><trkpt lat="44.243000063495764" lon="8.388727444378308"><ele>408.0</ele><time>2026-04-15T15:51:33Z</time></trkpt><trkpt lat="44.24302290811902" lon="8.388847986545"><ele>408.0</ele><time>2026-04-15T15:51:35Z</time></trkpt><trkpt lat="44.24301149578044" lon="8.389013811650585"><ele>408.0</ele><time>2026-04-15T15:51:37Z</time></trkpt><trkpt lat="44.24297142365011" lon="8.389158794680037"><ele>408.0</ele><time>2026-04-15T15:51:39Z</time></trkpt><trkpt lat="44.242920002649186" lon="8.389268510332865"><ele>408.8333333333333</ele><time>2026-04-15T15:51:41Z</time></trkpt><trkpt lat="44.24287449796887" lon="8.38938374774201"><ele>409.66666666666663</ele><time>2026-04-15T15:51:43Z</time></trkpt><trkpt lat="44.24285387602766" lon="8.389470450126188"><ele>410.5</ele><time>2026-04-15T15:51:44Z</time></trkpt><trkpt lat="44.242824031512356" lon="8.389559935513006"><ele>411.3333333333333</ele><time>2026-04-15T15:51:45Z</time></trkpt><trkpt lat="44.24279088907133" lon="8.389635583180869"><ele>412.16666666666663</ele><time>2026-04-15T15:51:46Z</time></trkpt><trkpt lat="44.24272261717315" lon="8.389774453585492"><ele>413.0</ele><time>2026-04-15T15:51:48Z</time></trkpt><trkpt lat="44.242600936716514" lon="8.389901762945312"><ele>413.0</ele><time>2026-04-15T15:51:51Z</time></trkpt><trkpt lat="44.242525442701144" lon="8.38997014544637"><ele>413.0</ele><time>2026-04-15T15:51:53Z</time></trkpt><trkpt lat="44.24245277419673" lon="8.390056003730262"><ele>413.0</ele><time>2026-04-15T15:51:56Z</time></trkpt><trkpt lat="44.24241670979906" lon="8.390187606545728"><ele>413.0</ele><time>2026-04-15T15:51:58Z</time></trkpt><trkpt lat="44.24239312107367" lon="8.390335051435814"><ele>413.0</ele><time>2026-04-15T15:52:00Z</time></trkpt><trkpt lat="44.242389047248636" lon="8.390459359705133"><ele>411.79999999999995</ele><time>2026-04-15T15:52:02Z</time></trkpt><trkpt lat="44.24241394630989" lon="8.390582222276938"><ele>410.6</ele><time>2026-04-15T15:52:04Z</time></trkpt><trkpt lat="44.242443333252055" lon="8.39071720568976"><ele>409.4</ele><time>2026-04-15T15:52:06Z</time></trkpt><trkpt lat="44.242474830778974" lon="8.39083760855061"><ele>408.20000000000005</ele><time>2026-04-15T15:52:08Z</time></trkpt><trkpt lat="44.242499544373736" lon="8.390974400663367"><ele>407.0</ele><time>2026-04-15T15:52:10Z</time></trkpt><trkpt lat="44.242535128033296" lon="8.391137813093826"><ele>407.0</ele><time>2026-04-15T15:52:12Z</time></trkpt><trkpt lat="44.24258799782262" lon="8.391295530202761"><ele>407.0</ele><time>2026-04-15T15:52:14Z</time></trkpt><trkpt lat="44.24264168040316" lon="8.391433393377756"><ele>407.0</ele><time>2026-04-15T15:52:16Z</time></trkpt><trkpt lat="44.24269642510174" lon="8.39151281627258"><ele>407.0</ele><time>2026-04-15T15:52:18Z</time></trkpt><trkpt lat="44.24272670134066" lon="8.391624713014371"><ele>407.0</ele><time>2026-04-15T15:52:20Z</time></trkpt><trkpt lat="44.24274541421648" lon="8.391740477305575"><ele>406.3333333333333</ele><time>2026-04-15T15:52:21Z</time></trkpt><trkpt lat="44.242770145359216" lon="8.391838648992687"><ele>405.66666666666663</ele><time>2026-04-15T15:52:22Z</time></trkpt><trkpt lat="44.242812129082495" lon="8.391914054338775"><ele>405.0</ele><time>2026-04-15T15:52:23Z</time></trkpt><trkpt lat="44.24287113818276" lon="8.391955936195005"><ele>404.33333333333337</ele><time>2026-04-15T15:52:24Z</time></trkpt><trkpt lat="44.24293832445047" lon="8.391987311483314"><ele>403.6666666666667</ele><time>2026-04-15T15:52:25Z</time></trkpt><trkpt lat="44.24304472127339" lon="8.392062563275685"><ele>403.0</ele><time>2026-04-15T15:52:27Z</time></trkpt><trkpt lat="44.24311941130481" lon="8.392182469152663"><ele>404.4</ele><time>2026-04-15T15:52:29Z</time></trkpt><trkpt lat="44.24317848827262" lon="8.392341035675244"><ele>405.79999999999995</ele><time>2026-04-15T15:52:31Z</time></trkpt><trkpt lat="44.24321035036109" lon="8.392432725646186"><ele>407.2</ele><time>2026-04-15T15:52:32Z</time></trkpt><trkpt lat="44.24323932988717" lon="8.392522325789123"><ele>408.6</ele><time>2026-04-15T15:52:33Z</time></trkpt><trkpt lat="44.2432705907054" lon="8.392615863385878"><ele>410.0</ele><time>2026-04-15T15:52:34Z</time></trkpt><trkpt lat="44.24333126280655" lon="8.392773650090234"><ele>410.0</ele><time>2026-04-15T15:52:35.999Z</time></trkpt><trkpt lat="44.24336489159167" lon="8.39284874043784"><ele>410.0</ele><time>2026-04-15T15:52:36.999Z</time></trkpt><trkpt lat="44.24340362189007" lon="8.392925975869929"><ele>410.0</ele><time>2026-04-15T15:52:37.999Z</time></trkpt><trkpt lat="44.243454299702876" lon="8.39307697438957"><ele>410.0</ele><time>2026-04-15T15:52:39.999Z</time></trkpt><trkpt lat="44.24348964495302" lon="8.3932379857182"><ele>410.0</ele><time>2026-04-15T15:52:41.999Z</time></trkpt><trkpt lat="44.24349661718313" lon="8.393406575346251"><ele>409.42857142857144</ele><time>2026-04-15T15:52:43.999Z</time></trkpt><trkpt lat="44.243493351150605" lon="8.393498116752866"><ele>408.85714285714283</ele><time>2026-04-15T15:52:44.999Z</time></trkpt><trkpt lat="44.24349242017469" lon="8.393593102016212"><ele>408.2857142857143</ele><time>2026-04-15T15:52:45.999Z</time></trkpt><trkpt lat="44.24349864649217" lon="8.393693860576773"><ele>407.7142857142857</ele><time>2026-04-15T15:52:46.999Z</time></trkpt><trkpt lat="44.243510343367156" lon="8.393802422412511"><ele>407.1428571428571</ele><time>2026-04-15T15:52:47.999Z</time></trkpt><trkpt lat="44.24352746405511" lon="8.393901610039002"><ele>406.57142857142856</ele><time>2026-04-15T15:52:48.999Z</time></trkpt><trkpt lat="44.243548883829135" lon="8.393993072958132"><ele>406.0</ele><time>2026-04-15T15:52:49.999Z</time></trkpt><trkpt lat="44.24356283059796" lon="8.39409625458115"><ele>405.8</ele><time>2026-04-15T15:52:50.999Z</time></trkpt><trkpt lat="44.24359732036378" lon="8.394277510190193"><ele>405.6</ele><time>2026-04-15T15:52:52.999Z</time></trkpt><trkpt lat="44.2436274815477" lon="8.394394004061088"><ele>405.4</ele><time>2026-04-15T15:52:53.999Z</time></trkpt><trkpt lat="44.24365369154476" lon="8.394492911176924"><ele>405.2</ele><time>2026-04-15T15:52:54.999Z</time></trkpt><trkpt lat="44.2436810588284" lon="8.39457657686367"><ele>405.0</ele><time>2026-04-15T15:52:55.999Z</time></trkpt><trkpt lat="44.24375157985897" lon="8.394693989260716"><ele>403.6</ele><time>2026-04-15T15:52:57.999Z</time></trkpt><trkpt lat="44.243805947153305" lon="8.394832584509032"><ele>402.2</ele><time>2026-04-15T15:52:59.999Z</time></trkpt><trkpt lat="44.24387171894798" lon="8.39498527249642"><ele>400.79999999999995</ele><time>2026-04-15T15:53:01.999Z</time></trkpt><trkpt lat="44.24389423877933" lon="8.395080830849174"><ele>399.4</ele><time>2026-04-15T15:53:02.999Z</time></trkpt><trkpt lat="44.24390254437123" lon="8.395174032894706"><ele>398.0</ele><time>2026-04-15T15:53:03.999Z</time></trkpt><trkpt lat="44.24391284119661" lon="8.395279699092786"><ele>398.0</ele><time>2026-04-15T15:53:04.999Z</time></trkpt><trkpt lat="44.24394818744104" lon="8.395436353821388"><ele>398.0</ele><time>2026-04-15T15:53:06.999Z</time></trkpt><trkpt lat="44.24398930999068" lon="8.395579327426185"><ele>398.0</ele><time>2026-04-15T15:53:08.999Z</time></trkpt><trkpt lat="44.24403649698394" lon="8.395709204584971"><ele>398.0</ele><time>2026-04-15T15:53:10.999Z</time></trkpt><trkpt lat="44.24405560029151" lon="8.395840172253745"><ele>398.0</ele><time>2026-04-15T15:53:12.999Z</time></trkpt><trkpt lat="44.24406490946876" lon="8.395933778525157"><ele>400.3333333333333</ele><time>2026-04-15T15:53:13.999Z</time></trkpt><trkpt lat="44.24406902739611" lon="8.39603652759544"><ele>402.66666666666663</ele><time>2026-04-15T15:53:15Z</time></trkpt><trkpt lat="44.24407381102412" lon="8.396132530472183"><ele>405.0</ele><time>2026-04-15T15:53:16Z</time></trkpt><trkpt lat="44.24408491971101" lon="8.396271059292578"><ele>407.33333333333337</ele><time>2026-04-15T15:53:18Z</time></trkpt><trkpt lat="44.24410683148283" lon="8.396385227654635"><ele>409.6666666666667</ele><time>2026-04-15T15:53:20Z</time></trkpt><trkpt lat="44.24410053606695" lon="8.396501094052153"><ele>412.0</ele><time>2026-04-15T15:53:22Z</time></trkpt><trkpt lat="44.24405614412335" lon="8.396637734338851"><ele>412.00000000000006</ele><time>2026-04-15T15:53:24Z</time></trkpt><trkpt lat="44.24399138074045" lon="8.396761392228813"><ele>412.0</ele><time>2026-04-15T15:53:26Z</time></trkpt><trkpt lat="44.24393872286254" lon="8.396889228934258"><ele>412.0</ele><time>2026-04-15T15:53:28Z</time></trkpt><trkpt lat="44.24392243217128" lon="8.396975404970934"><ele>412.0</ele><time>2026-04-15T15:53:29Z</time></trkpt><trkpt lat="44.243902120968215" lon="8.397061218746638"><ele>412.00000000000006</ele><time>2026-04-15T15:53:30Z</time></trkpt><trkpt lat="44.24388168584326" lon="8.397146896944328"><ele>412.0</ele><time>2026-04-15T15:53:31Z</time></trkpt><trkpt lat="44.24387538351986" lon="8.39723653618085"><ele>409.1666666666667</ele><time>2026-04-15T15:53:32Z</time></trkpt><trkpt lat="44.24387166891072" lon="8.397325519077318"><ele>406.33333333333337</ele><time>2026-04-15T15:53:33Z</time></trkpt><trkpt lat="44.24386923386583" lon="8.39744034816333"><ele>403.5</ele><time>2026-04-15T15:53:34Z</time></trkpt><trkpt lat="44.24387253269776" lon="8.397561313731792"><ele>400.66666666666663</ele><time>2026-04-15T15:53:35Z</time></trkpt><trkpt lat="44.24389354766057" lon="8.397679326051794"><ele>397.8333333333333</ele><time>2026-04-15T15:53:36Z</time></trkpt><trkpt lat="44.243907844254615" lon="8.397793713496773"><ele>395.0</ele><time>2026-04-15T15:53:37Z</time></trkpt><trkpt lat="44.24389846664308" lon="8.397900653010964"><ele>396.49999999999994</ele><time>2026-04-15T15:53:38Z</time></trkpt><trkpt lat="44.2438734183362" lon="8.398006791702118"><ele>398.0</ele><time>2026-04-15T15:53:39Z</time></trkpt><trkpt lat="44.24384359526079" lon="8.39810594158812"><ele>399.5</ele><time>2026-04-15T15:53:40Z</time></trkpt><trkpt lat="44.243810354402044" lon="8.398200897906893"><ele>401.0</ele><time>2026-04-15T15:53:41Z</time></trkpt><trkpt lat="44.243744913173416" lon="8.398330410169667"><ele>402.49999999999994</ele><time>2026-04-15T15:53:43Z</time></trkpt><trkpt lat="44.24370216531534" lon="8.398400749654877"><ele>404.0</ele><time>2026-04-15T15:53:44Z</time></trkpt><trkpt lat="44.2436693110776" lon="8.398489210170643"><ele>403.99999999999994</ele><time>2026-04-15T15:53:45Z</time></trkpt><trkpt lat="44.24364945046689" lon="8.398588960784343"><ele>404.0</ele><time>2026-04-15T15:53:46Z</time></trkpt><trkpt lat="44.24363911726964" lon="8.39869534704169"><ele>404.0</ele><time>2026-04-15T15:53:47Z</time></trkpt><trkpt lat="44.24363462295003" lon="8.398802425427238"><ele>404.0</ele><time>2026-04-15T15:53:48Z</time></trkpt><trkpt lat="44.24363591766254" lon="8.398905846661167"><ele>403.99999999999994</ele><time>2026-04-15T15:53:49Z</time></trkpt><trkpt lat="44.24364772188559" lon="8.399014399142803"><ele>404.0</ele><time>2026-04-15T15:53:50Z</time></trkpt><trkpt lat="44.243654449901825" lon="8.39911418182128"><ele>406.4</ele><time>2026-04-15T15:53:51Z</time></trkpt><trkpt lat="44.24363523794954" lon="8.399299012238304"><ele>408.79999999999995</ele><time>2026-04-15T15:53:53Z</time></trkpt><trkpt lat="44.24361983989205" lon="8.399386910015398"><ele>411.20000000000005</ele><time>2026-04-15T15:53:54Z</time></trkpt><trkpt lat="44.243603190584366" lon="8.399475108181958"><ele>413.6</ele><time>2026-04-15T15:53:55Z</time></trkpt><trkpt lat="44.24357482165834" lon="8.399636464359588"><ele>416.0</ele><time>2026-04-15T15:53:57Z</time></trkpt><trkpt lat="44.24355304056992" lon="8.399772350351089"><ele>416.20000000000005</ele><time>2026-04-15T15:53:59Z</time></trkpt><trkpt lat="44.243539111865054" lon="8.399913251658653"><ele>416.40000000000003</ele><time>2026-04-15T15:54:01Z</time></trkpt><trkpt lat="44.243534008100966" lon="8.400052424470614"><ele>416.6</ele><time>2026-04-15T15:54:03Z</time></trkpt><trkpt lat="44.243553246522744" lon="8.400212806836477"><ele>416.8</ele><time>2026-04-15T15:54:05Z</time></trkpt><trkpt lat="44.24355713422369" lon="8.400306325226586"><ele>417.0</ele><time>2026-04-15T15:54:06Z</time></trkpt><trkpt lat="44.243562202708894" lon="8.400402681008629"><ele>417.0</ele><time>2026-04-15T15:54:07Z</time></trkpt><trkpt lat="44.243566115817636" lon="8.400493920570545"><ele>417.0</ele><time>2026-04-15T15:54:08Z</time></trkpt><trkpt lat="44.243580980266" lon="8.400664751310744"><ele>417.0</ele><time>2026-04-15T15:54:10Z</time></trkpt><trkpt lat="44.243577185422915" lon="8.400844341022383"><ele>417.0</ele><time>2026-04-15T15:54:12Z</time></trkpt><trkpt lat="44.24356634567915" lon="8.400962547020976"><ele>417.0</ele><time>2026-04-15T15:54:13Z</time></trkpt><trkpt lat="44.24355773333608" lon="8.401079073007727"><ele>415.40000000000003</ele><time>2026-04-15T15:54:14Z</time></trkpt><trkpt lat="44.24355492874615" lon="8.401186088019275"><ele>413.8</ele><time>2026-04-15T15:54:15Z</time></trkpt><trkpt lat="44.24355785934326" lon="8.401279920298451"><ele>412.2</ele><time>2026-04-15T15:54:16Z</time></trkpt><trkpt lat="44.243596369998656" lon="8.401443592721973"><ele>410.6</ele><time>2026-04-15T15:54:18Z</time></trkpt><trkpt lat="44.243625074708696" lon="8.40154121531135"><ele>409.0</ele><time>2026-04-15T15:54:19Z</time></trkpt><trkpt lat="44.243644126144396" lon="8.401704599377712"><ele>408.50000000000006</ele><time>2026-04-15T15:54:21Z</time></trkpt><trkpt lat="44.24365983343421" lon="8.401897922583004"><ele>408.0</ele><time>2026-04-15T15:54:23Z</time></trkpt><trkpt lat="44.24368070149595" lon="8.40200858030032"><ele>407.5</ele><time>2026-04-15T15:54:24Z</time></trkpt><trkpt lat="44.243705726731385" lon="8.402089463699133"><ele>407.0</ele><time>2026-04-15T15:54:25Z</time></trkpt><trkpt lat="44.24376978124035" lon="8.402164137915868"><ele>406.50000000000006</ele><time>2026-04-15T15:54:27Z</time></trkpt><trkpt lat="44.243838467362266" lon="8.402159201475865"><ele>406.0</ele><time>2026-04-15T15:54:30Z</time></trkpt><trkpt lat="44.243868904630865" lon="8.402076222641059"><ele>406.0</ele><time>2026-04-15T15:54:40Z</time></trkpt><trkpt lat="44.243937533768595" lon="8.401974550595506"><ele>406.0</ele><time>2026-04-15T15:54:42Z</time></trkpt><trkpt lat="44.24403588617749" lon="8.401912729562326"><ele>406.0</ele><time>2026-04-15T15:54:44Z</time></trkpt><trkpt lat="44.244137675084055" lon="8.401884811606829"><ele>406.0</ele><time>2026-04-15T15:54:46Z</time></trkpt><trkpt lat="44.24423150700315" lon="8.401815705333872"><ele>406.0</ele><time>2026-04-15T15:54:48Z</time></trkpt><trkpt lat="44.244320779996535" lon="8.401698138427355"><ele>407.20000000000005</ele><time>2026-04-15T15:54:50Z</time></trkpt><trkpt lat="44.24441788409085" lon="8.401673916930164"><ele>408.40000000000003</ele><time>2026-04-15T15:54:52Z</time></trkpt><trkpt lat="44.24453237678329" lon="8.40172314772838"><ele>409.6</ele><time>2026-04-15T15:54:53.999Z</time></trkpt><trkpt lat="44.24463113760281" lon="8.401784998136858"><ele>410.8</ele><time>2026-04-15T15:54:55.999Z</time></trkpt><trkpt lat="44.24467902070709" lon="8.401885058643947"><ele>412.0</ele><time>2026-04-15T15:54:57.999Z</time></trkpt><trkpt lat="44.244683305129804" lon="8.402036768825768"><ele>410.75</ele><time>2026-04-15T15:54:59.999Z</time></trkpt><trkpt lat="44.244654161358156" lon="8.40220138937927"><ele>409.5</ele><time>2026-04-15T15:55:01.999Z</time></trkpt><trkpt lat="44.24461793568938" lon="8.402360158431991"><ele>408.25</ele><time>2026-04-15T15:55:03.999Z</time></trkpt><trkpt lat="44.24460871865476" lon="8.402516659220758"><ele>407.0</ele><time>2026-04-15T15:55:05.999Z</time></trkpt><trkpt lat="44.244617180450405" lon="8.40266118339927"><ele>407.0</ele><time>2026-04-15T15:55:07.999Z</time></trkpt><trkpt lat="44.24461259402999" lon="8.402812681856641"><ele>407.0</ele><time>2026-04-15T15:55:09.999Z</time></trkpt><trkpt lat="44.24459492029019" lon="8.402900226897255"><ele>407.0</ele><time>2026-04-15T15:55:10.999Z</time></trkpt><trkpt lat="44.244570384194866" lon="8.403048318646249"><ele>407.0</ele><time>2026-04-15T15:55:12.999Z</time></trkpt><trkpt lat="44.24454396108619" lon="8.403203164264694"><ele>407.0</ele><time>2026-04-15T15:55:14.999Z</time></trkpt><trkpt lat="44.24447567158774" lon="8.403322302329613"><ele>404.3333333333333</ele><time>2026-04-15T15:55:16.999Z</time></trkpt><trkpt lat="44.24439846060259" lon="8.403389139940005"><ele>401.66666666666663</ele><time>2026-04-15T15:55:18.999Z</time></trkpt><trkpt lat="44.24437111622452" lon="8.403489816760342"><ele>399.0</ele><time>2026-04-15T15:55:23Z</time></trkpt><trkpt lat="44.24442749673039" lon="8.403532214358743"><ele>396.33333333333337</ele><time>2026-04-15T15:55:25Z</time></trkpt><trkpt lat="44.24449908538075" lon="8.403522690142022"><ele>393.6666666666667</ele><time>2026-04-15T15:55:27Z</time></trkpt><trkpt lat="44.24449896166948" lon="8.40366066860904"><ele>391.0</ele><time>2026-04-15T15:55:30Z</time></trkpt><trkpt lat="44.24442434720931" lon="8.403744767892222"><ele>391.00000000000006</ele><time>2026-04-15T15:55:32Z</time></trkpt><trkpt lat="44.24436658779866" lon="8.403795687190806"><ele>391.0</ele><time>2026-04-15T15:55:34Z</time></trkpt><trkpt lat="44.24424779683457" lon="8.403795691236715"><ele>391.0</ele><time>2026-04-15T15:55:37Z</time></trkpt><trkpt lat="44.244172768755824" lon="8.403785002857838"><ele>391.0</ele><time>2026-04-15T15:55:38Z</time></trkpt><trkpt lat="44.24408527848945" lon="8.403794372763235"><ele>391.00000000000006</ele><time>2026-04-15T15:55:39Z</time></trkpt><trkpt lat="44.24399497369377" lon="8.403789760721185"><ele>391.0</ele><time>2026-04-15T15:55:40Z</time></trkpt><trkpt lat="44.24391489225374" lon="8.403793328109236"><ele>389.00000000000006</ele><time>2026-04-15T15:55:41Z</time></trkpt><trkpt lat="44.24381936692033" lon="8.403802728788694"><ele>387.0</ele><time>2026-04-15T15:55:42Z</time></trkpt><trkpt lat="44.24375048676525" lon="8.403804121451126"><ele>385.0</ele><time>2026-04-15T15:55:43Z</time></trkpt><trkpt lat="44.24367411813444" lon="8.40380420534116"><ele>383.0</ele><time>2026-04-15T15:55:44Z</time></trkpt><trkpt lat="44.243604215648645" lon="8.403795860787797"><ele>381.0</ele><time>2026-04-15T15:55:45Z</time></trkpt><trkpt lat="44.24353338328442" lon="8.403797620589128"><ele>379.0</ele><time>2026-04-15T15:55:46Z</time></trkpt><trkpt lat="44.24346599041946" lon="8.40380525663557"><ele>379.0</ele><time>2026-04-15T15:55:47Z</time></trkpt><trkpt lat="44.24334214241897" lon="8.403796434802823"><ele>379.0</ele><time>2026-04-15T15:55:49Z</time></trkpt><trkpt lat="44.24321958082733" lon="8.403785597677501"><ele>379.0</ele><time>2026-04-15T15:55:51Z</time></trkpt><trkpt lat="44.24315401748162" lon="8.40379005044819"><ele>379.0</ele><time>2026-04-15T15:55:52Z</time></trkpt><trkpt lat="44.24306055238463" lon="8.403819808995294"><ele>379.0</ele><time>2026-04-15T15:55:53Z</time></trkpt><trkpt lat="44.242992888634596" lon="8.40382555787587"><ele>375.3333333333333</ele><time>2026-04-15T15:55:54Z</time></trkpt><trkpt lat="44.242914558405154" lon="8.403831937360167"><ele>371.66666666666663</ele><time>2026-04-15T15:55:55Z</time></trkpt><trkpt lat="44.24283928840425" lon="8.40382604839255"><ele>368.0</ele><time>2026-04-15T15:55:56Z</time></trkpt><trkpt lat="44.24275453448225" lon="8.403812146508182"><ele>364.3333333333333</ele><time>2026-04-15T15:55:57Z</time></trkpt><trkpt lat="44.2426784486733" lon="8.403779554045649"><ele>360.6666666666667</ele><time>2026-04-15T15:55:58Z</time></trkpt><trkpt lat="44.24259904741689" lon="8.40375280858517"><ele>357.0</ele><time>2026-04-15T15:55:59Z</time></trkpt><trkpt lat="44.2425286340809" lon="8.403727227727373"><ele>357.0</ele><time>2026-04-15T15:56:00Z</time></trkpt><trkpt lat="44.242453880917964" lon="8.403715754560787"><ele>357.0</ele><time>2026-04-15T15:56:01Z</time></trkpt><trkpt lat="44.24238008982404" lon="8.403710618889914"><ele>357.0</ele><time>2026-04-15T15:56:02Z</time></trkpt><trkpt lat="44.242308598300966" lon="8.403706489567286"><ele>357.0</ele><time>2026-04-15T15:56:03Z</time></trkpt><trkpt lat="44.24224013758885" lon="8.4037087764966"><ele>357.0</ele><time>2026-04-15T15:56:04Z</time></trkpt><trkpt lat="44.24217575555413" lon="8.403708060722291"><ele>357.0</ele><time>2026-04-15T15:56:05Z</time></trkpt><trkpt lat="44.2421099717424" lon="8.403716802107281"><ele>357.0</ele><time>2026-04-15T15:56:06Z</time></trkpt><trkpt lat="44.24201044049299" lon="8.403738886314926"><ele>352.6666666666667</ele><time>2026-04-15T15:56:08Z</time></trkpt><trkpt lat="44.24194065092963" lon="8.40380010124043"><ele>348.3333333333333</ele><time>2026-04-15T15:56:11Z</time></trkpt><trkpt lat="44.24187950903369" lon="8.40383554357262"><ele>344.0</ele><time>2026-04-15T15:56:13Z</time></trkpt><trkpt lat="44.241794823889016" lon="8.403870575337173"><ele>339.66666666666663</ele><time>2026-04-15T15:56:16Z</time></trkpt><trkpt lat="44.2417284322323" lon="8.403884346990198"><ele>335.3333333333333</ele><time>2026-04-15T15:56:18Z</time></trkpt><trkpt lat="44.24166084044447" lon="8.403921329850759"><ele>331.0</ele><time>2026-04-15T15:56:21Z</time></trkpt><trkpt lat="44.24170025208499" lon="8.404041079234464"><ele>331.0</ele><time>2026-04-15T15:56:24Z</time></trkpt><trkpt lat="44.241780402199616" lon="8.404076810169276"><ele>331.0</ele><time>2026-04-15T15:56:26Z</time></trkpt><trkpt lat="44.241886266650646" lon="8.404066068502472"><ele>331.0</ele><time>2026-04-15T15:56:28Z</time></trkpt><trkpt lat="44.24200390613772" lon="8.404048407827808"><ele>331.0</ele><time>2026-04-15T15:56:30Z</time></trkpt><trkpt lat="44.24211817700761" lon="8.40404908652804"><ele>331.0</ele><time>2026-04-15T15:56:32Z</time></trkpt><trkpt lat="44.242229491863675" lon="8.40407452373693"><ele>331.0</ele><time>2026-04-15T15:56:34Z</time></trkpt><trkpt lat="44.24228667982244" lon="8.404111455353336"><ele>331.0</ele><time>2026-04-15T15:56:35Z</time></trkpt><trkpt lat="44.242342220519355" lon="8.404159444548522"><ele>331.0</ele><time>2026-04-15T15:56:36Z</time></trkpt><trkpt lat="44.24239712837349" lon="8.404205810805422"><ele>331.0</ele><time>2026-04-15T15:56:37Z</time></trkpt><trkpt lat="44.24245018627333" lon="8.404254484001395"><ele>331.0</ele><time>2026-04-15T15:56:38Z</time></trkpt><trkpt lat="44.242547071138844" lon="8.404346610393489"><ele>331.0</ele><time>2026-04-15T15:56:40Z</time></trkpt><trkpt lat="44.242592001634186" lon="8.404410750136082"><ele>331.0</ele><time>2026-04-15T15:56:41Z</time></trkpt><trkpt lat="44.24264488040888" lon="8.40449398632418"><ele>330.8</ele><time>2026-04-15T15:56:43Z</time></trkpt><trkpt lat="44.242703868609844" lon="8.40453300402882"><ele>330.6</ele><time>2026-04-15T15:56:47Z</time></trkpt><trkpt lat="44.24281380908323" lon="8.40457221106581"><ele>330.4</ele><time>2026-04-15T15:56:49Z</time></trkpt><trkpt lat="44.24292437658315" lon="8.404652691752663"><ele>330.2</ele><time>2026-04-15T15:56:51Z</time></trkpt><trkpt lat="44.24299281710294" lon="8.404695433020033"><ele>330.0</ele><time>2026-04-15T15:56:52Z</time></trkpt><trkpt lat="44.243062817078886" lon="8.404743882543821"><ele>330.0</ele><time>2026-04-15T15:56:53Z</time></trkpt><trkpt lat="44.24312714622425" lon="8.404783206641635"><ele>330.0</ele><time>2026-04-15T15:56:54Z</time></trkpt><trkpt lat="44.24318690917626" lon="8.404827520042119"><ele>330.0</ele><time>2026-04-15T15:56:55Z</time></trkpt><trkpt lat="44.243259955292004" lon="8.40487459789204"><ele>330.0</ele><time>2026-04-15T15:56:56Z</time></trkpt><trkpt lat="44.24332436998979" lon="8.404904590057484"><ele>330.0</ele><time>2026-04-15T15:56:57Z</time></trkpt><trkpt lat="44.24340083921918" lon="8.40494429718671"><ele>330.0</ele><time>2026-04-15T15:56:58Z</time></trkpt><trkpt lat="44.24348006744145" lon="8.404990099924616"><ele>331.1666666666667</ele><time>2026-04-15T15:56:59Z</time></trkpt><trkpt lat="44.24354667030171" lon="8.405060022440551"><ele>332.3333333333333</ele><time>2026-04-15T15:57:00Z</time></trkpt><trkpt lat="44.243617775713616" lon="8.405109650262462"><ele>333.5</ele><time>2026-04-15T15:57:01Z</time></trkpt><trkpt lat="44.243692206244674" lon="8.405162236194291"><ele>334.66666666666663</ele><time>2026-04-15T15:57:02Z</time></trkpt><trkpt lat="44.24376784958257" lon="8.405217452936808"><ele>335.8333333333333</ele><time>2026-04-15T15:57:03Z</time></trkpt><trkpt lat="44.243834847247776" lon="8.405269059608235"><ele>337.0</ele><time>2026-04-15T15:57:04Z</time></trkpt><trkpt lat="44.24391403695364" lon="8.405331304361496"><ele>336.0</ele><time>2026-04-15T15:57:05Z</time></trkpt><trkpt lat="44.24398920093827" lon="8.405391767493878"><ele>335.0</ele><time>2026-04-15T15:57:06Z</time></trkpt><trkpt lat="44.24406937507132" lon="8.405431108588393"><ele>334.0</ele><time>2026-04-15T15:57:07Z</time></trkpt><trkpt lat="44.24413844402247" lon="8.405505782445303"><ele>333.0</ele><time>2026-04-15T15:57:08Z</time></trkpt><trkpt lat="44.24421229383063" lon="8.405566367629488"><ele>332.0</ele><time>2026-04-15T15:57:09Z</time></trkpt><trkpt lat="44.24427552581635" lon="8.405628928142006"><ele>331.0</ele><time>2026-04-15T15:57:09.999Z</time></trkpt><trkpt lat="44.244342352054524" lon="8.405705258356079"><ele>331.0</ele><time>2026-04-15T15:57:10.999Z</time></trkpt><trkpt lat="44.24441294932798" lon="8.405780230927594"><ele>331.0</ele><time>2026-04-15T15:57:11.999Z</time></trkpt><trkpt lat="44.2444681898058" lon="8.405884954717163"><ele>331.0</ele><time>2026-04-15T15:57:12.999Z</time></trkpt><trkpt lat="44.244513076785196" lon="8.40596371281635"><ele>331.0</ele><time>2026-04-15T15:57:13.999Z</time></trkpt><trkpt lat="44.24457337722356" lon="8.406101079564632"><ele>331.0</ele><time>2026-04-15T15:57:15.999Z</time></trkpt><trkpt lat="44.24460346946206" lon="8.406260168143431"><ele>329.2857142857143</ele><time>2026-04-15T15:57:17.999Z</time></trkpt><trkpt lat="44.24462646150464" lon="8.406356813105688"><ele>327.57142857142856</ele><time>2026-04-15T15:57:18.999Z</time></trkpt><trkpt lat="44.24464952536735" lon="8.40644575996453"><ele>325.8571428571429</ele><time>2026-04-15T15:57:19.999Z</time></trkpt><trkpt lat="44.24467207548508" lon="8.40654017960375"><ele>324.1428571428571</ele><time>2026-04-15T15:57:20.999Z</time></trkpt><trkpt lat="44.244680496566005" lon="8.406645476899987"><ele>322.4285714285714</ele><time>2026-04-15T15:57:21.999Z</time></trkpt><trkpt lat="44.24464889605981" lon="8.406753383717454"><ele>320.7142857142857</ele><time>2026-04-15T15:57:22.999Z</time></trkpt><trkpt lat="44.24464417854274" lon="8.406853753164008"><ele>319.0</ele><time>2026-04-15T15:57:23.999Z</time></trkpt><trkpt lat="44.24465594589234" lon="8.40694742374424"><ele>319.0</ele><time>2026-04-15T15:57:24.999Z</time></trkpt><trkpt lat="44.24466612637326" lon="8.407044228980766"><ele>319.0</ele><time>2026-04-15T15:57:26Z</time></trkpt><trkpt lat="44.24469634846427" lon="8.407143378908064"><ele>319.0</ele><time>2026-04-15T15:57:27Z</time></trkpt><trkpt lat="44.24473877645558" lon="8.407247770512402"><ele>319.0</ele><time>2026-04-15T15:57:28Z</time></trkpt><trkpt lat="44.24477832453019" lon="8.407349504464063"><ele>319.0</ele><time>2026-04-15T15:57:29Z</time></trkpt><trkpt lat="44.24481820438319" lon="8.407449589697938"><ele>319.0</ele><time>2026-04-15T15:57:30Z</time></trkpt><trkpt lat="44.244862961860655" lon="8.407551641476674"><ele>319.66666666666663</ele><time>2026-04-15T15:57:31Z</time></trkpt><trkpt lat="44.24489457480104" lon="8.407662098931588"><ele>320.3333333333333</ele><time>2026-04-15T15:57:32Z</time></trkpt><trkpt lat="44.24493195311409" lon="8.407768521944819"><ele>321.0</ele><time>2026-04-15T15:57:33Z</time></trkpt><trkpt lat="44.24495754203027" lon="8.407858907578184"><ele>321.6666666666667</ele><time>2026-04-15T15:57:34Z</time></trkpt><trkpt lat="44.24497769721651" lon="8.407944769902683"><ele>322.33333333333337</ele><time>2026-04-15T15:57:35Z</time></trkpt><trkpt lat="44.245003071913715" lon="8.408118513481433"><ele>323.0</ele><time>2026-04-15T15:57:37Z</time></trkpt><trkpt lat="44.245028131726755" lon="8.408220882732321"><ele>323.00000000000006</ele><time>2026-04-15T15:57:38Z</time></trkpt><trkpt lat="44.245042649254366" lon="8.408317702472791"><ele>323.0</ele><time>2026-04-15T15:57:39Z</time></trkpt><trkpt lat="44.245067685073415" lon="8.408400276605219"><ele>323.0</ele><time>2026-04-15T15:57:40Z</time></trkpt><trkpt lat="44.24510504945729" lon="8.408476037830908"><ele>323.0</ele><time>2026-04-15T15:57:41Z</time></trkpt><trkpt lat="44.24513858017909" lon="8.40856167260132"><ele>323.0</ele><time>2026-04-15T15:57:42Z</time></trkpt><trkpt lat="44.245162060631706" lon="8.408668785021185"><ele>323.00000000000006</ele><time>2026-04-15T15:57:43Z</time></trkpt><trkpt lat="44.24516862749677" lon="8.408780678409967"><ele>323.0</ele><time>2026-04-15T15:57:44Z</time></trkpt><trkpt lat="44.245172709608156" lon="8.40888049761102"><ele>322.0</ele><time>2026-04-15T15:57:45Z</time></trkpt><trkpt lat="44.24518026542947" lon="8.408981698147775"><ele>321.0</ele><time>2026-04-15T15:57:46Z</time></trkpt><trkpt lat="44.24520470056471" lon="8.409072867145039"><ele>320.0</ele><time>2026-04-15T15:57:47Z</time></trkpt><trkpt lat="44.245238590718714" lon="8.409166689703197"><ele>319.0</ele><time>2026-04-15T15:57:48Z</time></trkpt><trkpt lat="44.245251569967586" lon="8.40928036366756"><ele>318.0</ele><time>2026-04-15T15:57:49Z</time></trkpt><trkpt lat="44.24524809406149" lon="8.409409423291269"><ele>317.0</ele><time>2026-04-15T15:57:50Z</time></trkpt><trkpt lat="44.24524061349812" lon="8.409530924347678"><ele>317.0</ele><time>2026-04-15T15:57:51Z</time></trkpt><trkpt lat="44.245239306328386" lon="8.409639581294654"><ele>317.0</ele><time>2026-04-15T15:57:52Z</time></trkpt><trkpt lat="44.24524468090719" lon="8.409762571301886"><ele>317.0</ele><time>2026-04-15T15:57:53Z</time></trkpt><trkpt lat="44.2452569039124" lon="8.409891049216844"><ele>317.0</ele><time>2026-04-15T15:57:54Z</time></trkpt><trkpt lat="44.245263491503124" lon="8.410014098914859"><ele>317.0</ele><time>2026-04-15T15:57:55Z</time></trkpt><trkpt lat="44.245271112763966" lon="8.410145700475107"><ele>317.0</ele><time>2026-04-15T15:57:56Z</time></trkpt><trkpt lat="44.24528368909857" lon="8.410272664057395"><ele>317.33333333333337</ele><time>2026-04-15T15:57:57Z</time></trkpt><trkpt lat="44.24528715413199" lon="8.410383213524744"><ele>317.6666666666667</ele><time>2026-04-15T15:57:58Z</time></trkpt><trkpt lat="44.2452768907697" lon="8.410494999667772"><ele>318.0</ele><time>2026-04-15T15:57:59Z</time></trkpt><trkpt lat="44.24525851491833" lon="8.410599448097637"><ele>318.3333333333333</ele><time>2026-04-15T15:58:00Z</time></trkpt><trkpt lat="44.24524824764162" lon="8.410716273350694"><ele>318.66666666666663</ele><time>2026-04-15T15:58:01Z</time></trkpt><trkpt lat="44.24523332828122" lon="8.410840254909422"><ele>319.0</ele><time>2026-04-15T15:58:02Z</time></trkpt><trkpt lat="44.24521956161878" lon="8.410966436201656"><ele>319.0</ele><time>2026-04-15T15:58:03Z</time></trkpt><trkpt lat="44.24520734578053" lon="8.411091483587217"><ele>319.0</ele><time>2026-04-15T15:58:04Z</time></trkpt><trkpt lat="44.245177695411805" lon="8.411208100530175"><ele>319.0</ele><time>2026-04-15T15:58:05Z</time></trkpt><trkpt lat="44.24517591997353" lon="8.411323720503995"><ele>319.0</ele><time>2026-04-15T15:58:06Z</time></trkpt><trkpt lat="44.24516993175796" lon="8.411432282699598"><ele>319.0</ele><time>2026-04-15T15:58:07Z</time></trkpt><trkpt lat="44.2451439382073" lon="8.411564214462057"><ele>319.0</ele><time>2026-04-15T15:58:08Z</time></trkpt><trkpt lat="44.24514286002096" lon="8.411680484531637"><ele>320.3333333333333</ele><time>2026-04-15T15:58:09Z</time></trkpt><trkpt lat="44.245122285547" lon="8.411793418832149"><ele>321.66666666666663</ele><time>2026-04-15T15:58:10Z</time></trkpt><trkpt lat="44.24510065167012" lon="8.411916466888236"><ele>323.0</ele><time>2026-04-15T15:58:11Z</time></trkpt><trkpt lat="44.24508713510351" lon="8.412012148224632"><ele>324.3333333333333</ele><time>2026-04-15T15:58:12Z</time></trkpt><trkpt lat="44.245086822848315" lon="8.412118711058406"><ele>325.6666666666667</ele><time>2026-04-15T15:58:13Z</time></trkpt><trkpt lat="44.245081246384174" lon="8.412241963132836"><ele>327.0</ele><time>2026-04-15T15:58:14Z</time></trkpt><trkpt lat="44.24505761431339" lon="8.412330837774682"><ele>329.6</ele><time>2026-04-15T15:58:15Z</time></trkpt><trkpt lat="44.24501397291844" lon="8.412482309268967"><ele>332.20000000000005</ele><time>2026-04-15T15:58:17Z</time></trkpt><trkpt lat="44.24497992243237" lon="8.412585470090006"><ele>334.8</ele><time>2026-04-15T15:58:19Z</time></trkpt><trkpt lat="44.24493122147486" lon="8.412743490383727"><ele>337.4</ele><time>2026-04-15T15:58:21Z</time></trkpt><trkpt lat="44.24494298142284" lon="8.412850346965339"><ele>340.0</ele><time>2026-04-15T15:58:22Z</time></trkpt><trkpt lat="44.24494286986571" lon="8.412951314144303"><ele>342.2</ele><time>2026-04-15T15:58:23Z</time></trkpt><trkpt lat="44.244997781722184" lon="8.41309471052888"><ele>344.4</ele><time>2026-04-15T15:58:25Z</time></trkpt><trkpt lat="44.24502661326701" lon="8.413196048960343"><ele>346.6</ele><time>2026-04-15T15:58:27Z</time></trkpt><trkpt lat="44.24502680738033" lon="8.413289568501515"><ele>348.8</ele><time>2026-04-15T15:58:29Z</time></trkpt><trkpt lat="44.24502145629772" lon="8.413422465266661"><ele>351.0</ele><time>2026-04-15T15:58:31Z</time></trkpt><trkpt lat="44.24501983556121" lon="8.41356203041545"><ele>351.0</ele><time>2026-04-15T15:58:33Z</time></trkpt><trkpt lat="44.24497843426866" lon="8.413696311364198"><ele>351.0</ele><time>2026-04-15T15:58:35Z</time></trkpt><trkpt lat="44.24499031981405" lon="8.413860575588103"><ele>351.0</ele><time>2026-04-15T15:58:37Z</time></trkpt><trkpt lat="44.24498639096508" lon="8.414019920192294"><ele>351.0</ele><time>2026-04-15T15:58:39Z</time></trkpt><trkpt lat="44.24497585066189" lon="8.414172514177755"><ele>351.0</ele><time>2026-04-15T15:58:41Z</time></trkpt><trkpt lat="44.24496589876582" lon="8.414327574485108"><ele>352.0</ele><time>2026-04-15T15:58:43Z</time></trkpt><trkpt lat="44.24495810090334" lon="8.414467480315016"><ele>353.0</ele><time>2026-04-15T15:58:45Z</time></trkpt><trkpt lat="44.244965038019075" lon="8.41463598670697"><ele>354.0</ele><time>2026-04-15T15:58:47Z</time></trkpt><trkpt lat="44.244961742478715" lon="8.414726894280053"><ele>355.0</ele><time>2026-04-15T15:58:48Z</time></trkpt><trkpt lat="44.244957824351026" lon="8.414820675403202"><ele>356.0</ele><time>2026-04-15T15:58:49Z</time></trkpt><trkpt lat="44.2449781105349" lon="8.41492403084177"><ele>357.0</ele><time>2026-04-15T15:58:50Z</time></trkpt><trkpt lat="44.24500548530379" lon="8.415025877817456"><ele>358.5</ele><time>2026-04-15T15:58:51Z</time></trkpt><trkpt lat="44.24502573660092" lon="8.415133637921242"><ele>360.0</ele><time>2026-04-15T15:58:52Z</time></trkpt><trkpt lat="44.245037222784894" lon="8.415242696440737"><ele>361.5</ele><time>2026-04-15T15:58:53Z</time></trkpt><trkpt lat="44.245047708756765" lon="8.415355890652515"><ele>363.0</ele><time>2026-04-15T15:58:54Z</time></trkpt><trkpt lat="44.245057132935585" lon="8.415460695348848"><ele>364.5</ele><time>2026-04-15T15:58:55Z</time></trkpt><trkpt lat="44.2450670067459" lon="8.41558015227519"><ele>366.0</ele><time>2026-04-15T15:58:56Z</time></trkpt><trkpt lat="44.24507486206495" lon="8.415688278437791"><ele>366.6666666666667</ele><time>2026-04-15T15:58:57Z</time></trkpt><trkpt lat="44.24508213537056" lon="8.415805918397115"><ele>367.3333333333333</ele><time>2026-04-15T15:58:58Z</time></trkpt><trkpt lat="44.24508679859582" lon="8.415914875128719"><ele>368.0</ele><time>2026-04-15T15:58:59Z</time></trkpt><trkpt lat="44.24508851753173" lon="8.416023572271058"><ele>368.66666666666663</ele><time>2026-04-15T15:59:00Z</time></trkpt><trkpt lat="44.24507249566377" lon="8.416170573330326"><ele>369.3333333333333</ele><time>2026-04-15T15:59:02Z</time></trkpt><trkpt lat="44.24503401394929" lon="8.416263634764904"><ele>370.0</ele><time>2026-04-15T15:59:04Z</time></trkpt><trkpt lat="44.244932678853296" lon="8.416157666211737"><ele>370.0</ele><time>2026-04-15T15:59:08Z</time></trkpt><trkpt lat="44.244844028842394" lon="8.416106927325893"><ele>370.0</ele><time>2026-04-15T15:59:10Z</time></trkpt><trkpt lat="44.244734386511304" lon="8.416043328137002"><ele>370.0</ele><time>2026-04-15T15:59:12Z</time></trkpt><trkpt lat="44.24464173590066" lon="8.41599318441542"><ele>370.0</ele><time>2026-04-15T15:59:14Z</time></trkpt><trkpt lat="44.24453757225948" lon="8.415999331015158"><ele>370.0</ele><time>2026-04-15T15:59:16Z</time></trkpt><trkpt lat="44.2444641898345" lon="8.415976059807756"><ele>370.3333333333333</ele><time>2026-04-15T15:59:18Z</time></trkpt><trkpt lat="44.244397891060274" lon="8.415942438818782"><ele>370.66666666666663</ele><time>2026-04-15T15:59:19.999Z</time></trkpt><trkpt lat="44.24434881143857" lon="8.416005144348171"><ele>371.0</ele><time>2026-04-15T15:59:22.999Z</time></trkpt><trkpt lat="44.24440794868242" lon="8.4160713320523"><ele>371.3333333333333</ele><time>2026-04-15T15:59:25.999Z</time></trkpt><trkpt lat="44.244480454522474" lon="8.416086651404857"><ele>371.6666666666667</ele><time>2026-04-15T16:09:35.999Z</time></trkpt><trkpt lat="44.244568152369105" lon="8.416045479782419"><ele>372.0</ele><time>2026-04-15T16:09:38.999Z</time></trkpt><trkpt lat="44.24464517014365" lon="8.416019477804912"><ele>372.0</ele><time>2026-04-15T16:09:41.999Z</time></trkpt><trkpt lat="44.24473659051609" lon="8.41603267851524"><ele>372.0</ele><time>2026-04-15T16:09:44.999Z</time></trkpt><trkpt lat="44.24481853412083" lon="8.416083369717132"><ele>372.0</ele><time>2026-04-15T16:09:47.999Z</time></trkpt><trkpt lat="44.24489912334338" lon="8.416159973778818"><ele>372.0</ele><time>2026-04-15T16:09:50.999Z</time></trkpt><trkpt lat="44.24495549982632" lon="8.416217399298107"><ele>372.0</ele><time>2026-04-15T16:09:52.999Z</time></trkpt><trkpt lat="44.24501415848988" lon="8.416260445674792"><ele>372.0</ele><time>2026-04-15T16:09:54.999Z</time></trkpt><trkpt lat="44.24509285462523" lon="8.41621914683249"><ele>371.6666666666667</ele><time>2026-04-15T16:09:57.999Z</time></trkpt><trkpt lat="44.24510112116866" lon="8.416111369206561"><ele>371.3333333333333</ele><time>2026-04-15T16:09:59.999Z</time></trkpt><trkpt lat="44.24512077948011" lon="8.415966024580243"><ele>371.0</ele><time>2026-04-15T16:10:02Z</time></trkpt><trkpt lat="44.245116808531655" lon="8.415874189166098"><ele>370.66666666666663</ele><time>2026-04-15T16:10:03Z</time></trkpt><trkpt lat="44.2451032326705" lon="8.415772658210212"><ele>370.3333333333333</ele><time>2026-04-15T16:10:04Z</time></trkpt><trkpt lat="44.245091684848234" lon="8.415678817539218"><ele>370.0</ele><time>2026-04-15T16:10:05Z</time></trkpt><trkpt lat="44.245086193569705" lon="8.415589836300887"><ele>370.0</ele><time>2026-04-15T16:10:06Z</time></trkpt><trkpt lat="44.245079025924696" lon="8.415496423487783"><ele>370.0</ele><time>2026-04-15T16:10:07Z</time></trkpt><trkpt lat="44.24507570239224" lon="8.415406787307203"><ele>370.0</ele><time>2026-04-15T16:10:08Z</time></trkpt><trkpt lat="44.24507206394664" lon="8.41531345513226"><ele>370.0</ele><time>2026-04-15T16:10:09Z</time></trkpt><trkpt lat="44.24506384097774" lon="8.415226196313565"><ele>370.0</ele><time>2026-04-15T16:10:10Z</time></trkpt><trkpt lat="44.24505288748824" lon="8.415136918127187"><ele>370.0</ele><time>2026-04-15T16:10:11Z</time></trkpt><trkpt lat="44.24501922497078" lon="8.414962630984258"><ele>369.2</ele><time>2026-04-15T16:10:13Z</time></trkpt><trkpt lat="44.24500019016727" lon="8.414868769001679"><ele>368.4</ele><time>2026-04-15T16:10:14Z</time></trkpt><trkpt lat="44.24498153200287" lon="8.414777149776082"><ele>367.6</ele><time>2026-04-15T16:10:15Z</time></trkpt><trkpt lat="44.2449704189037" lon="8.414599958249658"><ele>366.8</ele><time>2026-04-15T16:10:17Z</time></trkpt><trkpt lat="44.24499695722462" lon="8.41443801910899"><ele>366.0</ele><time>2026-04-15T16:10:19Z</time></trkpt><trkpt lat="44.24500454758033" lon="8.41427400128445"><ele>364.20000000000005</ele><time>2026-04-15T16:10:21Z</time></trkpt><trkpt lat="44.24500858317948" lon="8.414127763863952"><ele>362.40000000000003</ele><time>2026-04-15T16:10:23Z</time></trkpt><trkpt lat="44.24503046750401" lon="8.41397083107163"><ele>360.6</ele><time>2026-04-15T16:10:25Z</time></trkpt><trkpt lat="44.24500974907854" lon="8.41381896172217"><ele>358.8</ele><time>2026-04-15T16:10:27Z</time></trkpt><trkpt lat="44.24499511947837" lon="8.41372877757737"><ele>357.0</ele><time>2026-04-15T16:10:28Z</time></trkpt><trkpt lat="44.24500221687052" lon="8.41363952085791"><ele>355.8</ele><time>2026-04-15T16:10:29Z</time></trkpt><trkpt lat="44.24502780101138" lon="8.413550077658572"><ele>354.6</ele><time>2026-04-15T16:10:30Z</time></trkpt><trkpt lat="44.245086193591135" lon="8.413413786518282"><ele>353.40000000000003</ele><time>2026-04-15T16:10:32Z</time></trkpt><trkpt lat="44.2450825951115" lon="8.413248823712093"><ele>352.20000000000005</ele><time>2026-04-15T16:10:34Z</time></trkpt><trkpt lat="44.24503833423173" lon="8.413123840399823"><ele>351.0</ele><time>2026-04-15T16:10:36Z</time></trkpt><trkpt lat="44.24496743254716" lon="8.413004853956933"><ele>348.8</ele><time>2026-04-15T16:10:38Z</time></trkpt><trkpt lat="44.24495267477601" lon="8.412853216236897"><ele>346.6</ele><time>2026-04-15T16:10:40Z</time></trkpt><trkpt lat="44.244959363260946" lon="8.412752279376868"><ele>344.4</ele><time>2026-04-15T16:10:41Z</time></trkpt><trkpt lat="44.244987665013745" lon="8.412658974346792"><ele>342.2</ele><time>2026-04-15T16:10:42Z</time></trkpt><trkpt lat="44.245039233109914" lon="8.412509512934157"><ele>340.0</ele><time>2026-04-15T16:10:44Z</time></trkpt><trkpt lat="44.24508316843947" lon="8.412380314273273"><ele>340.0</ele><time>2026-04-15T16:10:46Z</time></trkpt><trkpt lat="44.245106382111935" lon="8.412222190857491"><ele>340.0</ele><time>2026-04-15T16:10:48Z</time></trkpt><trkpt lat="44.24510827863504" lon="8.412121740205983"><ele>340.0</ele><time>2026-04-15T16:10:49Z</time></trkpt><trkpt lat="44.245114871095915" lon="8.412010788815063"><ele>340.0</ele><time>2026-04-15T16:10:50Z</time></trkpt><trkpt lat="44.245117449268555" lon="8.411901929483781"><ele>340.0</ele><time>2026-04-15T16:10:51Z</time></trkpt><trkpt lat="44.245126817275384" lon="8.411799132185665"><ele>340.0</ele><time>2026-04-15T16:10:52Z</time></trkpt><trkpt lat="44.24513862971257" lon="8.41169721499484"><ele>337.8333333333333</ele><time>2026-04-15T16:10:53Z</time></trkpt><trkpt lat="44.24515926491455" lon="8.411588662068226"><ele>335.66666666666663</ele><time>2026-04-15T16:10:54Z</time></trkpt><trkpt lat="44.245182027804056" lon="8.411477257755015"><ele>333.5</ele><time>2026-04-15T16:10:55Z</time></trkpt><trkpt lat="44.24519100990823" lon="8.411373080078823"><ele>331.3333333333333</ele><time>2026-04-15T16:10:56Z</time></trkpt><trkpt lat="44.24519757365559" lon="8.411259026590821"><ele>329.1666666666667</ele><time>2026-04-15T16:10:57Z</time></trkpt><trkpt lat="44.245204469196864" lon="8.411145402725417"><ele>327.0</ele><time>2026-04-15T16:10:58Z</time></trkpt><trkpt lat="44.24521060316375" lon="8.41103545411353"><ele>325.6666666666667</ele><time>2026-04-15T16:10:59Z</time></trkpt><trkpt lat="44.245217871149556" lon="8.410920438039813"><ele>324.3333333333333</ele><time>2026-04-15T16:10:59.999Z</time></trkpt><trkpt lat="44.245224490815126" lon="8.410811267689231"><ele>323.0</ele><time>2026-04-15T16:11:00.999Z</time></trkpt><trkpt lat="44.245239737829515" lon="8.410700467809619"><ele>321.66666666666663</ele><time>2026-04-15T16:11:01.999Z</time></trkpt><trkpt lat="44.24526221410196" lon="8.410594534834615"><ele>320.3333333333333</ele><time>2026-04-15T16:11:02.999Z</time></trkpt><trkpt lat="44.24527257010742" lon="8.410501064261434"><ele>319.0</ele><time>2026-04-15T16:11:03.999Z</time></trkpt><trkpt lat="44.24528084457767" lon="8.410407460352188"><ele>318.16666666666663</ele><time>2026-04-15T16:11:04.999Z</time></trkpt><trkpt lat="44.24528657609595" lon="8.410309174571243"><ele>317.3333333333333</ele><time>2026-04-15T16:11:05.999Z</time></trkpt><trkpt lat="44.245284531411016" lon="8.410210698583157"><ele>316.5</ele><time>2026-04-15T16:11:06.999Z</time></trkpt><trkpt lat="44.245269425287155" lon="8.410104919091431"><ele>315.6666666666667</ele><time>2026-04-15T16:11:07.999Z</time></trkpt><trkpt lat="44.24525566794244" lon="8.409987619840917"><ele>314.83333333333337</ele><time>2026-04-15T16:11:08.999Z</time></trkpt><trkpt lat="44.245245843571034" lon="8.409867739453357"><ele>314.0</ele><time>2026-04-15T16:11:09.999Z</time></trkpt><trkpt lat="44.24524333579338" lon="8.409762447267411"><ele>314.0</ele><time>2026-04-15T16:11:10.999Z</time></trkpt><trkpt lat="44.24523779269703" lon="8.409656166360154"><ele>314.0</ele><time>2026-04-15T16:11:11.999Z</time></trkpt><trkpt lat="44.2452366775746" lon="8.409563248810104"><ele>314.0</ele><time>2026-04-15T16:11:12.999Z</time></trkpt><trkpt lat="44.2452403212009" lon="8.40941395648248"><ele>314.0</ele><time>2026-04-15T16:11:14.999Z</time></trkpt><trkpt lat="44.245177335396065" lon="8.409505586024462"><ele>314.0</ele><time>2026-04-15T16:11:19.999Z</time></trkpt><trkpt lat="44.245143408030565" lon="8.409638622019449"><ele>314.0</ele><time>2026-04-15T16:11:21.999Z</time></trkpt><trkpt lat="44.24512014621863" lon="8.409780621509954"><ele>314.0</ele><time>2026-04-15T16:11:23.999Z</time></trkpt><trkpt lat="44.24511277254386" lon="8.409930026443961"><ele>314.0</ele><time>2026-04-15T16:11:25.999Z</time></trkpt><trkpt lat="44.24509293609774" lon="8.410089951734102"><ele>314.0</ele><time>2026-04-15T16:11:27.999Z</time></trkpt><trkpt lat="44.245062485047015" lon="8.410225610424575"><ele>314.0</ele><time>2026-04-15T16:11:29.999Z</time></trkpt><trkpt lat="44.2450155495159" lon="8.410373965448075"><ele>314.0</ele><time>2026-04-15T16:11:31.999Z</time></trkpt><trkpt lat="44.244962554901825" lon="8.410502592821354"><ele>314.83333333333337</ele><time>2026-04-15T16:11:33.999Z</time></trkpt><trkpt lat="44.24490737181898" lon="8.41063536139375"><ele>315.6666666666667</ele><time>2026-04-15T16:11:35.999Z</time></trkpt><trkpt lat="44.244871125792685" lon="8.410711360865918"><ele>316.5</ele><time>2026-04-15T16:11:36.999Z</time></trkpt><trkpt lat="44.24481901241204" lon="8.410842442110015"><ele>317.3333333333333</ele><time>2026-04-15T16:11:38.999Z</time></trkpt><trkpt lat="44.24478381000156" lon="8.410917469792787"><ele>318.16666666666663</ele><time>2026-04-15T16:11:39.999Z</time></trkpt><trkpt lat="44.24475425206507" lon="8.41099890873633"><ele>319.0</ele><time>2026-04-15T16:11:40.999Z</time></trkpt><trkpt lat="44.244730605973544" lon="8.411082187075994"><ele>313.42857142857144</ele><time>2026-04-15T16:11:41.999Z</time></trkpt><trkpt lat="44.24469392651654" lon="8.411164480269747"><ele>307.85714285714283</ele><time>2026-04-15T16:11:42.999Z</time></trkpt><trkpt lat="44.24465358290539" lon="8.411234877775827"><ele>302.2857142857143</ele><time>2026-04-15T16:11:43.999Z</time></trkpt><trkpt lat="44.24461426329747" lon="8.41130910355664"><ele>296.7142857142857</ele><time>2026-04-15T16:11:44.999Z</time></trkpt><trkpt lat="44.2445753687655" lon="8.411390497524978"><ele>291.1428571428571</ele><time>2026-04-15T16:11:45.999Z</time></trkpt><trkpt lat="44.24454233687011" lon="8.411475242784341"><ele>285.57142857142856</ele><time>2026-04-15T16:11:46.999Z</time></trkpt><trkpt lat="44.24450757688627" lon="8.411562272573201"><ele>280.0</ele><time>2026-04-15T16:11:47.999Z</time></trkpt><trkpt lat="44.244475243184674" lon="8.41164296876485"><ele>280.0</ele><time>2026-04-15T16:11:48.999Z</time></trkpt><trkpt lat="44.24443842287642" lon="8.41172184996251"><ele>280.0</ele><time>2026-04-15T16:11:49.999Z</time></trkpt><trkpt lat="44.24439618797112" lon="8.41181126153876"><ele>280.0</ele><time>2026-04-15T16:11:50.999Z</time></trkpt><trkpt lat="44.24435193131803" lon="8.411904373674284"><ele>280.0</ele><time>2026-04-15T16:11:51.999Z</time></trkpt><trkpt lat="44.244303715120566" lon="8.411983123345992"><ele>280.0</ele><time>2026-04-15T16:11:52.999Z</time></trkpt><trkpt lat="44.244252952314035" lon="8.412058429672049"><ele>280.0</ele><time>2026-04-15T16:11:53.999Z</time></trkpt><trkpt lat="44.244202559568166" lon="8.412118998592227"><ele>280.0</ele><time>2026-04-15T16:11:54.999Z</time></trkpt><trkpt lat="44.2441377477589" lon="8.412173544833728"><ele>279.8333333333333</ele><time>2026-04-15T16:11:55.999Z</time></trkpt><trkpt lat="44.24407625967639" lon="8.412201822033294"><ele>279.66666666666663</ele><time>2026-04-15T16:11:56.999Z</time></trkpt><trkpt lat="44.244007464369666" lon="8.412224917484519"><ele>279.5</ele><time>2026-04-15T16:11:57.999Z</time></trkpt><trkpt lat="44.2439362780094" lon="8.412246496756758"><ele>279.3333333333333</ele><time>2026-04-15T16:11:58.999Z</time></trkpt><trkpt lat="44.24386548762309" lon="8.412267082512763"><ele>279.1666666666667</ele><time>2026-04-15T16:11:59.999Z</time></trkpt><trkpt lat="44.24374509010297" lon="8.4123018175583"><ele>279.0</ele><time>2026-04-15T16:12:01.999Z</time></trkpt><trkpt lat="44.24364236954221" lon="8.412355917694919"><ele>279.0</ele><time>2026-04-15T16:12:03.999Z</time></trkpt><trkpt lat="44.24354982257164" lon="8.412406052702686"><ele>279.0</ele><time>2026-04-15T16:12:05.999Z</time></trkpt><trkpt lat="44.2434527282509" lon="8.412464966378478"><ele>279.0</ele><time>2026-04-15T16:12:08Z</time></trkpt><trkpt lat="44.24339699138154" lon="8.41251458292213"><ele>279.0</ele><time>2026-04-15T16:12:09Z</time></trkpt><trkpt lat="44.2432912969507" lon="8.412614508145163"><ele>279.0</ele><time>2026-04-15T16:12:11Z</time></trkpt><trkpt lat="44.24323648321427" lon="8.41267201934754"><ele>279.0</ele><time>2026-04-15T16:12:12Z</time></trkpt><trkpt lat="44.243179339450585" lon="8.41272278993024"><ele>279.0</ele><time>2026-04-15T16:12:13Z</time></trkpt><trkpt lat="44.243124353781766" lon="8.412766542974312"><ele>279.0</ele><time>2026-04-15T16:12:14Z</time></trkpt><trkpt lat="44.24306472063003" lon="8.412811047441586"><ele>279.0</ele><time>2026-04-15T16:12:15Z</time></trkpt><trkpt lat="44.24297374390555" lon="8.41290307986289"><ele>279.0</ele><time>2026-04-15T16:12:17Z</time></trkpt><trkpt lat="44.242884118060495" lon="8.413013780305931"><ele>279.0</ele><time>2026-04-15T16:12:19Z</time></trkpt><trkpt lat="44.2428335519249" lon="8.413076857058957"><ele>276.85714285714283</ele><time>2026-04-15T16:12:20Z</time></trkpt><trkpt lat="44.24278664534094" lon="8.413143295619307"><ele>274.7142857142857</ele><time>2026-04-15T16:12:21Z</time></trkpt><trkpt lat="44.24274030413828" lon="8.413214346961984"><ele>272.57142857142856</ele><time>2026-04-15T16:12:22Z</time></trkpt><trkpt lat="44.24270252747979" lon="8.413296577543214"><ele>270.42857142857144</ele><time>2026-04-15T16:12:23Z</time></trkpt><trkpt lat="44.24266401670759" lon="8.413371224348682"><ele>268.2857142857143</ele><time>2026-04-15T16:12:24Z</time></trkpt><trkpt lat="44.242628937065575" lon="8.41345003593208"><ele>266.1428571428571</ele><time>2026-04-15T16:12:25Z</time></trkpt><trkpt lat="44.24259780455031" lon="8.41354261492563"><ele>264.0</ele><time>2026-04-15T16:12:26Z</time></trkpt><trkpt lat="44.24254107914456" lon="8.413705580249966"><ele>264.0</ele><time>2026-04-15T16:12:28Z</time></trkpt><trkpt lat="44.242517448769505" lon="8.413789938320134"><ele>264.0</ele><time>2026-04-15T16:12:29Z</time></trkpt><trkpt lat="44.24248197114418" lon="8.41395438086419"><ele>264.0</ele><time>2026-04-15T16:12:31Z</time></trkpt><trkpt lat="44.242453076148806" lon="8.414125308605861"><ele>264.0</ele><time>2026-04-15T16:12:33Z</time></trkpt><trkpt lat="44.24243462336941" lon="8.41421238833439"><ele>264.0</ele><time>2026-04-15T16:12:34Z</time></trkpt><trkpt lat="44.24239988279539" lon="8.414368157853785"><ele>266.4</ele><time>2026-04-15T16:12:36Z</time></trkpt><trkpt lat="44.24236847210623" lon="8.414532177572175"><ele>268.79999999999995</ele><time>2026-04-15T16:12:38Z</time></trkpt><trkpt lat="44.242348894054665" lon="8.414621668748822"><ele>271.20000000000005</ele><time>2026-04-15T16:12:39Z</time></trkpt><trkpt lat="44.242334441035936" lon="8.41479843142581"><ele>273.6</ele><time>2026-04-15T16:12:41Z</time></trkpt><trkpt lat="44.24233952312739" lon="8.414887565211863"><ele>276.0</ele><time>2026-04-15T16:12:42Z</time></trkpt><trkpt lat="44.24235748627352" lon="8.415050281623579"><ele>277.0</ele><time>2026-04-15T16:12:44Z</time></trkpt><trkpt lat="44.24238592427241" lon="8.415195386090424"><ele>278.0</ele><time>2026-04-15T16:12:46Z</time></trkpt><trkpt lat="44.242351039122056" lon="8.415323063692059"><ele>279.0</ele><time>2026-04-15T16:12:48Z</time></trkpt><trkpt lat="44.2422612946966" lon="8.415386129176154"><ele>280.0</ele><time>2026-04-15T16:12:50Z</time></trkpt><trkpt lat="44.242155512188056" lon="8.415446191205179"><ele>281.0</ele><time>2026-04-15T16:12:52Z</time></trkpt><trkpt lat="44.242064098460915" lon="8.415553697552223"><ele>277.2</ele><time>2026-04-15T16:12:54Z</time></trkpt><trkpt lat="44.24196081802281" lon="8.415641048781174"><ele>273.40000000000003</ele><time>2026-04-15T16:12:56Z</time></trkpt><trkpt lat="44.24184855880871" lon="8.415704934422136"><ele>269.6</ele><time>2026-04-15T16:12:58Z</time></trkpt><trkpt lat="44.24177589042386" lon="8.415752853871489"><ele>265.8</ele><time>2026-04-15T16:12:59Z</time></trkpt><trkpt lat="44.24170910042236" lon="8.415783023532393"><ele>262.0</ele><time>2026-04-15T16:13:00Z</time></trkpt><trkpt lat="44.24163998201523" lon="8.415817153673633"><ele>262.0</ele><time>2026-04-15T16:13:01Z</time></trkpt><trkpt lat="44.24157563177359" lon="8.415839899366347"><ele>262.0</ele><time>2026-04-15T16:13:02Z</time></trkpt><trkpt lat="44.24151359026228" lon="8.415862824356969"><ele>262.0</ele><time>2026-04-15T16:13:03Z</time></trkpt><trkpt lat="44.24144852033069" lon="8.415886780223142"><ele>262.0</ele><time>2026-04-15T16:13:04Z</time></trkpt><trkpt lat="44.241329884959455" lon="8.415926926023"><ele>262.0</ele><time>2026-04-15T16:13:06Z</time></trkpt><trkpt lat="44.24121714223602" lon="8.415979018997165"><ele>262.0</ele><time>2026-04-15T16:13:08Z</time></trkpt><trkpt lat="44.24115373389206" lon="8.416021337294163"><ele>258.3333333333333</ele><time>2026-04-15T16:13:09Z</time></trkpt><trkpt lat="44.241101573117724" lon="8.416073819280554"><ele>254.66666666666666</ele><time>2026-04-15T16:13:10Z</time></trkpt><trkpt lat="44.2410506610824" lon="8.416138238788523"><ele>251.0</ele><time>2026-04-15T16:13:11Z</time></trkpt><trkpt lat="44.24095909837389" lon="8.416269202645363"><ele>247.33333333333331</ele><time>2026-04-15T16:13:13Z</time></trkpt><trkpt lat="44.24092324206166" lon="8.416352844861207"><ele>243.66666666666666</ele><time>2026-04-15T16:13:14Z</time></trkpt><trkpt lat="44.2408862780298" lon="8.416454030006985"><ele>240.0</ele><time>2026-04-15T16:13:15Z</time></trkpt><trkpt lat="44.24083352951253" lon="8.416587544112383"><ele>240.0</ele><time>2026-04-15T16:13:17Z</time></trkpt><trkpt lat="44.24080683327433" lon="8.416713827658121"><ele>240.0</ele><time>2026-04-15T16:13:19Z</time></trkpt><trkpt lat="44.240813281823314" lon="8.416879058217928"><ele>240.0</ele><time>2026-04-15T16:13:21Z</time></trkpt><trkpt lat="44.240820372278755" lon="8.416973983083091"><ele>240.0</ele><time>2026-04-15T16:13:22Z</time></trkpt><trkpt lat="44.24084585819796" lon="8.417139704865995"><ele>240.0</ele><time>2026-04-15T16:13:23.999Z</time></trkpt><trkpt lat="44.240830356928996" lon="8.417292116747616"><ele>241.5</ele><time>2026-04-15T16:13:25.999Z</time></trkpt><trkpt lat="44.240801832429206" lon="8.417384711974233"><ele>243.0</ele><time>2026-04-15T16:13:26.999Z</time></trkpt><trkpt lat="44.2407865339658" lon="8.417476076807272"><ele>244.5</ele><time>2026-04-15T16:13:27.999Z</time></trkpt><trkpt lat="44.24078159449608" lon="8.417566829563274"><ele>246.0</ele><time>2026-04-15T16:13:28.999Z</time></trkpt><trkpt lat="44.24072380203384" lon="8.4176922894515"><ele>247.5</ele><time>2026-04-15T16:13:30.999Z</time></trkpt><trkpt lat="44.24062261932399" lon="8.417692122165388"><ele>249.0</ele><time>2026-04-15T16:13:32.999Z</time></trkpt><trkpt lat="44.24055444774362" lon="8.417676710171804"><ele>245.42857142857142</ele><time>2026-04-15T16:13:33.999Z</time></trkpt><trkpt lat="44.2404824108979" lon="8.41767048068591"><ele>241.85714285714283</ele><time>2026-04-15T16:13:34.999Z</time></trkpt><trkpt lat="44.24041711972726" lon="8.417681513828388"><ele>238.28571428571428</ele><time>2026-04-15T16:13:35.999Z</time></trkpt><trkpt lat="44.240345294516196" lon="8.417692320311936"><ele>234.71428571428572</ele><time>2026-04-15T16:13:36.999Z</time></trkpt><trkpt lat="44.240270027727625" lon="8.417699277571511"><ele>231.14285714285714</ele><time>2026-04-15T16:13:37.999Z</time></trkpt><trkpt lat="44.24019028493051" lon="8.417690776531078"><ele>227.57142857142856</ele><time>2026-04-15T16:13:38.999Z</time></trkpt><trkpt lat="44.240120358771804" lon="8.417694961926792"><ele>224.0</ele><time>2026-04-15T16:13:39.999Z</time></trkpt><trkpt lat="44.240049984305024" lon="8.41770397154802"><ele>224.00000000000003</ele><time>2026-04-15T16:13:40.999Z</time></trkpt><trkpt lat="44.23998216657227" lon="8.41771289345646"><ele>224.0</ele><time>2026-04-15T16:13:41.999Z</time></trkpt><trkpt lat="44.23987108574517" lon="8.417694071748414"><ele>224.0</ele><time>2026-04-15T16:13:43.999Z</time></trkpt><trkpt lat="44.23978823708369" lon="8.417666627445053"><ele>224.0</ele><time>2026-04-15T16:13:45.999Z</time></trkpt><trkpt lat="44.23972653594279" lon="8.417622981216885"><ele>224.00000000000003</ele><time>2026-04-15T16:13:47.999Z</time></trkpt><trkpt lat="44.23965186411843" lon="8.417534484047149"><ele>224.0</ele><time>2026-04-15T16:13:49.999Z</time></trkpt><trkpt lat="44.23957302435992" lon="8.417452272600126"><ele>220.2</ele><time>2026-04-15T16:13:51.999Z</time></trkpt><trkpt lat="44.23947616144783" lon="8.41735840888143"><ele>216.39999999999998</ele><time>2026-04-15T16:13:53.999Z</time></trkpt><trkpt lat="44.23937691737801" lon="8.417296764857294"><ele>212.6</ele><time>2026-04-15T16:13:55.999Z</time></trkpt><trkpt lat="44.239294505550504" lon="8.417212905374091"><ele>208.8</ele><time>2026-04-15T16:13:57.999Z</time></trkpt><trkpt lat="44.23920761487735" lon="8.417136297268339"><ele>205.0</ele><time>2026-04-15T16:13:59.999Z</time></trkpt><trkpt lat="44.239111998229646" lon="8.417057846700663"><ele>200.4</ele><time>2026-04-15T16:14:01.999Z</time></trkpt><trkpt lat="44.2390371459852" lon="8.41698850135058"><ele>195.8</ele><time>2026-04-15T16:14:03.999Z</time></trkpt><trkpt lat="44.238956910118766" lon="8.416888625203056"><ele>191.2</ele><time>2026-04-15T16:14:05.999Z</time></trkpt><trkpt lat="44.23886438761444" lon="8.416786005688985"><ele>186.6</ele><time>2026-04-15T16:14:07.999Z</time></trkpt><trkpt lat="44.23877159941792" lon="8.416684290929346"><ele>182.0</ele><time>2026-04-15T16:14:09.999Z</time></trkpt><trkpt lat="44.23867434577303" lon="8.416599037290986"><ele>179.6</ele><time>2026-04-15T16:14:11.999Z</time></trkpt><trkpt lat="44.23859221169574" lon="8.416551789838989"><ele>177.2</ele><time>2026-04-15T16:14:14Z</time></trkpt><trkpt lat="44.23849902310373" lon="8.416566803031635"><ele>174.8</ele><time>2026-04-15T16:14:16Z</time></trkpt><trkpt lat="44.23841729817832" lon="8.41664295386998"><ele>172.4</ele><time>2026-04-15T16:14:18Z</time></trkpt><trkpt lat="44.238359673051036" lon="8.416760012114503"><ele>170.0</ele><time>2026-04-15T16:14:20Z</time></trkpt><trkpt lat="44.238288846083286" lon="8.416880775547511"><ele>170.0</ele><time>2026-04-15T16:14:22Z</time></trkpt><trkpt lat="44.23825064293649" lon="8.416995890674153"><ele>170.0</ele><time>2026-04-15T16:14:24Z</time></trkpt><trkpt lat="44.23820747936418" lon="8.417138500099396"><ele>170.0</ele><time>2026-04-15T16:14:26Z</time></trkpt><trkpt lat="44.238175298639604" lon="8.417268809048956"><ele>170.0</ele><time>2026-04-15T16:14:28Z</time></trkpt><trkpt lat="44.23816411053932" lon="8.417426540579553"><ele>170.0</ele><time>2026-04-15T16:14:30Z</time></trkpt><trkpt lat="44.238154517409725" lon="8.417581459233494"><ele>170.6</ele><time>2026-04-15T16:14:32Z</time></trkpt><trkpt lat="44.238196739847204" lon="8.417733899294324"><ele>171.2</ele><time>2026-04-15T16:14:34Z</time></trkpt><trkpt lat="44.23826414797623" lon="8.417870080297691"><ele>171.8</ele><time>2026-04-15T16:14:36Z</time></trkpt><trkpt lat="44.238329065562624" lon="8.417952641679825"><ele>172.4</ele><time>2026-04-15T16:14:38Z</time></trkpt><trkpt lat="44.238342370678886" lon="8.418038667429817"><ele>173.0</ele><time>2026-04-15T16:14:40Z</time></trkpt><trkpt lat="44.23827722906766" lon="8.418102347777744"><ele>173.2</ele><time>2026-04-15T16:14:42Z</time></trkpt><trkpt lat="44.238171465881656" lon="8.418115443516282"><ele>173.4</ele><time>2026-04-15T16:14:44Z</time></trkpt><trkpt lat="44.23805711395634" lon="8.418075024792035"><ele>173.6</ele><time>2026-04-15T16:14:46Z</time></trkpt><trkpt lat="44.23796015665907" lon="8.418018959299443"><ele>173.79999999999998</ele><time>2026-04-15T16:14:48Z</time></trkpt><trkpt lat="44.237856803566515" lon="8.418042780252025"><ele>174.0</ele><time>2026-04-15T16:14:50Z</time></trkpt><trkpt lat="44.23773854287553" lon="8.418053891490844"><ele>168.6</ele><time>2026-04-15T16:14:52Z</time></trkpt><trkpt lat="44.237643135121495" lon="8.417966790080662"><ele>163.2</ele><time>2026-04-15T16:14:54Z</time></trkpt><trkpt lat="44.23759096669223" lon="8.417912529388014"><ele>157.79999999999998</ele><time>2026-04-15T16:14:55Z</time></trkpt><trkpt lat="44.23753280916547" lon="8.417851558861534"><ele>152.39999999999998</ele><time>2026-04-15T16:14:56Z</time></trkpt><trkpt lat="44.237428484500384" lon="8.417762257014024"><ele>147.0</ele><time>2026-04-15T16:14:58Z</time></trkpt><trkpt lat="44.23731904254755" lon="8.41770771345471"><ele>146.2</ele><time>2026-04-15T16:15:00Z</time></trkpt><trkpt lat="44.23720806642693" lon="8.41768668976532"><ele>145.39999999999998</ele><time>2026-04-15T16:15:02Z</time></trkpt><trkpt lat="44.23710019698555" lon="8.417624759428648"><ele>144.60000000000002</ele><time>2026-04-15T16:15:04Z</time></trkpt><trkpt lat="44.23699034604226" lon="8.417577139134155"><ele>143.8</ele><time>2026-04-15T16:15:06Z</time></trkpt><trkpt lat="44.236921951127336" lon="8.41757554213439"><ele>143.0</ele><time>2026-04-15T16:15:07Z</time></trkpt><trkpt lat="44.236849015259686" lon="8.417579046389246"><ele>143.0</ele><time>2026-04-15T16:15:08Z</time></trkpt><trkpt lat="44.23677737758047" lon="8.417583584905712"><ele>143.0</ele><time>2026-04-15T16:15:09Z</time></trkpt><trkpt lat="44.23670760759929" lon="8.417600534551452"><ele>143.0</ele><time>2026-04-15T16:15:10Z</time></trkpt><trkpt lat="44.236634116187" lon="8.417613036868712"><ele>143.0</ele><time>2026-04-15T16:15:11Z</time></trkpt><trkpt lat="44.236568428552225" lon="8.417612056925096"><ele>143.0</ele><time>2026-04-15T16:15:12Z</time></trkpt><trkpt lat="44.236450725810045" lon="8.417599261181765"><ele>143.0</ele><time>2026-04-15T16:15:14Z</time></trkpt><trkpt lat="44.236385760756086" lon="8.41757976578996"><ele>142.83333333333331</ele><time>2026-04-15T16:15:15Z</time></trkpt><trkpt lat="44.23631406864926" lon="8.417558870139729"><ele>142.66666666666666</ele><time>2026-04-15T16:15:16Z</time></trkpt><trkpt lat="44.2362439188793" lon="8.417551865046175"><ele>142.5</ele><time>2026-04-15T16:15:17Z</time></trkpt><trkpt lat="44.23617699412088" lon="8.417556283773449"><ele>142.33333333333334</ele><time>2026-04-15T16:15:18Z</time></trkpt><trkpt lat="44.236108802744624" lon="8.417565447015974"><ele>142.16666666666669</ele><time>2026-04-15T16:15:19Z</time></trkpt><trkpt lat="44.23598457753108" lon="8.417536081510786"><ele>142.0</ele><time>2026-04-15T16:15:21Z</time></trkpt><trkpt lat="44.235918632208666" lon="8.417501478900755"><ele>142.0</ele><time>2026-04-15T16:15:22Z</time></trkpt><trkpt lat="44.23586071432069" lon="8.4174634952657"><ele>142.0</ele><time>2026-04-15T16:15:23Z</time></trkpt><trkpt lat="44.23573339767134" lon="8.417388874489204"><ele>142.0</ele><time>2026-04-15T16:15:25Z</time></trkpt><trkpt lat="44.23561949801248" lon="8.417282264862806"><ele>142.0</ele><time>2026-04-15T16:15:27Z</time></trkpt><trkpt lat="44.23552498923925" lon="8.41727150675873"><ele>142.0</ele><time>2026-04-15T16:15:29Z</time></trkpt><trkpt lat="44.23544907169261" lon="8.41727178712823"><ele>137.6</ele><time>2026-04-15T16:15:31Z</time></trkpt><trkpt lat="44.23539705327679" lon="8.41713698115921"><ele>133.2</ele><time>2026-04-15T16:15:32.999Z</time></trkpt><trkpt lat="44.235348372822344" lon="8.416998443276148"><ele>128.8</ele><time>2026-04-15T16:15:34.999Z</time></trkpt><trkpt lat="44.2353107802371" lon="8.416865183278496"><ele>124.4</ele><time>2026-04-15T16:15:36.999Z</time></trkpt><trkpt lat="44.23526798504414" lon="8.416718234828519"><ele>120.0</ele><time>2026-04-15T16:15:38.999Z</time></trkpt><trkpt lat="44.23517610346027" lon="8.416605590561737"><ele>120.0</ele><time>2026-04-15T16:15:40.999Z</time></trkpt><trkpt lat="44.23514035211759" lon="8.416530862829001"><ele>120.0</ele><time>2026-04-15T16:15:41.999Z</time></trkpt><trkpt lat="44.23505096847371" lon="8.416416278359938"><ele>120.0</ele><time>2026-04-15T16:15:43.999Z</time></trkpt><trkpt lat="44.234962075485775" lon="8.41631063231089"><ele>120.0</ele><time>2026-04-15T16:15:45.999Z</time></trkpt><trkpt lat="44.23487042064893" lon="8.416233538292678"><ele>120.0</ele><time>2026-04-15T16:15:47.999Z</time></trkpt><trkpt lat="44.23477117409025" lon="8.416174996894409"><ele>114.0</ele><time>2026-04-15T16:15:49.999Z</time></trkpt><trkpt lat="44.23465487629757" lon="8.416141826818748"><ele>108.0</ele><time>2026-04-15T16:15:51.999Z</time></trkpt><trkpt lat="44.23459042516636" lon="8.416147133472911"><ele>102.0</ele><time>2026-04-15T16:15:52.999Z</time></trkpt><trkpt lat="44.23446587074165" lon="8.416163615616234"><ele>96.0</ele><time>2026-04-15T16:15:54.999Z</time></trkpt><trkpt lat="44.23435121114919" lon="8.416182620546607"><ele>90.0</ele><time>2026-04-15T16:15:56.999Z</time></trkpt><trkpt lat="44.23423665606202" lon="8.416230756196045"><ele>90.0</ele><time>2026-04-15T16:15:58.999Z</time></trkpt><trkpt lat="44.23411927105869" lon="8.416273279198233"><ele>90.0</ele><time>2026-04-15T16:16:00.999Z</time></trkpt><trkpt lat="44.23399478262774" lon="8.416300322439385"><ele>90.0</ele><time>2026-04-15T16:16:02.999Z</time></trkpt><trkpt lat="44.23387750095787" lon="8.416272584398145"><ele>90.0</ele><time>2026-04-15T16:16:04.999Z</time></trkpt><trkpt lat="44.23381701498536" lon="8.41624489544967"><ele>90.0</ele><time>2026-04-15T16:16:05.999Z</time></trkpt><trkpt lat="44.23370103615694" lon="8.416222664796857"><ele>89.0</ele><time>2026-04-15T16:16:07.999Z</time></trkpt><trkpt lat="44.23364379700751" lon="8.416183959935779"><ele>88.0</ele><time>2026-04-15T16:16:08.999Z</time></trkpt><trkpt lat="44.233532100681515" lon="8.41614306246189"><ele>87.0</ele><time>2026-04-15T16:16:10.999Z</time></trkpt><trkpt lat="44.23343079704178" lon="8.416082635756148"><ele>86.0</ele><time>2026-04-15T16:16:12.999Z</time></trkpt><trkpt lat="44.23336955724269" lon="8.416039317994692"><ele>85.0</ele><time>2026-04-15T16:16:13.999Z</time></trkpt><trkpt lat="44.23331337561238" lon="8.415976637953083"><ele>84.0</ele><time>2026-04-15T16:16:14.999Z</time></trkpt><trkpt lat="44.23327307840376" lon="8.415903915340213"><ele>84.0</ele><time>2026-04-15T16:16:15.999Z</time></trkpt><trkpt lat="44.23323673110814" lon="8.415826473844119"><ele>84.0</ele><time>2026-04-15T16:16:16.999Z</time></trkpt><trkpt lat="44.23317590525715" lon="8.415680708822945"><ele>84.0</ele><time>2026-04-15T16:16:18.999Z</time></trkpt><trkpt lat="44.23315525277401" lon="8.415506604989927"><ele>84.0</ele><time>2026-04-15T16:16:21Z</time></trkpt><trkpt lat="44.233138493277046" lon="8.415344371822115"><ele>84.0</ele><time>2026-04-15T16:16:23Z</time></trkpt><trkpt lat="44.23311588335807" lon="8.415207744238627"><ele>82.33333333333333</ele><time>2026-04-15T16:16:25Z</time></trkpt><trkpt lat="44.23304444625011" lon="8.41507285696518"><ele>80.66666666666667</ele><time>2026-04-15T16:16:27Z</time></trkpt><trkpt lat="44.23300014505763" lon="8.415008866213974"><ele>79.0</ele><time>2026-04-15T16:16:28Z</time></trkpt><trkpt lat="44.232913526510295" lon="8.41488841109462"><ele>77.33333333333334</ele><time>2026-04-15T16:16:30Z</time></trkpt><trkpt lat="44.23286625601262" lon="8.414825979750766"><ele>75.66666666666667</ele><time>2026-04-15T16:16:31Z</time></trkpt><trkpt lat="44.23281339283269" lon="8.414756161978914"><ele>74.0</ele><time>2026-04-15T16:16:32Z</time></trkpt><trkpt lat="44.232758579255744" lon="8.414683767465325"><ele>74.0</ele><time>2026-04-15T16:16:33Z</time></trkpt><trkpt lat="44.232657017244954" lon="8.414671932615846"><ele>74.0</ele><time>2026-04-15T16:16:34Z</time></trkpt><trkpt lat="44.23258412171837" lon="8.414634342542218"><ele>74.0</ele><time>2026-04-15T16:16:35Z</time></trkpt><trkpt lat="44.232522102881376" lon="8.41460236124601"><ele>74.0</ele><time>2026-04-15T16:16:36Z</time></trkpt><trkpt lat="44.23245778311035" lon="8.41459136879298"><ele>74.0</ele><time>2026-04-15T16:16:37Z</time></trkpt><trkpt lat="44.232370077540054" lon="8.414585601508346"><ele>74.0</ele><time>2026-04-15T16:16:39Z</time></trkpt><trkpt lat="44.23232921525362" lon="8.414735283146513"><ele>74.0</ele><time>2026-04-15T16:16:41Z</time></trkpt><trkpt lat="44.232326108349106" lon="8.4148407715727"><ele>74.0</ele><time>2026-04-15T16:16:42Z</time></trkpt><trkpt lat="44.23233076312176" lon="8.414967827833566"><ele>74.0</ele><time>2026-04-15T16:16:43Z</time></trkpt><trkpt lat="44.23234780656814" lon="8.415094058927634"><ele>74.0</ele><time>2026-04-15T16:16:44Z</time></trkpt><trkpt lat="44.232346970696995" lon="8.415220017553828"><ele>74.0</ele><time>2026-04-15T16:16:45Z</time></trkpt><trkpt lat="44.23238510407144" lon="8.415346341742435"><ele>74.0</ele><time>2026-04-15T16:16:46Z</time></trkpt><trkpt lat="44.23240614718109" lon="8.415480525116376"><ele>73.16666666666667</ele><time>2026-04-15T16:16:47Z</time></trkpt><trkpt lat="44.2324419431788" lon="8.415604218139674"><ele>72.33333333333334</ele><time>2026-04-15T16:16:48Z</time></trkpt><trkpt lat="44.23247080864335" lon="8.415720221645335"><ele>71.5</ele><time>2026-04-15T16:16:49Z</time></trkpt><trkpt lat="44.232486036431766" lon="8.4158383406888"><ele>70.66666666666667</ele><time>2026-04-15T16:16:50Z</time></trkpt><trkpt lat="44.232514099005215" lon="8.415951110609369"><ele>69.83333333333333</ele><time>2026-04-15T16:16:51Z</time></trkpt><trkpt lat="44.23253877732427" lon="8.416048039437136"><ele>69.0</ele><time>2026-04-15T16:16:52Z</time></trkpt><trkpt lat="44.23256366988432" lon="8.416142194978237"><ele>69.0</ele><time>2026-04-15T16:16:53Z</time></trkpt><trkpt lat="44.232590309671885" lon="8.416230633413612"><ele>69.0</ele><time>2026-04-15T16:16:54Z</time></trkpt><trkpt lat="44.2326166442142" lon="8.416310677231557"><ele>69.0</ele><time>2026-04-15T16:16:55Z</time></trkpt><trkpt lat="44.232640500053314" lon="8.416396599729303"><ele>69.0</ele><time>2026-04-15T16:16:56Z</time></trkpt><trkpt lat="44.232634970681296" lon="8.416497324096419"><ele>69.0</ele><time>2026-04-15T16:16:58Z</time></trkpt><trkpt lat="44.23255878582034" lon="8.41647623269958"><ele>69.0</ele><time>2026-04-15T16:17:00Z</time></trkpt><trkpt lat="44.23243147062171" lon="8.416487827006"><ele>68.66666666666667</ele><time>2026-04-15T16:17:02Z</time></trkpt><trkpt lat="44.23237354537343" lon="8.41655057392825"><ele>68.33333333333333</ele><time>2026-04-15T16:17:03Z</time></trkpt><trkpt lat="44.23234830641624" lon="8.416673995644665"><ele>68.0</ele><time>2026-04-15T16:17:04Z</time></trkpt><trkpt lat="44.23229886123751" lon="8.416782912413003"><ele>67.66666666666666</ele><time>2026-04-15T16:17:05Z</time></trkpt><trkpt lat="44.23225208403089" lon="8.416872548781445"><ele>67.33333333333333</ele><time>2026-04-15T16:17:06Z</time></trkpt><trkpt lat="44.23220196294032" lon="8.416968192222846"><ele>67.0</ele><time>2026-04-15T16:17:07Z</time></trkpt><trkpt lat="44.23214958852281" lon="8.417066002090838"><ele>63.49999999999999</ele><time>2026-04-15T16:17:08Z</time></trkpt><trkpt lat="44.232101227908224" lon="8.417154709803821"><ele>60.0</ele><time>2026-04-15T16:17:09Z</time></trkpt><trkpt lat="44.232052495240936" lon="8.417249937361273"><ele>56.5</ele><time>2026-04-15T16:17:10Z</time></trkpt><trkpt lat="44.23201396577623" lon="8.417354868973613"><ele>53.0</ele><time>2026-04-15T16:17:11Z</time></trkpt><trkpt lat="44.232013927588525" lon="8.41747343962585"><ele>49.5</ele><time>2026-04-15T16:17:12Z</time></trkpt><trkpt lat="44.23199678770046" lon="8.417584147781689"><ele>46.0</ele><time>2026-04-15T16:17:13Z</time></trkpt><trkpt lat="44.23200584928598" lon="8.417722253803056"><ele>46.0</ele><time>2026-04-15T16:17:14Z</time></trkpt><trkpt lat="44.232019533333144" lon="8.417831850202745"><ele>46.0</ele><time>2026-04-15T16:17:15Z</time></trkpt><trkpt lat="44.232027930349325" lon="8.417940274424325"><ele>46.0</ele><time>2026-04-15T16:17:16Z</time></trkpt><trkpt lat="44.23202115315708" lon="8.418032384271408"><ele>46.0</ele><time>2026-04-15T16:17:17Z</time></trkpt><trkpt lat="44.231975460997724" lon="8.418099573009714"><ele>46.0</ele><time>2026-04-15T16:17:18Z</time></trkpt><trkpt lat="44.23192970596015" lon="8.418173164348463"><ele>46.0</ele><time>2026-04-15T16:17:19Z</time></trkpt><trkpt lat="44.23186231520596" lon="8.418244633074771"><ele>46.0</ele><time>2026-04-15T16:17:20Z</time></trkpt><trkpt lat="44.231782591422395" lon="8.418300779992837"><ele>45.833333333333336</ele><time>2026-04-15T16:17:21Z</time></trkpt><trkpt lat="44.23171521925617" lon="8.418344963226632"><ele>45.66666666666667</ele><time>2026-04-15T16:17:22Z</time></trkpt><trkpt lat="44.2316010807514" lon="8.418338470910637"><ele>45.5</ele><time>2026-04-15T16:17:24Z</time></trkpt><trkpt lat="44.23152824651926" lon="8.418324127921455"><ele>45.333333333333336</ele><time>2026-04-15T16:17:25Z</time></trkpt><trkpt lat="44.231456295515855" lon="8.418303070777311"><ele>45.166666666666664</ele><time>2026-04-15T16:17:26Z</time></trkpt><trkpt lat="44.23138861464768" lon="8.418255594878433"><ele>45.0</ele><time>2026-04-15T16:17:27Z</time></trkpt><trkpt lat="44.23131871378779" lon="8.418221576519166"><ele>43.833333333333336</ele><time>2026-04-15T16:17:28Z</time></trkpt><trkpt lat="44.231238637842736" lon="8.418194954144942"><ele>42.666666666666664</ele><time>2026-04-15T16:17:29Z</time></trkpt><trkpt lat="44.231149778154446" lon="8.418201062898381"><ele>41.5</ele><time>2026-04-15T16:17:30Z</time></trkpt><trkpt lat="44.23107461847503" lon="8.418156499358282"><ele>40.33333333333333</ele><time>2026-04-15T16:17:31Z</time></trkpt><trkpt lat="44.231006338092314" lon="8.418067996508897"><ele>39.166666666666664</ele><time>2026-04-15T16:17:32Z</time></trkpt><trkpt lat="44.23092838599368" lon="8.418009461364752"><ele>38.0</ele><time>2026-04-15T16:17:33Z</time></trkpt><trkpt lat="44.230842723773925" lon="8.417975644654046"><ele>38.0</ele><time>2026-04-15T16:17:34Z</time></trkpt><trkpt lat="44.230752901014085" lon="8.417975871818275"><ele>38.0</ele><time>2026-04-15T16:17:35Z</time></trkpt><trkpt lat="44.23067847468911" lon="8.417955995482162"><ele>38.0</ele><time>2026-04-15T16:17:36Z</time></trkpt><trkpt lat="44.23061259485782" lon="8.417971666570224"><ele>38.0</ele><time>2026-04-15T16:17:37Z</time></trkpt><trkpt lat="44.23055000938381" lon="8.41802077652069"><ele>38.0</ele><time>2026-04-15T16:17:38Z</time></trkpt><trkpt lat="44.23048844969357" lon="8.418083669510368"><ele>38.0</ele><time>2026-04-15T16:17:39Z</time></trkpt><trkpt lat="44.230440183375926" lon="8.418177126675984"><ele>36.285714285714285</ele><time>2026-04-15T16:17:40Z</time></trkpt><trkpt lat="44.23039768778626" lon="8.41827214752436"><ele>34.57142857142858</ele><time>2026-04-15T16:17:41Z</time></trkpt><trkpt lat="44.230354029702774" lon="8.41836118682202"><ele>32.85714285714286</ele><time>2026-04-15T16:17:42Z</time></trkpt><trkpt lat="44.23031304908715" lon="8.418444828219142"><ele>31.142857142857142</ele><time>2026-04-15T16:17:43Z</time></trkpt><trkpt lat="44.230288038614134" lon="8.418540576811171"><ele>29.42857142857143</ele><time>2026-04-15T16:17:44Z</time></trkpt><trkpt lat="44.23027130376862" lon="8.41862944509572"><ele>27.714285714285715</ele><time>2026-04-15T16:17:45Z</time></trkpt><trkpt lat="44.23028707820639" lon="8.418730742080616"><ele>26.0</ele><time>2026-04-15T16:17:46Z</time></trkpt><trkpt lat="44.230280348435066" lon="8.418822718630205"><ele>26.4</ele><time>2026-04-15T16:17:47Z</time></trkpt><trkpt lat="44.230399287824284" lon="8.418891520727058"><ele>26.8</ele><time>2026-04-15T16:17:48Z</time></trkpt><trkpt lat="44.23048410394642" lon="8.418950561096507"><ele>27.199999999999996</ele><time>2026-04-15T16:17:49Z</time></trkpt><trkpt lat="44.23058729973901" lon="8.418994417738201"><ele>27.599999999999998</ele><time>2026-04-15T16:17:50Z</time></trkpt><trkpt lat="44.230675040956676" lon="8.419058624867443"><ele>28.0</ele><time>2026-04-15T16:17:50.999Z</time></trkpt><trkpt lat="44.230763235365494" lon="8.41910892703342"><ele>28.0</ele><time>2026-04-15T16:17:51.999Z</time></trkpt><trkpt lat="44.23085372757571" lon="8.419160539687331"><ele>27.999999999999996</ele><time>2026-04-15T16:17:52.999Z</time></trkpt><trkpt lat="44.23094161826684" lon="8.419210668528203"><ele>27.999999999999996</ele><time>2026-04-15T16:17:53.999Z</time></trkpt><trkpt lat="44.23102708506039" lon="8.419259414904557"><ele>28.0</ele><time>2026-04-15T16:17:54.999Z</time></trkpt><trkpt lat="44.23111259732394" lon="8.419307660707773"><ele>28.0</ele><time>2026-04-15T16:17:55.999Z</time></trkpt><trkpt lat="44.231197645145095" lon="8.419331024670743"><ele>28.000000000000004</ele><time>2026-04-15T16:17:56.999Z</time></trkpt><trkpt lat="44.2312715910295" lon="8.41937985712988"><ele>28.0</ele><time>2026-04-15T16:17:57.999Z</time></trkpt><trkpt lat="44.23134602053878" lon="8.419418285597636"><ele>28.0</ele><time>2026-04-15T16:17:58.999Z</time></trkpt><trkpt lat="44.23141452951561" lon="8.419453144282821"><ele>28.0</ele><time>2026-04-15T16:17:59.999Z</time></trkpt><trkpt lat="44.23147266147877" lon="8.419513191377462"><ele>28.000000000000004</ele><time>2026-04-15T16:18:00.999Z</time></trkpt><trkpt lat="44.23152860808062" lon="8.419630812334397"><ele>28.0</ele><time>2026-04-15T16:18:02.999Z</time></trkpt><trkpt lat="44.23148737265715" lon="8.419697991936172"><ele>28.000000000000004</ele><time>2026-04-15T16:18:03.999Z</time></trkpt><trkpt lat="44.23138356764799" lon="8.419738444895806"><ele>28.0</ele><time>2026-04-15T16:18:05.999Z</time></trkpt><trkpt lat="44.23131953258006" lon="8.419724789718542"><ele>28.0</ele><time>2026-04-15T16:18:06.999Z</time></trkpt><trkpt lat="44.231255988562566" lon="8.419686846851079"><ele>28.0</ele><time>2026-04-15T16:18:07.999Z</time></trkpt><trkpt lat="44.23117657615731" lon="8.419672186595108"><ele>28.000000000000004</ele><time>2026-04-15T16:18:08.999Z</time></trkpt><trkpt lat="44.23110654777879" lon="8.419619239231073"><ele>28.0</ele><time>2026-04-15T16:18:09.999Z</time></trkpt><trkpt lat="44.2310321382071" lon="8.419561014012164"><ele>28.000000000000004</ele><time>2026-04-15T16:18:10.999Z</time></trkpt><trkpt lat="44.230958183252966" lon="8.419503098793282"><ele>28.0</ele><time>2026-04-15T16:18:11.999Z</time></trkpt><trkpt lat="44.23088469366835" lon="8.419452385216406"><ele>28.0</ele><time>2026-04-15T16:18:12.999Z</time></trkpt><trkpt lat="44.23081445469475" lon="8.419425589821753"><ele>28.0</ele><time>2026-04-15T16:18:13.999Z</time></trkpt><trkpt lat="44.23073953850461" lon="8.419382712737752"><ele>28.000000000000004</ele><time>2026-04-15T16:18:14.999Z</time></trkpt><trkpt lat="44.23065361740337" lon="8.419407497138094"><ele>28.0</ele><time>2026-04-15T16:18:15.999Z</time></trkpt><trkpt lat="44.2305865879539" lon="8.419516970753778"><ele>26.833333333333336</ele><time>2026-04-15T16:18:16.999Z</time></trkpt><trkpt lat="44.230522895572186" lon="8.419582697689577"><ele>25.666666666666668</ele><time>2026-04-15T16:18:17.999Z</time></trkpt><trkpt lat="44.23044705325333" lon="8.4196103977684"><ele>24.5</ele><time>2026-04-15T16:18:18.999Z</time></trkpt><trkpt lat="44.23037853768955" lon="8.419543914129926"><ele>23.333333333333336</ele><time>2026-04-15T16:18:19.999Z</time></trkpt><trkpt lat="44.2302946897344" lon="8.419528439252634"><ele>22.166666666666668</ele><time>2026-04-15T16:18:20.999Z</time></trkpt><trkpt lat="44.23022392313687" lon="8.419520587158884"><ele>21.0</ele><time>2026-04-15T16:18:21.999Z</time></trkpt><trkpt lat="44.2301558370729" lon="8.419537498904983"><ele>21.0</ele><time>2026-04-15T16:18:22.999Z</time></trkpt><trkpt lat="44.230082092674614" lon="8.419575348875055"><ele>21.0</ele><time>2026-04-15T16:18:24.999Z</time></trkpt><trkpt lat="44.23002078919796" lon="8.419612668641781"><ele>21.0</ele><time>2026-04-15T16:18:27Z</time></trkpt><trkpt lat="44.229939071503736" lon="8.41969958621334"><ele>21.0</ele><time>2026-04-15T16:18:29Z</time></trkpt><trkpt lat="44.229854128539635" lon="8.419834510235152"><ele>21.0</ele><time>2026-04-15T16:18:31Z</time></trkpt><trkpt lat="44.22981882420705" lon="8.419922852974427"><ele>21.0</ele><time>2026-04-15T16:18:32Z</time></trkpt><trkpt lat="44.229800446075345" lon="8.42001930034499"><ele>19.666666666666668</ele><time>2026-04-15T16:18:33Z</time></trkpt><trkpt lat="44.22978140636492" lon="8.420124056111257"><ele>18.333333333333332</ele><time>2026-04-15T16:18:34Z</time></trkpt><trkpt lat="44.2297343774753" lon="8.420209270135372"><ele>17.0</ele><time>2026-04-15T16:18:35Z</time></trkpt><trkpt lat="44.22968886348144" lon="8.420303761690725"><ele>15.666666666666666</ele><time>2026-04-15T16:18:36Z</time></trkpt><trkpt lat="44.2296397317611" lon="8.420402693848201"><ele>14.333333333333332</ele><time>2026-04-15T16:18:37Z</time></trkpt><trkpt lat="44.22958703752118" lon="8.420506712842858"><ele>13.0</ele><time>2026-04-15T16:18:38Z</time></trkpt><trkpt lat="44.22953550754292" lon="8.42059490591229"><ele>12.499999999999998</ele><time>2026-04-15T16:18:39Z</time></trkpt><trkpt lat="44.229478373940594" lon="8.420666573554453"><ele>12.0</ele><time>2026-04-15T16:18:40Z</time></trkpt><trkpt lat="44.22942736238346" lon="8.420730145229664"><ele>11.5</ele><time>2026-04-15T16:18:41Z</time></trkpt><trkpt lat="44.22935779104603" lon="8.420808020249455"><ele>11.0</ele><time>2026-04-15T16:18:43Z</time></trkpt><trkpt lat="44.22929756598185" lon="8.420775286512"><ele>10.5</ele><time>2026-04-15T16:18:47Z</time></trkpt><trkpt lat="44.22926757649502" lon="8.42064864542519"><ele>10.0</ele><time>2026-04-15T16:18:49Z</time></trkpt><trkpt lat="44.22922231863437" lon="8.420533848158133"><ele>10.0</ele><time>2026-04-15T16:18:51Z</time></trkpt><trkpt lat="44.22913550115011" lon="8.420537317655874"><ele>10.0</ele><time>2026-04-15T16:18:52Z</time></trkpt><trkpt lat="44.229064110531255" lon="8.420476587691692"><ele>10.0</ele><time>2026-04-15T16:18:54Z</time></trkpt><trkpt lat="44.22913184495677" lon="8.420301315627222"><ele>10.0</ele><time>2026-04-15T16:18:56Z</time></trkpt><trkpt lat="44.228979517320106" lon="8.420332494132024"><ele>9.4</ele><time>2026-04-15T16:18:57Z</time></trkpt><trkpt lat="44.22893504640685" lon="8.42018336546364"><ele>8.8</ele><time>2026-04-15T16:18:59Z</time></trkpt><trkpt lat="44.22889163090406" lon="8.420032157124085"><ele>8.2</ele><time>2026-04-15T16:19:01Z</time></trkpt><trkpt lat="44.22883167683642" lon="8.419937308405352"><ele>7.6</ele><time>2026-04-15T16:19:03Z</time></trkpt><trkpt lat="44.228765623676885" lon="8.419929279227642"><ele>7.0</ele><time>2026-04-15T16:19:05Z</time></trkpt><trkpt lat="44.22869675737354" lon="8.419973523596873"><ele>7.0</ele><time>2026-04-15T16:19:08Z</time></trkpt><trkpt lat="44.2286410740977" lon="8.419892600957244"><ele>6.999999999999999</ele><time>2026-04-15T16:19:10Z</time></trkpt><trkpt lat="44.228594173191276" lon="8.419744543535685"><ele>6.999999999999999</ele><time>2026-04-15T16:19:12Z</time></trkpt><trkpt lat="44.22853005786431" lon="8.419591526508388"><ele>7.0</ele><time>2026-04-15T16:19:14Z</time></trkpt><trkpt lat="44.228497643421456" lon="8.419510483293731"><ele>7.0</ele><time>2026-04-15T16:19:15Z</time></trkpt><trkpt lat="44.22847000710833" lon="8.4194116520479"><ele>7.5</ele><time>2026-04-15T16:19:16Z</time></trkpt><trkpt lat="44.228447094342705" lon="8.419304833110099"><ele>8.0</ele><time>2026-04-15T16:19:17Z</time></trkpt><trkpt lat="44.22842247630519" lon="8.419183516099196"><ele>8.5</ele><time>2026-04-15T16:19:18Z</time></trkpt><trkpt lat="44.228503644562586" lon="8.419005024875993"><ele>9.0</ele><time>2026-04-15T16:19:19Z</time></trkpt><trkpt lat="44.22836165451423" lon="8.418915992449039"><ele>9.25</ele><time>2026-04-15T16:19:20Z</time></trkpt><trkpt lat="44.22832725271791" lon="8.418768917683513"><ele>9.5</ele><time>2026-04-15T16:19:21Z</time></trkpt><trkpt lat="44.22828407314838" lon="8.418615439834436"><ele>9.75</ele><time>2026-04-15T16:19:22Z</time></trkpt><trkpt lat="44.22822932797918" lon="8.418456126039155"><ele>10.0</ele><time>2026-04-15T16:19:23Z</time></trkpt><trkpt lat="44.22832034673231" lon="8.418159624879724"><ele>10.0</ele><time>2026-04-15T16:19:24Z</time></trkpt><trkpt lat="44.228249262364606" lon="8.417999145507705"><ele>10.0</ele><time>2026-04-15T16:19:25Z</time></trkpt><trkpt lat="44.22817325431291" lon="8.417838960524817"><ele>10.0</ele><time>2026-04-15T16:19:26Z</time></trkpt><trkpt lat="44.22808281277493" lon="8.417674528332432"><ele>10.0</ele><time>2026-04-15T16:19:27Z</time></trkpt><trkpt lat="44.227984618477755" lon="8.417533316436097"><ele>9.5</ele><time>2026-04-15T16:19:28Z</time></trkpt><trkpt lat="44.227875486047026" lon="8.417402828103143"><ele>9.0</ele><time>2026-04-15T16:19:29Z</time></trkpt><trkpt lat="44.227774733533444" lon="8.417279530818082"><ele>8.5</ele><time>2026-04-15T16:19:30Z</time></trkpt><trkpt lat="44.22767519497991" lon="8.417155808949708"><ele>8.0</ele><time>2026-04-15T16:19:31Z</time></trkpt><trkpt lat="44.22757351712925" lon="8.417028670267396"><ele>8.0</ele><time>2026-04-15T16:19:32Z</time></trkpt><trkpt lat="44.2274889686645" lon="8.416911095110914"><ele>8.0</ele><time>2026-04-15T16:19:33Z</time></trkpt><trkpt lat="44.22741320710956" lon="8.416782967782398"><ele>8.0</ele><time>2026-04-15T16:19:34Z</time></trkpt><trkpt lat="44.227201854814744" lon="8.416792730527263"><ele>7.5</ele><time>2026-04-15T16:19:35Z</time></trkpt><trkpt lat="44.22710033782676" lon="8.416677603456954"><ele>7.0</ele><time>2026-04-15T16:19:36Z</time></trkpt><trkpt lat="44.22699454524554" lon="8.416561366189084"><ele>6.5</ele><time>2026-04-15T16:19:37Z</time></trkpt><trkpt lat="44.226882998188984" lon="8.4164450608784"><ele>6.0</ele><time>2026-04-15T16:19:38Z</time></trkpt><trkpt lat="44.22676705406966" lon="8.416330383753735"><ele>6.0</ele><time>2026-04-15T16:19:39Z</time></trkpt><trkpt lat="44.22664679842934" lon="8.416216791365736"><ele>6.0</ele><time>2026-04-15T16:19:40Z</time></trkpt><trkpt lat="44.22652314083101" lon="8.416106018255558"><ele>6.0</ele><time>2026-04-15T16:19:41Z</time></trkpt><trkpt lat="44.22639746018212" lon="8.415997087934704"><ele>6.0</ele><time>2026-04-15T16:19:42Z</time></trkpt><trkpt lat="44.226274428707924" lon="8.415890264604348"><ele>6.0</ele><time>2026-04-15T16:19:43Z</time></trkpt><trkpt lat="44.22615190627446" lon="8.415782593602128"><ele>6.0</ele><time>2026-04-15T16:19:44Z</time></trkpt><trkpt lat="44.22602369129223" lon="8.415675430980484"><ele>6.0</ele><time>2026-04-15T16:19:45Z</time></trkpt><trkpt lat="44.2258934510348" lon="8.415564914633697"><ele>6.0</ele><time>2026-04-15T16:19:46Z</time></trkpt><trkpt lat="44.2257705843699" lon="8.415458358699848"><ele>5.75</ele><time>2026-04-15T16:19:47Z</time></trkpt><trkpt lat="44.225648319075255" lon="8.415354651880843"><ele>5.5</ele><time>2026-04-15T16:19:48Z</time></trkpt><trkpt lat="44.22552635770777" lon="8.415249120614375"><ele>5.25</ele><time>2026-04-15T16:19:49Z</time></trkpt><trkpt lat="44.225400049334674" lon="8.415142393042292"><ele>5.0</ele><time>2026-04-15T16:19:50Z</time></trkpt><trkpt lat="44.225273457781476" lon="8.415041201555683"><ele>5.0</ele><time>2026-04-15T16:19:51Z</time></trkpt><trkpt lat="44.225143309739444" lon="8.414940462231256"><ele>5.0</ele><time>2026-04-15T16:19:52Z</time></trkpt><trkpt lat="44.225006723258616" lon="8.414847136659047"><ele>5.0</ele><time>2026-04-15T16:19:53Z</time></trkpt><trkpt lat="44.22487131555754" lon="8.414761889449743"><ele>5.0</ele><time>2026-04-15T16:19:54Z</time></trkpt><trkpt lat="44.22472930048968" lon="8.414683645725068"><ele>4.75</ele><time>2026-04-15T16:19:55Z</time></trkpt><trkpt lat="44.22458501593379" lon="8.414613303857525"><ele>4.5</ele><time>2026-04-15T16:19:56Z</time></trkpt><trkpt lat="44.224445584369235" lon="8.414553717209383"><ele>4.25</ele><time>2026-04-15T16:19:57Z</time></trkpt><trkpt lat="44.224301334228166" lon="8.414500272551715"><ele>4.0</ele><time>2026-04-15T16:19:58Z</time></trkpt><trkpt lat="44.22415111130994" lon="8.41445146993662"><ele>4.0</ele><time>2026-04-15T16:19:59Z</time></trkpt><trkpt lat="44.224005311069924" lon="8.41441034565249"><ele>4.0</ele><time>2026-04-15T16:20:00Z</time></trkpt><trkpt lat="44.22386101840526" lon="8.414374452887346"><ele>4.0</ele><time>2026-04-15T16:20:01Z</time></trkpt><trkpt lat="44.22371057152042" lon="8.414342218107233"><ele>4.0</ele><time>2026-04-15T16:20:02Z</time></trkpt><trkpt lat="44.2235605714499" lon="8.414315854266299"><ele>4.0</ele><time>2026-04-15T16:20:03Z</time></trkpt><trkpt lat="44.223415960202395" lon="8.414293396045233"><ele>4.0</ele><time>2026-04-15T16:20:04Z</time></trkpt><trkpt lat="44.2232697726813" lon="8.41427974270501"><ele>4.0</ele><time>2026-04-15T16:20:05Z</time></trkpt><trkpt lat="44.223120561647846" lon="8.414272097784428"><ele>4.0</ele><time>2026-04-15T16:20:05.999Z</time></trkpt><trkpt lat="44.2229662640676" lon="8.41427129549959"><ele>4.0</ele><time>2026-04-15T16:20:06.999Z</time></trkpt><trkpt lat="44.22281652887439" lon="8.414276873693622"><ele>4.0</ele><time>2026-04-15T16:20:07.999Z</time></trkpt><trkpt lat="44.22266397671094" lon="8.41428302863263"><ele>4.0</ele><time>2026-04-15T16:20:08.999Z</time></trkpt><trkpt lat="44.22251281495192" lon="8.41429402413497"><ele>4.0</ele><time>2026-04-15T16:20:09.999Z</time></trkpt><trkpt lat="44.22236801604193" lon="8.414309213731425"><ele>4.0</ele><time>2026-04-15T16:20:10.999Z</time></trkpt><trkpt lat="44.222219532973774" lon="8.414323046322737"><ele>4.0</ele><time>2026-04-15T16:20:11.999Z</time></trkpt><trkpt lat="44.22206880600442" lon="8.414333601123271"><ele>4.0</ele><time>2026-04-15T16:20:12.999Z</time></trkpt><trkpt lat="44.22191054705163" lon="8.414344080683255"><ele>4.0</ele><time>2026-04-15T16:20:13.999Z</time></trkpt><trkpt lat="44.22176365728975" lon="8.414356144040624"><ele>4.0</ele><time>2026-04-15T16:20:14.999Z</time></trkpt><trkpt lat="44.22161620519716" lon="8.414370685935681"><ele>4.0</ele><time>2026-04-15T16:20:15.999Z</time></trkpt><trkpt lat="44.22147121115554" lon="8.41438761513328"><ele>4.0</ele><time>2026-04-15T16:20:16.999Z</time></trkpt><trkpt lat="44.221328907492854" lon="8.414403907624315"><ele>4.25</ele><time>2026-04-15T16:20:17.999Z</time></trkpt><trkpt lat="44.22118515703439" lon="8.41442040509893"><ele>4.5</ele><time>2026-04-15T16:20:18.999Z</time></trkpt><trkpt lat="44.221046273049616" lon="8.414438899729744"><ele>4.75</ele><time>2026-04-15T16:20:19.999Z</time></trkpt><trkpt lat="44.22090846753231" lon="8.414450861580121"><ele>5.0</ele><time>2026-04-15T16:20:20.999Z</time></trkpt><trkpt lat="44.22078008316571" lon="8.414462914298086"><ele>5.0</ele><time>2026-04-15T16:20:21.999Z</time></trkpt><trkpt lat="44.22066157688315" lon="8.414477760364147"><ele>5.0</ele><time>2026-04-15T16:20:22.999Z</time></trkpt><trkpt lat="44.220548289779785" lon="8.41449129182497"><ele>5.0</ele><time>2026-04-15T16:20:23.999Z</time></trkpt><trkpt lat="44.22043043502736" lon="8.414479961006974"><ele>5.0</ele><time>2026-04-15T16:20:24.999Z</time></trkpt><trkpt lat="44.220323755824616" lon="8.414491778803457"><ele>6.166666666666667</ele><time>2026-04-15T16:20:25.999Z</time></trkpt><trkpt lat="44.22022353209138" lon="8.414532254044525"><ele>7.333333333333334</ele><time>2026-04-15T16:20:26.999Z</time></trkpt><trkpt lat="44.22013397589603" lon="8.41453528050488"><ele>8.5</ele><time>2026-04-15T16:20:27.999Z</time></trkpt><trkpt lat="44.22005144391442" lon="8.414530696019092"><ele>9.666666666666666</ele><time>2026-04-15T16:20:28.999Z</time></trkpt><trkpt lat="44.219971737960414" lon="8.414518020964389"><ele>10.833333333333334</ele><time>2026-04-15T16:20:29.999Z</time></trkpt><trkpt lat="44.21989548750746" lon="8.414509803999564"><ele>12.0</ele><time>2026-04-15T16:20:30.999Z</time></trkpt><trkpt lat="44.21981655473819" lon="8.414517039410693"><ele>12.333333333333334</ele><time>2026-04-15T16:20:32Z</time></trkpt><trkpt lat="44.219745802878265" lon="8.414561618558986"><ele>12.666666666666668</ele><time>2026-04-15T16:20:33Z</time></trkpt><trkpt lat="44.2196859793289" lon="8.414636891035645"><ele>13.0</ele><time>2026-04-15T16:20:34Z</time></trkpt><trkpt lat="44.21963613508806" lon="8.414721130875877"><ele>13.333333333333334</ele><time>2026-04-15T16:20:35Z</time></trkpt><trkpt lat="44.219561463777175" lon="8.414782997935404"><ele>13.666666666666668</ele><time>2026-04-15T16:20:36Z</time></trkpt><trkpt lat="44.21946718300316" lon="8.414794573417979"><ele>14.0</ele><time>2026-04-15T16:20:37Z</time></trkpt><trkpt lat="44.21935791257534" lon="8.414756864653489"><ele>11.5</ele><time>2026-04-15T16:20:38Z</time></trkpt><trkpt lat="44.219243283514544" lon="8.414733931145776"><ele>9.0</ele><time>2026-04-15T16:20:39Z</time></trkpt><trkpt lat="44.21912768499883" lon="8.414710162047983"><ele>6.5</ele><time>2026-04-15T16:20:40Z</time></trkpt><trkpt lat="44.21899969950911" lon="8.414699191338462"><ele>4.0</ele><time>2026-04-15T16:20:41Z</time></trkpt><trkpt lat="44.218877964222386" lon="8.41472366759354"><ele>3.75</ele><time>2026-04-15T16:20:42Z</time></trkpt><trkpt lat="44.21875690820016" lon="8.414734255389638"><ele>3.5</ele><time>2026-04-15T16:20:43Z</time></trkpt><trkpt lat="44.21863238580871" lon="8.414753562902787"><ele>3.25</ele><time>2026-04-15T16:20:44Z</time></trkpt><trkpt lat="44.21850230901682" lon="8.414772579057974"><ele>3.0</ele><time>2026-04-15T16:20:45Z</time></trkpt><trkpt lat="44.218372114420276" lon="8.414789404845568"><ele>3.0</ele><time>2026-04-15T16:20:46Z</time></trkpt><trkpt lat="44.218236585282305" lon="8.414807367387098"><ele>3.0</ele><time>2026-04-15T16:20:47Z</time></trkpt><trkpt lat="44.21810071825422" lon="8.414824083170465"><ele>3.0</ele><time>2026-04-15T16:20:48Z</time></trkpt><trkpt lat="44.21795879517259" lon="8.414839697719072"><ele>3.0</ele><time>2026-04-15T16:20:49Z</time></trkpt><trkpt lat="44.21781950056759" lon="8.414854086949603"><ele>3.75</ele><time>2026-04-15T16:20:50Z</time></trkpt><trkpt lat="44.217674079072566" lon="8.414876563101636"><ele>4.5</ele><time>2026-04-15T16:20:51Z</time></trkpt><trkpt lat="44.217529365392714" lon="8.41490254936838"><ele>5.25</ele><time>2026-04-15T16:20:52Z</time></trkpt><trkpt lat="44.217389680537266" lon="8.414933933560123"><ele>6.0</ele><time>2026-04-15T16:20:53Z</time></trkpt><trkpt lat="44.217247060706846" lon="8.41496891076212"><ele>8.0</ele><time>2026-04-15T16:20:54Z</time></trkpt><trkpt lat="44.21711003180553" lon="8.415004615037093"><ele>10.0</ele><time>2026-04-15T16:20:55Z</time></trkpt><trkpt lat="44.21697145737841" lon="8.415039524776786"><ele>12.0</ele><time>2026-04-15T16:20:56Z</time></trkpt><trkpt lat="44.21683186828144" lon="8.415075567618699"><ele>14.0</ele><time>2026-04-15T16:20:57Z</time></trkpt><trkpt lat="44.21669174960574" lon="8.415112741324316"><ele>14.0</ele><time>2026-04-15T16:20:58Z</time></trkpt><trkpt lat="44.21655229211009" lon="8.41515229179915"><ele>14.0</ele><time>2026-04-15T16:20:59Z</time></trkpt><trkpt lat="44.21641308680492" lon="8.415195650172853"><ele>14.0</ele><time>2026-04-15T16:21:00Z</time></trkpt><trkpt lat="44.216276117771365" lon="8.415243038452559"><ele>14.0</ele><time>2026-04-15T16:21:01Z</time></trkpt><trkpt lat="44.216136177678074" lon="8.415298756286685"><ele>15.25</ele><time>2026-04-15T16:21:02Z</time></trkpt><trkpt lat="44.21600138830516" lon="8.41536324661257"><ele>16.5</ele><time>2026-04-15T16:21:03Z</time></trkpt><trkpt lat="44.21587348488499" lon="8.41543400350902"><ele>17.75</ele><time>2026-04-15T16:21:04Z</time></trkpt><trkpt lat="44.215742597639604" lon="8.415515600263001"><ele>19.0</ele><time>2026-04-15T16:21:05Z</time></trkpt><trkpt lat="44.21561422646853" lon="8.41560116971455"><ele>19.0</ele><time>2026-04-15T16:21:06Z</time></trkpt><trkpt lat="44.21548550502994" lon="8.41569047600748"><ele>19.0</ele><time>2026-04-15T16:21:07Z</time></trkpt><trkpt lat="44.215357769918825" lon="8.415785507380354"><ele>19.0</ele><time>2026-04-15T16:21:08Z</time></trkpt><trkpt lat="44.21523365785732" lon="8.415886203020149"><ele>19.0</ele><time>2026-04-15T16:21:09Z</time></trkpt><trkpt lat="44.215112089079085" lon="8.415985676002355"><ele>19.0</ele><time>2026-04-15T16:21:10Z</time></trkpt><trkpt lat="44.214990031632205" lon="8.416083989300263"><ele>19.0</ele><time>2026-04-15T16:21:11Z</time></trkpt><trkpt lat="44.2148662220074" lon="8.41617388218078"><ele>19.0</ele><time>2026-04-15T16:21:12Z</time></trkpt><trkpt lat="44.21473897927803" lon="8.416259565425035"><ele>19.0</ele><time>2026-04-15T16:21:13Z</time></trkpt><trkpt lat="44.214611742064314" lon="8.416325258331149"><ele>17.0</ele><time>2026-04-15T16:21:14Z</time></trkpt><trkpt lat="44.21447898603074" lon="8.416376304397065"><ele>15.0</ele><time>2026-04-15T16:21:15Z</time></trkpt><trkpt lat="44.21434115501686" lon="8.416415363307811"><ele>13.0</ele><time>2026-04-15T16:21:16Z</time></trkpt><trkpt lat="44.214198290925104" lon="8.416446670505366"><ele>11.0</ele><time>2026-04-15T16:21:17Z</time></trkpt><trkpt lat="44.21405505312787" lon="8.416472173491137"><ele>12.0</ele><time>2026-04-15T16:21:18Z</time></trkpt><trkpt lat="44.213908517193374" lon="8.416496172292723"><ele>13.0</ele><time>2026-04-15T16:21:19Z</time></trkpt><trkpt lat="44.213762520315484" lon="8.416520940295383"><ele>14.0</ele><time>2026-04-15T16:21:20Z</time></trkpt><trkpt lat="44.213612579237335" lon="8.416547811947789"><ele>15.0</ele><time>2026-04-15T16:21:21Z</time></trkpt><trkpt lat="44.21346931669365" lon="8.416575483272341"><ele>15.0</ele><time>2026-04-15T16:21:22Z</time></trkpt><trkpt lat="44.213326131460846" lon="8.416602411073372"><ele>15.0</ele><time>2026-04-15T16:21:23Z</time></trkpt><trkpt lat="44.21318215246569" lon="8.41662861574561"><ele>15.0</ele><time>2026-04-15T16:21:24Z</time></trkpt><trkpt lat="44.213040776358696" lon="8.416648390258214"><ele>15.0</ele><time>2026-04-15T16:21:25Z</time></trkpt><trkpt lat="44.21289635308333" lon="8.416669527267343"><ele>15.0</ele><time>2026-04-15T16:21:26Z</time></trkpt><trkpt lat="44.212751966720106" lon="8.416696417864266"><ele>15.0</ele><time>2026-04-15T16:21:27Z</time></trkpt><trkpt lat="44.212612557002046" lon="8.416736223773182"><ele>15.0</ele><time>2026-04-15T16:21:28Z</time></trkpt><trkpt lat="44.21247397044396" lon="8.416803529099893"><ele>15.0</ele><time>2026-04-15T16:21:29Z</time></trkpt><trkpt lat="44.21234350867118" lon="8.416899449613306"><ele>15.75</ele><time>2026-04-15T16:21:30Z</time></trkpt><trkpt lat="44.21222416755526" lon="8.417021573492027"><ele>16.5</ele><time>2026-04-15T16:21:31Z</time></trkpt><trkpt lat="44.21211426269011" lon="8.41715800700862"><ele>17.25</ele><time>2026-04-15T16:21:32Z</time></trkpt><trkpt lat="44.212001322596734" lon="8.417294449011413"><ele>18.0</ele><time>2026-04-15T16:21:33Z</time></trkpt><trkpt lat="44.21189032047356" lon="8.417422159173675"><ele>18.0</ele><time>2026-04-15T16:21:34Z</time></trkpt><trkpt lat="44.21178073338694" lon="8.41754498744527"><ele>18.0</ele><time>2026-04-15T16:21:35Z</time></trkpt><trkpt lat="44.2116719339115" lon="8.417662847399509"><ele>18.0</ele><time>2026-04-15T16:21:36Z</time></trkpt><trkpt lat="44.211561320187066" lon="8.41777869780507"><ele>18.0</ele><time>2026-04-15T16:21:37Z</time></trkpt><trkpt lat="44.21145278521987" lon="8.417877925513766"><ele>20.0</ele><time>2026-04-15T16:21:38Z</time></trkpt><trkpt lat="44.21133399273861" lon="8.417954057764756"><ele>22.0</ele><time>2026-04-15T16:21:39Z</time></trkpt><trkpt lat="44.21120649416178" lon="8.417999220040077"><ele>24.0</ele><time>2026-04-15T16:21:40Z</time></trkpt><trkpt lat="44.21106971485445" lon="8.418015820818033"><ele>26.0</ele><time>2026-04-15T16:21:41Z</time></trkpt><trkpt lat="44.21094116204972" lon="8.417973643938174"><ele>26.0</ele><time>2026-04-15T16:21:42Z</time></trkpt><trkpt lat="44.210821595302825" lon="8.417927924386222"><ele>26.0</ele><time>2026-04-15T16:21:43Z</time></trkpt><trkpt lat="44.210699526540516" lon="8.417894229993687"><ele>26.0</ele><time>2026-04-15T16:21:44Z</time></trkpt><trkpt lat="44.210581123803394" lon="8.417838292432956"><ele>26.0</ele><time>2026-04-15T16:21:45Z</time></trkpt><trkpt lat="44.21046244962932" lon="8.417782175250593"><ele>23.25</ele><time>2026-04-15T16:21:46Z</time></trkpt><trkpt lat="44.21034321842749" lon="8.417733170949928"><ele>20.5</ele><time>2026-04-15T16:21:47Z</time></trkpt><trkpt lat="44.21022415756131" lon="8.417675782272909"><ele>17.75</ele><time>2026-04-15T16:21:48Z</time></trkpt><trkpt lat="44.21010166662018" lon="8.417617709081886"><ele>15.0</ele><time>2026-04-15T16:21:49Z</time></trkpt><trkpt lat="44.20997995337103" lon="8.417570035557759"><ele>15.0</ele><time>2026-04-15T16:21:50Z</time></trkpt><trkpt lat="44.20985349436944" lon="8.417536139855518"><ele>15.0</ele><time>2026-04-15T16:21:51Z</time></trkpt><trkpt lat="44.20972582000616" lon="8.417519692842566"><ele>15.0</ele><time>2026-04-15T16:21:52Z</time></trkpt><trkpt lat="44.20959152192279" lon="8.417513353790344"><ele>15.0</ele><time>2026-04-15T16:21:53Z</time></trkpt><trkpt lat="44.209456441402345" lon="8.417509196226744"><ele>14.75</ele><time>2026-04-15T16:21:54Z</time></trkpt><trkpt lat="44.20931969927347" lon="8.417502464563485"><ele>14.5</ele><time>2026-04-15T16:21:55Z</time></trkpt><trkpt lat="44.209185890343605" lon="8.417494796964522"><ele>14.25</ele><time>2026-04-15T16:21:56Z</time></trkpt><trkpt lat="44.20904948376959" lon="8.417486460453475"><ele>14.0</ele><time>2026-04-15T16:21:57Z</time></trkpt><trkpt lat="44.20891025216518" lon="8.417482221364113"><ele>16.0</ele><time>2026-04-15T16:21:58Z</time></trkpt><trkpt lat="44.208772275764346" lon="8.417474702707446"><ele>18.0</ele><time>2026-04-15T16:21:59Z</time></trkpt><trkpt lat="44.20863297956933" lon="8.417467269348812"><ele>20.0</ele><time>2026-04-15T16:22:00Z</time></trkpt><trkpt lat="44.20850258028298" lon="8.417468423760246"><ele>22.0</ele><time>2026-04-15T16:22:01Z</time></trkpt><trkpt lat="44.20837238087925" lon="8.417472095414212"><ele>22.0</ele><time>2026-04-15T16:22:02Z</time></trkpt><trkpt lat="44.208243319340525" lon="8.417473195175852"><ele>22.0</ele><time>2026-04-15T16:22:03Z</time></trkpt><trkpt lat="44.20811285640129" lon="8.41751457671978"><ele>22.0</ele><time>2026-04-15T16:22:04Z</time></trkpt><trkpt lat="44.20798569507664" lon="8.417538119766386"><ele>22.0</ele><time>2026-04-15T16:22:05Z</time></trkpt><trkpt lat="44.207853991816165" lon="8.417562598080092"><ele>21.0</ele><time>2026-04-15T16:22:06Z</time></trkpt><trkpt lat="44.207725119144605" lon="8.41755659098637"><ele>20.0</ele><time>2026-04-15T16:22:07Z</time></trkpt><trkpt lat="44.20759957991848" lon="8.417524875010164"><ele>19.0</ele><time>2026-04-15T16:22:08Z</time></trkpt><trkpt lat="44.20747830624141" lon="8.417482574576038"><ele>18.0</ele><time>2026-04-15T16:22:09Z</time></trkpt><trkpt lat="44.207365217824396" lon="8.417403777713089"><ele>17.0</ele><time>2026-04-15T16:22:10Z</time></trkpt><trkpt lat="44.20726490843318" lon="8.417349287311193"><ele>16.0</ele><time>2026-04-15T16:22:11Z</time></trkpt><trkpt lat="44.20717151628089" lon="8.417292843527486"><ele>15.0</ele><time>2026-04-15T16:22:12Z</time></trkpt><trkpt lat="44.20709071102305" lon="8.41722454778068"><ele>14.0</ele><time>2026-04-15T16:22:13Z</time></trkpt><trkpt lat="44.207017774644505" lon="8.417175908904046"><ele>13.0</ele><time>2026-04-15T16:22:14Z</time></trkpt><trkpt lat="44.20694660035573" lon="8.41708306886944"><ele>12.999999999999998</ele><time>2026-04-15T16:22:16Z</time></trkpt><trkpt lat="44.206966438101446" lon="8.41696607106687"><ele>13.0</ele><time>2026-04-15T16:22:19Z</time></trkpt><trkpt lat="44.206987407678625" lon="8.416813997181697"><ele>13.0</ele><time>2026-04-15T16:22:20.999Z</time></trkpt><trkpt lat="44.206973254682865" lon="8.416708291318292"><ele>13.0</ele><time>2026-04-15T16:22:21.999Z</time></trkpt><trkpt lat="44.206953600518226" lon="8.416594850151995"><ele>12.999999999999998</ele><time>2026-04-15T16:22:22.999Z</time></trkpt><trkpt lat="44.2069322424925" lon="8.416483106550034"><ele>13.0</ele><time>2026-04-15T16:22:23.999Z</time></trkpt><trkpt lat="44.20692844522674" lon="8.416355831383328"><ele>13.499999999999998</ele><time>2026-04-15T16:22:24.999Z</time></trkpt><trkpt lat="44.20687465402279" lon="8.416238015739893"><ele>14.0</ele><time>2026-04-15T16:22:25.999Z</time></trkpt><trkpt lat="44.20684052635089" lon="8.41612970595813"><ele>14.5</ele><time>2026-04-15T16:22:26.999Z</time></trkpt><trkpt lat="44.206811495270635" lon="8.416019401286709"><ele>15.0</ele><time>2026-04-15T16:22:27.999Z</time></trkpt><trkpt lat="44.20680335979802" lon="8.415905283781996"><ele>15.499999999999998</ele><time>2026-04-15T16:22:28.999Z</time></trkpt><trkpt lat="44.206804513333076" lon="8.415782660807132"><ele>16.0</ele><time>2026-04-15T16:22:29.999Z</time></trkpt><trkpt lat="44.20680979674803" lon="8.415662242681906"><ele>16.0</ele><time>2026-04-15T16:22:30.999Z</time></trkpt><trkpt lat="44.20680735337946" lon="8.415535811615658"><ele>16.0</ele><time>2026-04-15T16:22:31.999Z</time></trkpt><trkpt lat="44.206806064714655" lon="8.415409688633027"><ele>16.0</ele><time>2026-04-15T16:22:32.999Z</time></trkpt><trkpt lat="44.206806486919554" lon="8.415285274429797"><ele>16.0</ele><time>2026-04-15T16:22:33.999Z</time></trkpt><trkpt lat="44.20683936585865" lon="8.41515539118646"><ele>16.0</ele><time>2026-04-15T16:22:34.999Z</time></trkpt><trkpt lat="44.20684520155639" lon="8.415023848624942"><ele>16.2</ele><time>2026-04-15T16:22:35.999Z</time></trkpt><trkpt lat="44.206865678354596" lon="8.414898359388177"><ele>16.400000000000002</ele><time>2026-04-15T16:22:36.999Z</time></trkpt><trkpt lat="44.206881340059155" lon="8.414770024342895"><ele>16.6</ele><time>2026-04-15T16:22:38Z</time></trkpt><trkpt lat="44.20689807454855" lon="8.41464179017883"><ele>16.8</ele><time>2026-04-15T16:22:39Z</time></trkpt><trkpt lat="44.20692100142979" lon="8.414520226871133"><ele>17.0</ele><time>2026-04-15T16:22:40Z</time></trkpt><trkpt lat="44.206957547320435" lon="8.414399186396821"><ele>17.5</ele><time>2026-04-15T16:22:41Z</time></trkpt><trkpt lat="44.20701015877155" lon="8.414298852821343"><ele>18.0</ele><time>2026-04-15T16:22:42Z</time></trkpt><trkpt lat="44.20707329968458" lon="8.414206927910714"><ele>18.5</ele><time>2026-04-15T16:22:43Z</time></trkpt><trkpt lat="44.20711483967062" lon="8.414127588725798"><ele>19.0</ele><time>2026-04-15T16:22:44Z</time></trkpt><trkpt lat="44.20713018532957" lon="8.41402827284894"><ele>19.5</ele><time>2026-04-15T16:22:45Z</time></trkpt><trkpt lat="44.20711609093994" lon="8.413924799943983"><ele>20.0</ele><time>2026-04-15T16:22:46Z</time></trkpt><trkpt lat="44.20707907118763" lon="8.413822465444312"><ele>21.4</ele><time>2026-04-15T16:22:47Z</time></trkpt><trkpt lat="44.207051815650914" lon="8.413708800783033"><ele>22.8</ele><time>2026-04-15T16:22:48Z</time></trkpt><trkpt lat="44.20706594913329" lon="8.41358819455974"><ele>24.200000000000003</ele><time>2026-04-15T16:22:49Z</time></trkpt><trkpt lat="44.20706922102984" lon="8.413459220142961"><ele>25.6</ele><time>2026-04-15T16:22:50Z</time></trkpt><trkpt lat="44.207073180858444" lon="8.413325423165341"><ele>27.0</ele><time>2026-04-15T16:22:51Z</time></trkpt><trkpt lat="44.20705922682727" lon="8.413195631418889"><ele>27.0</ele><time>2026-04-15T16:22:52Z</time></trkpt><trkpt lat="44.207063474588544" lon="8.413063329096357"><ele>27.000000000000004</ele><time>2026-04-15T16:22:53Z</time></trkpt><trkpt lat="44.207067472130305" lon="8.41293996497361"><ele>27.000000000000004</ele><time>2026-04-15T16:22:54Z</time></trkpt><trkpt lat="44.20706588122505" lon="8.412812390820559"><ele>27.0</ele><time>2026-04-15T16:22:55Z</time></trkpt><trkpt lat="44.20707740783053" lon="8.41268146127304"><ele>27.0</ele><time>2026-04-15T16:22:56Z</time></trkpt><trkpt lat="44.207105323402466" lon="8.412548280654764"><ele>26.6</ele><time>2026-04-15T16:22:57Z</time></trkpt><trkpt lat="44.20714097422512" lon="8.412418431125694"><ele>26.200000000000003</ele><time>2026-04-15T16:22:58Z</time></trkpt><trkpt lat="44.207178427018654" lon="8.412286649508303"><ele>25.8</ele><time>2026-04-15T16:22:59Z</time></trkpt><trkpt lat="44.20721110347063" lon="8.412159606914063"><ele>25.4</ele><time>2026-04-15T16:23:00Z</time></trkpt><trkpt lat="44.207232140008365" lon="8.41204366058308"><ele>25.0</ele><time>2026-04-15T16:23:01Z</time></trkpt><trkpt lat="44.207246025406015" lon="8.41191745128094"><ele>24.500000000000004</ele><time>2026-04-15T16:23:02Z</time></trkpt><trkpt lat="44.20725614928213" lon="8.411792505639953"><ele>24.0</ele><time>2026-04-15T16:23:03Z</time></trkpt><trkpt lat="44.20726798583752" lon="8.411668198791718"><ele>23.5</ele><time>2026-04-15T16:23:04Z</time></trkpt><trkpt lat="44.20728816022275" lon="8.411561832557574"><ele>23.0</ele><time>2026-04-15T16:23:05Z</time></trkpt><trkpt lat="44.20739620601482" lon="8.41147431691625"><ele>22.5</ele><time>2026-04-15T16:23:07Z</time></trkpt><trkpt lat="44.207457477342956" lon="8.411506375042078"><ele>22.0</ele><time>2026-04-15T16:23:08Z</time></trkpt><trkpt lat="44.20750651322625" lon="8.411586106510738"><ele>25.333333333333332</ele><time>2026-04-15T16:23:09Z</time></trkpt><trkpt lat="44.20752229849553" lon="8.411684017819443"><ele>28.666666666666664</ele><time>2026-04-15T16:23:10Z</time></trkpt><trkpt lat="44.207483226984884" lon="8.411778501931225"><ele>32.0</ele><time>2026-04-15T16:23:11Z</time></trkpt><trkpt lat="44.20746530689263" lon="8.411882967864024"><ele>35.333333333333336</ele><time>2026-04-15T16:23:12Z</time></trkpt><trkpt lat="44.207454540174965" lon="8.411987578574054"><ele>38.666666666666664</ele><time>2026-04-15T16:23:13Z</time></trkpt><trkpt lat="44.20744868141012" lon="8.412095232180281"><ele>42.0</ele><time>2026-04-15T16:23:14Z</time></trkpt><trkpt lat="44.207453456652765" lon="8.412210614498804"><ele>43.333333333333336</ele><time>2026-04-15T16:23:15Z</time></trkpt><trkpt lat="44.20746307440252" lon="8.412317182243447"><ele>44.66666666666667</ele><time>2026-04-15T16:23:16Z</time></trkpt><trkpt lat="44.20747121795179" lon="8.412405668583993"><ele>46.0</ele><time>2026-04-15T16:23:17Z</time></trkpt><trkpt lat="44.20748148307119" lon="8.412517207564632"><ele>47.333333333333336</ele><time>2026-04-15T16:23:19Z</time></trkpt><trkpt lat="44.20746912692566" lon="8.41238294771528"><ele>48.66666666666667</ele><time>2026-04-15T16:23:24Z</time></trkpt><trkpt lat="44.20745934659336" lon="8.412276676348077"><ele>50.0</ele><time>2026-04-15T16:23:26Z</time></trkpt><trkpt lat="44.207498833348374" lon="8.412199975992475"><ele>48.85714285714286</ele><time>2026-04-15T16:24:12Z</time></trkpt><trkpt lat="44.20750331706933" lon="8.412089216789825"><ele>47.714285714285715</ele><time>2026-04-15T16:24:15Z</time></trkpt><trkpt lat="44.207512288927994" lon="8.41199179230618"><ele>46.57142857142857</ele><time>2026-04-15T16:24:18Z</time></trkpt><trkpt lat="44.207540932247774" lon="8.412079635567187"><ele>45.42857142857143</ele><time>2026-04-15T16:26:16.999Z</time></trkpt><trkpt lat="44.207554830413926" lon="8.41198172767157"><ele>44.285714285714285</ele><time>2026-04-15T16:26:31.999Z</time></trkpt><trkpt lat="44.20761686316758" lon="8.411955018691042"><ele>43.142857142857146</ele><time>2026-04-15T16:26:44.999Z</time></trkpt><trkpt lat="44.207666078372746" lon="8.411878635107854"><ele>42.0</ele><time>2026-04-15T16:27:22.999Z</time></trkpt><trkpt lat="44.207593770787646" lon="8.411875464343735"><ele>42.0</ele><time>2026-04-15T16:27:32.999Z</time></trkpt><trkpt lat="44.20752418169236" lon="8.411865809169937"><ele>42.0</ele><time>2026-04-15T16:28:52.999Z</time></trkpt><trkpt lat="44.207458539227396" lon="8.41188032101752"><ele>42.0</ele><time>2026-04-15T17:05:25Z</time></trkpt><trkpt lat="44.20755089808275" lon="8.411878969577536"><ele>42.0</ele><time>2026-04-15T17:05:27Z</time></trkpt><trkpt lat="44.207655298597935" lon="8.411884628545197"><ele>42.0</ele><time>2026-04-15T17:13:33Z</time></trkpt><trkpt lat="44.20759750443675" lon="8.411834973499182"><ele>42.0</ele><time>2026-04-15T17:36:22Z</time></trkpt></trkseg></trk></gpx>